<?xml version="1.0" encoding="UTF-8" standalone="no" ?>
<gpx xmlns="http://www.topografix.com/GPX/1/1" xmlns:xsi="http://www.w3.org/2001/XMLSchema-instance" xsi:schemaLocation="http://www.topografix.com/GPX/1/1 http://www.topografix.com/GPX/1/1/gpx.xsd" version="1.1" creator="VisuGPX - https://www.visugpx.com">
  <metadata>
    <name>Balade découverte : Sur la route du musée</name>
    <desc><![CDATA[Petite boucle reliant le novotel au musée de la ville pour la visite de l'expo Niki de St Phalle]]></desc>
  </metadata>
  <trk>
    <name><![CDATA[SityTrail - Sur la route du musée]]></name>
    <desc><![CDATA[Petite boucle reliant le novotel au musée de la ville pour la visite de l'expo Niki de St Phalle]]></desc>
    <trkseg>
      <trkpt lat="50.51429" lon="1.57815">
        <ele>13</ele>
        <time>2021-08-11T07:05:53.390Z</time>
      </trkpt>
      <trkpt lat="50.51413" lon="1.57803">
        <ele>13</ele>
        <time>2021-08-11T07:10:36.528Z</time>
      </trkpt>
      <trkpt lat="50.51413" lon="1.57803">
        <ele>13</ele>
        <time>2021-08-11T07:10:41.528Z</time>
      </trkpt>
      <trkpt lat="50.51413" lon="1.57803">
        <ele>13</ele>
        <time>2021-08-11T07:10:46.526Z</time>
      </trkpt>
      <trkpt lat="50.51413" lon="1.57803">
        <ele>13</ele>
        <time>2021-08-11T07:10:51.526Z</time>
      </trkpt>
      <trkpt lat="50.51413" lon="1.57803">
        <ele>13</ele>
        <time>2021-08-11T07:10:56.527Z</time>
      </trkpt>
      <trkpt lat="50.51413" lon="1.57803">
        <ele>13</ele>
        <time>2021-08-11T07:11:33.533Z</time>
      </trkpt>
      <trkpt lat="50.51413" lon="1.57803">
        <ele>13</ele>
        <time>2021-08-11T07:11:38.524Z</time>
      </trkpt>
      <trkpt lat="50.51413" lon="1.57804">
        <ele>13</ele>
        <time>2021-08-11T07:11:43.530Z</time>
      </trkpt>
      <trkpt lat="50.51412" lon="1.57808">
        <ele>13</ele>
        <time>2021-08-11T07:11:48.516Z</time>
      </trkpt>
      <trkpt lat="50.51413" lon="1.57819">
        <ele>13</ele>
        <time>2021-08-11T07:11:53.525Z</time>
      </trkpt>
      <trkpt lat="50.51414" lon="1.57815">
        <ele>13</ele>
        <time>2021-08-11T07:11:57.530Z</time>
      </trkpt>
      <trkpt lat="50.51415" lon="1.57813">
        <ele>13</ele>
        <time>2021-08-11T07:12:01.524Z</time>
      </trkpt>
      <trkpt lat="50.51417" lon="1.57817">
        <ele>13</ele>
        <time>2021-08-11T07:12:06.525Z</time>
      </trkpt>
      <trkpt lat="50.5142" lon="1.57822">
        <ele>15</ele>
        <time>2021-08-11T07:12:11.520Z</time>
      </trkpt>
      <trkpt lat="50.51423" lon="1.57825">
        <ele>15</ele>
        <time>2021-08-11T07:12:15.533Z</time>
      </trkpt>
      <trkpt lat="50.51426" lon="1.57831">
        <ele>15</ele>
        <time>2021-08-11T07:12:20.527Z</time>
      </trkpt>
      <trkpt lat="50.51429" lon="1.57837">
        <ele>15</ele>
        <time>2021-08-11T07:12:24.546Z</time>
      </trkpt>
      <trkpt lat="50.51432" lon="1.57843">
        <ele>15</ele>
        <time>2021-08-11T07:12:29.528Z</time>
      </trkpt>
      <trkpt lat="50.51434" lon="1.57849">
        <ele>17</ele>
        <time>2021-08-11T07:12:34.521Z</time>
      </trkpt>
      <trkpt lat="50.51437" lon="1.57853">
        <ele>17</ele>
        <time>2021-08-11T07:12:38.526Z</time>
      </trkpt>
      <trkpt lat="50.51442" lon="1.57858">
        <ele>17</ele>
        <time>2021-08-11T07:12:43.517Z</time>
      </trkpt>
      <trkpt lat="50.51448" lon="1.57861">
        <ele>17</ele>
        <time>2021-08-11T07:12:48.521Z</time>
      </trkpt>
      <trkpt lat="50.51453" lon="1.57863">
        <ele>17</ele>
        <time>2021-08-11T07:12:53.522Z</time>
      </trkpt>
      <trkpt lat="50.51458" lon="1.57864">
        <ele>17</ele>
        <time>2021-08-11T07:12:57.528Z</time>
      </trkpt>
      <trkpt lat="50.51464" lon="1.57865">
        <ele>16</ele>
        <time>2021-08-11T07:13:02.517Z</time>
      </trkpt>
      <trkpt lat="50.51468" lon="1.57866">
        <ele>16</ele>
        <time>2021-08-11T07:13:06.522Z</time>
      </trkpt>
      <trkpt lat="50.51474" lon="1.57869">
        <ele>16</ele>
        <time>2021-08-11T07:13:11.530Z</time>
      </trkpt>
      <trkpt lat="50.51478" lon="1.57871">
        <ele>16</ele>
        <time>2021-08-11T07:13:16.528Z</time>
      </trkpt>
      <trkpt lat="50.51484" lon="1.57873">
        <ele>16</ele>
        <time>2021-08-11T07:13:21.521Z</time>
      </trkpt>
      <trkpt lat="50.51488" lon="1.57875">
        <ele>15</ele>
        <time>2021-08-11T07:13:25.520Z</time>
      </trkpt>
      <trkpt lat="50.51494" lon="1.57877">
        <ele>16</ele>
        <time>2021-08-11T07:13:30.518Z</time>
      </trkpt>
      <trkpt lat="50.51498" lon="1.57879">
        <ele>16</ele>
        <time>2021-08-11T07:13:34.524Z</time>
      </trkpt>
      <trkpt lat="50.51503" lon="1.5788">
        <ele>16</ele>
        <time>2021-08-11T07:13:39.524Z</time>
      </trkpt>
      <trkpt lat="50.51508" lon="1.5788">
        <ele>16</ele>
        <time>2021-08-11T07:13:43.551Z</time>
      </trkpt>
      <trkpt lat="50.51514" lon="1.57881">
        <ele>16</ele>
        <time>2021-08-11T07:13:48.526Z</time>
      </trkpt>
      <trkpt lat="50.5152" lon="1.57882">
        <ele>17</ele>
        <time>2021-08-11T07:13:53.527Z</time>
      </trkpt>
      <trkpt lat="50.51524" lon="1.57883">
        <ele>17</ele>
        <time>2021-08-11T07:13:57.534Z</time>
      </trkpt>
      <trkpt lat="50.51529" lon="1.57884">
        <ele>17</ele>
        <time>2021-08-11T07:14:01.522Z</time>
      </trkpt>
      <trkpt lat="50.51534" lon="1.57885">
        <ele>17</ele>
        <time>2021-08-11T07:14:06.548Z</time>
      </trkpt>
      <trkpt lat="50.51539" lon="1.57886">
        <ele>17</ele>
        <time>2021-08-11T07:14:11.520Z</time>
      </trkpt>
      <trkpt lat="50.51544" lon="1.57887">
        <ele>19</ele>
        <time>2021-08-11T07:14:15.521Z</time>
      </trkpt>
      <trkpt lat="50.5155" lon="1.57889">
        <ele>19</ele>
        <time>2021-08-11T07:14:20.523Z</time>
      </trkpt>
      <trkpt lat="50.51555" lon="1.5789">
        <ele>19</ele>
        <time>2021-08-11T07:14:24.529Z</time>
      </trkpt>
      <trkpt lat="50.51561" lon="1.5789">
        <ele>19</ele>
        <time>2021-08-11T07:14:29.522Z</time>
      </trkpt>
      <trkpt lat="50.51567" lon="1.57891">
        <ele>19</ele>
        <time>2021-08-11T07:14:34.524Z</time>
      </trkpt>
      <trkpt lat="50.51573" lon="1.57893">
        <ele>16</ele>
        <time>2021-08-11T07:14:39.544Z</time>
      </trkpt>
      <trkpt lat="50.51579" lon="1.57894">
        <ele>16</ele>
        <time>2021-08-11T07:14:44.524Z</time>
      </trkpt>
      <trkpt lat="50.51584" lon="1.57895">
        <ele>16</ele>
        <time>2021-08-11T07:14:48.524Z</time>
      </trkpt>
      <trkpt lat="50.51589" lon="1.57898">
        <ele>16</ele>
        <time>2021-08-11T07:14:53.517Z</time>
      </trkpt>
      <trkpt lat="50.51594" lon="1.57899">
        <ele>16</ele>
        <time>2021-08-11T07:14:57.516Z</time>
      </trkpt>
      <trkpt lat="50.51598" lon="1.579">
        <ele>12</ele>
        <time>2021-08-11T07:15:01.524Z</time>
      </trkpt>
      <trkpt lat="50.51603" lon="1.57901">
        <ele>12</ele>
        <time>2021-08-11T07:15:05.524Z</time>
      </trkpt>
      <trkpt lat="50.51608" lon="1.57903">
        <ele>12</ele>
        <time>2021-08-11T07:15:09.538Z</time>
      </trkpt>
      <trkpt lat="50.51614" lon="1.57905">
        <ele>15</ele>
        <time>2021-08-11T07:15:14.553Z</time>
      </trkpt>
      <trkpt lat="50.5162" lon="1.57906">
        <ele>15</ele>
        <time>2021-08-11T07:15:19.536Z</time>
      </trkpt>
      <trkpt lat="50.51623" lon="1.5791">
        <ele>15</ele>
        <time>2021-08-11T07:15:23.568Z</time>
      </trkpt>
      <trkpt lat="50.51626" lon="1.57918">
        <ele>13</ele>
        <time>2021-08-11T07:15:28.523Z</time>
      </trkpt>
      <trkpt lat="50.51628" lon="1.57924">
        <ele>13</ele>
        <time>2021-08-11T07:15:32.533Z</time>
      </trkpt>
      <trkpt lat="50.51627" lon="1.57932">
        <ele>15</ele>
        <time>2021-08-11T07:15:37.526Z</time>
      </trkpt>
      <trkpt lat="50.51639" lon="1.57927">
        <ele>13</ele>
        <time>2021-08-11T07:15:42.521Z</time>
      </trkpt>
      <trkpt lat="50.51642" lon="1.57928">
        <ele>13</ele>
        <time>2021-08-11T07:15:46.526Z</time>
      </trkpt>
      <trkpt lat="50.51647" lon="1.57927">
        <ele>13</ele>
        <time>2021-08-11T07:15:51.524Z</time>
      </trkpt>
      <trkpt lat="50.51653" lon="1.5793">
        <ele>11</ele>
        <time>2021-08-11T07:15:56.521Z</time>
      </trkpt>
      <trkpt lat="50.5166" lon="1.57932">
        <ele>14</ele>
        <time>2021-08-11T07:16:01.519Z</time>
      </trkpt>
      <trkpt lat="50.51666" lon="1.57932">
        <ele>14</ele>
        <time>2021-08-11T07:16:06.528Z</time>
      </trkpt>
      <trkpt lat="50.51672" lon="1.57933">
        <ele>14</ele>
        <time>2021-08-11T07:16:11.533Z</time>
      </trkpt>
      <trkpt lat="50.51678" lon="1.57934">
        <ele>14</ele>
        <time>2021-08-11T07:16:16.525Z</time>
      </trkpt>
      <trkpt lat="50.51686" lon="1.57935">
        <ele>13</ele>
        <time>2021-08-11T07:16:21.534Z</time>
      </trkpt>
      <trkpt lat="50.51692" lon="1.57936">
        <ele>13</ele>
        <time>2021-08-11T07:16:26.528Z</time>
      </trkpt>
      <trkpt lat="50.51698" lon="1.57937">
        <ele>13</ele>
        <time>2021-08-11T07:16:31.516Z</time>
      </trkpt>
      <trkpt lat="50.51703" lon="1.57939">
        <ele>13</ele>
        <time>2021-08-11T07:16:35.528Z</time>
      </trkpt>
      <trkpt lat="50.51709" lon="1.57941">
        <ele>13</ele>
        <time>2021-08-11T07:16:40.522Z</time>
      </trkpt>
      <trkpt lat="50.51713" lon="1.57941">
        <ele>13</ele>
        <time>2021-08-11T07:16:44.530Z</time>
      </trkpt>
      <trkpt lat="50.51718" lon="1.57945">
        <ele>13</ele>
        <time>2021-08-11T07:16:48.533Z</time>
      </trkpt>
      <trkpt lat="50.51722" lon="1.57951">
        <ele>13</ele>
        <time>2021-08-11T07:16:53.514Z</time>
      </trkpt>
      <trkpt lat="50.51727" lon="1.57953">
        <ele>13</ele>
        <time>2021-08-11T07:16:58.528Z</time>
      </trkpt>
      <trkpt lat="50.51733" lon="1.5795">
        <ele>13</ele>
        <time>2021-08-11T07:17:03.525Z</time>
      </trkpt>
      <trkpt lat="50.51737" lon="1.57951">
        <ele>12</ele>
        <time>2021-08-11T07:17:07.530Z</time>
      </trkpt>
      <trkpt lat="50.51743" lon="1.57952">
        <ele>12</ele>
        <time>2021-08-11T07:17:12.524Z</time>
      </trkpt>
      <trkpt lat="50.51748" lon="1.57953">
        <ele>12</ele>
        <time>2021-08-11T07:17:17.524Z</time>
      </trkpt>
      <trkpt lat="50.51753" lon="1.57954">
        <ele>12</ele>
        <time>2021-08-11T07:17:21.534Z</time>
      </trkpt>
      <trkpt lat="50.51759" lon="1.57956">
        <ele>12</ele>
        <time>2021-08-11T07:17:26.525Z</time>
      </trkpt>
      <trkpt lat="50.51765" lon="1.57958">
        <ele>11</ele>
        <time>2021-08-11T07:17:31.524Z</time>
      </trkpt>
      <trkpt lat="50.51769" lon="1.57959">
        <ele>15</ele>
        <time>2021-08-11T07:17:35.524Z</time>
      </trkpt>
      <trkpt lat="50.51773" lon="1.57961">
        <ele>15</ele>
        <time>2021-08-11T07:17:39.529Z</time>
      </trkpt>
      <trkpt lat="50.51779" lon="1.57962">
        <ele>15</ele>
        <time>2021-08-11T07:17:44.538Z</time>
      </trkpt>
      <trkpt lat="50.51786" lon="1.57963">
        <ele>15</ele>
        <time>2021-08-11T07:17:49.526Z</time>
      </trkpt>
      <trkpt lat="50.5179" lon="1.57965">
        <ele>15</ele>
        <time>2021-08-11T07:17:53.526Z</time>
      </trkpt>
      <trkpt lat="50.51796" lon="1.57966">
        <ele>16</ele>
        <time>2021-08-11T07:17:58.525Z</time>
      </trkpt>
      <trkpt lat="50.518" lon="1.57968">
        <ele>16</ele>
        <time>2021-08-11T07:18:02.540Z</time>
      </trkpt>
      <trkpt lat="50.51806" lon="1.57968">
        <ele>16</ele>
        <time>2021-08-11T07:18:07.539Z</time>
      </trkpt>
      <trkpt lat="50.51812" lon="1.57969">
        <ele>16</ele>
        <time>2021-08-11T07:18:12.529Z</time>
      </trkpt>
      <trkpt lat="50.51817" lon="1.57969">
        <ele>16</ele>
        <time>2021-08-11T07:18:16.530Z</time>
      </trkpt>
      <trkpt lat="50.51822" lon="1.57971">
        <ele>16</ele>
        <time>2021-08-11T07:18:21.514Z</time>
      </trkpt>
      <trkpt lat="50.51824" lon="1.57973">
        <ele>16</ele>
        <time>2021-08-11T07:18:25.523Z</time>
      </trkpt>
      <trkpt lat="50.51823" lon="1.57973">
        <ele>16</ele>
        <time>2021-08-11T07:18:35.516Z</time>
      </trkpt>
      <trkpt lat="50.51823" lon="1.57973">
        <ele>16</ele>
        <time>2021-08-11T07:18:40.523Z</time>
      </trkpt>
      <trkpt lat="50.51824" lon="1.57973">
        <ele>16</ele>
        <time>2021-08-11T07:18:44.524Z</time>
      </trkpt>
      <trkpt lat="50.5183" lon="1.57975">
        <ele>16</ele>
        <time>2021-08-11T07:18:49.515Z</time>
      </trkpt>
      <trkpt lat="50.51834" lon="1.57976">
        <ele>16</ele>
        <time>2021-08-11T07:18:53.519Z</time>
      </trkpt>
      <trkpt lat="50.51839" lon="1.57979">
        <ele>16</ele>
        <time>2021-08-11T07:18:58.516Z</time>
      </trkpt>
      <trkpt lat="50.51844" lon="1.57981">
        <ele>16</ele>
        <time>2021-08-11T07:19:02.523Z</time>
      </trkpt>
      <trkpt lat="50.51849" lon="1.57983">
        <ele>16</ele>
        <time>2021-08-11T07:19:07.521Z</time>
      </trkpt>
      <trkpt lat="50.51854" lon="1.57985">
        <ele>16</ele>
        <time>2021-08-11T07:19:11.537Z</time>
      </trkpt>
      <trkpt lat="50.5186" lon="1.57988">
        <ele>19</ele>
        <time>2021-08-11T07:19:16.524Z</time>
      </trkpt>
      <trkpt lat="50.51865" lon="1.57989">
        <ele>19</ele>
        <time>2021-08-11T07:19:20.527Z</time>
      </trkpt>
      <trkpt lat="50.51871" lon="1.57989">
        <ele>19</ele>
        <time>2021-08-11T07:19:25.522Z</time>
      </trkpt>
      <trkpt lat="50.51878" lon="1.5799">
        <ele>18</ele>
        <time>2021-08-11T07:19:30.530Z</time>
      </trkpt>
      <trkpt lat="50.51885" lon="1.57991">
        <ele>18</ele>
        <time>2021-08-11T07:19:35.529Z</time>
      </trkpt>
      <trkpt lat="50.51891" lon="1.57993">
        <ele>18</ele>
        <time>2021-08-11T07:19:40.519Z</time>
      </trkpt>
      <trkpt lat="50.51897" lon="1.57994">
        <ele>18</ele>
        <time>2021-08-11T07:19:45.531Z</time>
      </trkpt>
      <trkpt lat="50.51903" lon="1.57994">
        <ele>20</ele>
        <time>2021-08-11T07:19:49.524Z</time>
      </trkpt>
      <trkpt lat="50.5191" lon="1.57995">
        <ele>20</ele>
        <time>2021-08-11T07:19:54.527Z</time>
      </trkpt>
      <trkpt lat="50.51916" lon="1.57996">
        <ele>20</ele>
        <time>2021-08-11T07:19:59.531Z</time>
      </trkpt>
      <trkpt lat="50.51922" lon="1.57998">
        <ele>20</ele>
        <time>2021-08-11T07:20:04.519Z</time>
      </trkpt>
      <trkpt lat="50.51928" lon="1.57999">
        <ele>20</ele>
        <time>2021-08-11T07:20:09.530Z</time>
      </trkpt>
      <trkpt lat="50.51935" lon="1.58001">
        <ele>21</ele>
        <time>2021-08-11T07:20:14.524Z</time>
      </trkpt>
      <trkpt lat="50.51942" lon="1.58001">
        <ele>21</ele>
        <time>2021-08-11T07:20:19.528Z</time>
      </trkpt>
      <trkpt lat="50.51947" lon="1.58002">
        <ele>21</ele>
        <time>2021-08-11T07:20:23.526Z</time>
      </trkpt>
      <trkpt lat="50.51952" lon="1.58004">
        <ele>21</ele>
        <time>2021-08-11T07:20:27.537Z</time>
      </trkpt>
      <trkpt lat="50.51959" lon="1.58005">
        <ele>16</ele>
        <time>2021-08-11T07:20:32.529Z</time>
      </trkpt>
      <trkpt lat="50.51965" lon="1.58006">
        <ele>16</ele>
        <time>2021-08-11T07:20:37.526Z</time>
      </trkpt>
      <trkpt lat="50.51971" lon="1.58007">
        <ele>16</ele>
        <time>2021-08-11T07:20:41.530Z</time>
      </trkpt>
      <trkpt lat="50.51977" lon="1.5801">
        <ele>16</ele>
        <time>2021-08-11T07:20:46.527Z</time>
      </trkpt>
      <trkpt lat="50.51981" lon="1.58011">
        <ele>16</ele>
        <time>2021-08-11T07:20:50.583Z</time>
      </trkpt>
      <trkpt lat="50.51987" lon="1.58013">
        <ele>15</ele>
        <time>2021-08-11T07:20:55.528Z</time>
      </trkpt>
      <trkpt lat="50.51994" lon="1.58014">
        <ele>16</ele>
        <time>2021-08-11T07:21:00.524Z</time>
      </trkpt>
      <trkpt lat="50.52" lon="1.58016">
        <ele>16</ele>
        <time>2021-08-11T07:21:05.524Z</time>
      </trkpt>
      <trkpt lat="50.52006" lon="1.58017">
        <ele>16</ele>
        <time>2021-08-11T07:21:10.530Z</time>
      </trkpt>
      <trkpt lat="50.52012" lon="1.58019">
        <ele>16</ele>
        <time>2021-08-11T07:21:15.530Z</time>
      </trkpt>
      <trkpt lat="50.52016" lon="1.5802">
        <ele>14</ele>
        <time>2021-08-11T07:21:19.534Z</time>
      </trkpt>
      <trkpt lat="50.52021" lon="1.58021">
        <ele>14</ele>
        <time>2021-08-11T07:21:23.527Z</time>
      </trkpt>
      <trkpt lat="50.52028" lon="1.58024">
        <ele>14</ele>
        <time>2021-08-11T07:21:28.525Z</time>
      </trkpt>
      <trkpt lat="50.52034" lon="1.58026">
        <ele>14</ele>
        <time>2021-08-11T07:21:33.531Z</time>
      </trkpt>
      <trkpt lat="50.5204" lon="1.58032">
        <ele>14</ele>
        <time>2021-08-11T07:21:38.523Z</time>
      </trkpt>
      <trkpt lat="50.52045" lon="1.58034">
        <ele>13</ele>
        <time>2021-08-11T07:21:42.528Z</time>
      </trkpt>
      <trkpt lat="50.52051" lon="1.58034">
        <ele>13</ele>
        <time>2021-08-11T07:21:47.530Z</time>
      </trkpt>
      <trkpt lat="50.52056" lon="1.58036">
        <ele>13</ele>
        <time>2021-08-11T07:21:52.532Z</time>
      </trkpt>
      <trkpt lat="50.52062" lon="1.58037">
        <ele>13</ele>
        <time>2021-08-11T07:21:57.523Z</time>
      </trkpt>
      <trkpt lat="50.52068" lon="1.58038">
        <ele>13</ele>
        <time>2021-08-11T07:22:02.534Z</time>
      </trkpt>
      <trkpt lat="50.52074" lon="1.58038">
        <ele>12</ele>
        <time>2021-08-11T07:22:07.524Z</time>
      </trkpt>
      <trkpt lat="50.5208" lon="1.5804">
        <ele>12</ele>
        <time>2021-08-11T07:22:12.519Z</time>
      </trkpt>
      <trkpt lat="50.52085" lon="1.58042">
        <ele>12</ele>
        <time>2021-08-11T07:22:16.527Z</time>
      </trkpt>
      <trkpt lat="50.52092" lon="1.58041">
        <ele>12</ele>
        <time>2021-08-11T07:22:21.529Z</time>
      </trkpt>
      <trkpt lat="50.52098" lon="1.58041">
        <ele>12</ele>
        <time>2021-08-11T07:22:26.517Z</time>
      </trkpt>
      <trkpt lat="50.52103" lon="1.58043">
        <ele>15</ele>
        <time>2021-08-11T07:22:30.527Z</time>
      </trkpt>
      <trkpt lat="50.52108" lon="1.58044">
        <ele>15</ele>
        <time>2021-08-11T07:22:34.521Z</time>
      </trkpt>
      <trkpt lat="50.52114" lon="1.58046">
        <ele>15</ele>
        <time>2021-08-11T07:22:39.532Z</time>
      </trkpt>
      <trkpt lat="50.52121" lon="1.58046">
        <ele>15</ele>
        <time>2021-08-11T07:22:44.524Z</time>
      </trkpt>
      <trkpt lat="50.52128" lon="1.58048">
        <ele>14</ele>
        <time>2021-08-11T07:22:49.522Z</time>
      </trkpt>
      <trkpt lat="50.52134" lon="1.58049">
        <ele>14</ele>
        <time>2021-08-11T07:22:54.535Z</time>
      </trkpt>
      <trkpt lat="50.5214" lon="1.58051">
        <ele>14</ele>
        <time>2021-08-11T07:22:59.532Z</time>
      </trkpt>
      <trkpt lat="50.52146" lon="1.58053">
        <ele>14</ele>
        <time>2021-08-11T07:23:04.527Z</time>
      </trkpt>
      <trkpt lat="50.52152" lon="1.58055">
        <ele>14</ele>
        <time>2021-08-11T07:23:09.527Z</time>
      </trkpt>
      <trkpt lat="50.52156" lon="1.5806">
        <ele>15</ele>
        <time>2021-08-11T07:23:14.523Z</time>
      </trkpt>
      <trkpt lat="50.52159" lon="1.58065">
        <ele>15</ele>
        <time>2021-08-11T07:23:18.527Z</time>
      </trkpt>
      <trkpt lat="50.52166" lon="1.58073">
        <ele>16</ele>
        <time>2021-08-11T07:23:32.516Z</time>
      </trkpt>
      <trkpt lat="50.5217" lon="1.58077">
        <ele>16</ele>
        <time>2021-08-11T07:23:37.517Z</time>
      </trkpt>
      <trkpt lat="50.52171" lon="1.58078">
        <ele>16</ele>
        <time>2021-08-11T07:23:42.524Z</time>
      </trkpt>
      <trkpt lat="50.52175" lon="1.5808">
        <ele>16</ele>
        <time>2021-08-11T07:23:47.530Z</time>
      </trkpt>
      <trkpt lat="50.52175" lon="1.5808">
        <ele>16</ele>
        <time>2021-08-11T07:23:51.534Z</time>
      </trkpt>
      <trkpt lat="50.52175" lon="1.5808">
        <ele>16</ele>
        <time>2021-08-11T07:24:01.527Z</time>
      </trkpt>
      <trkpt lat="50.52175" lon="1.58082">
        <ele>16</ele>
        <time>2021-08-11T07:24:06.516Z</time>
      </trkpt>
      <trkpt lat="50.5218" lon="1.58087">
        <ele>16</ele>
        <time>2021-08-11T07:24:11.518Z</time>
      </trkpt>
      <trkpt lat="50.52184" lon="1.5808">
        <ele>15</ele>
        <time>2021-08-11T07:24:15.530Z</time>
      </trkpt>
      <trkpt lat="50.52184" lon="1.58069">
        <ele>15</ele>
        <time>2021-08-11T07:24:19.581Z</time>
      </trkpt>
      <trkpt lat="50.5219" lon="1.5807">
        <ele>15</ele>
        <time>2021-08-11T07:24:24.528Z</time>
      </trkpt>
      <trkpt lat="50.52194" lon="1.58075">
        <ele>15</ele>
        <time>2021-08-11T07:24:29.526Z</time>
      </trkpt>
      <trkpt lat="50.52198" lon="1.58078">
        <ele>15</ele>
        <time>2021-08-11T07:24:34.522Z</time>
      </trkpt>
      <trkpt lat="50.52202" lon="1.5808">
        <ele>15</ele>
        <time>2021-08-11T07:24:38.526Z</time>
      </trkpt>
      <trkpt lat="50.52207" lon="1.58081">
        <ele>15</ele>
        <time>2021-08-11T07:24:42.527Z</time>
      </trkpt>
      <trkpt lat="50.5221" lon="1.58082">
        <ele>14</ele>
        <time>2021-08-11T07:24:46.522Z</time>
      </trkpt>
      <trkpt lat="50.52216" lon="1.58086">
        <ele>14</ele>
        <time>2021-08-11T07:24:51.521Z</time>
      </trkpt>
      <trkpt lat="50.5222" lon="1.58086">
        <ele>14</ele>
        <time>2021-08-11T07:24:55.532Z</time>
      </trkpt>
      <trkpt lat="50.52225" lon="1.5809">
        <ele>14</ele>
        <time>2021-08-11T07:25:00.526Z</time>
      </trkpt>
      <trkpt lat="50.52231" lon="1.58091">
        <ele>14</ele>
        <time>2021-08-11T07:25:05.524Z</time>
      </trkpt>
      <trkpt lat="50.52236" lon="1.58093">
        <ele>13</ele>
        <time>2021-08-11T07:25:10.520Z</time>
      </trkpt>
      <trkpt lat="50.52243" lon="1.58096">
        <ele>13</ele>
        <time>2021-08-11T07:25:15.533Z</time>
      </trkpt>
      <trkpt lat="50.52249" lon="1.58098">
        <ele>15</ele>
        <time>2021-08-11T07:25:20.521Z</time>
      </trkpt>
      <trkpt lat="50.52254" lon="1.58102">
        <ele>15</ele>
        <time>2021-08-11T07:25:25.523Z</time>
      </trkpt>
      <trkpt lat="50.52259" lon="1.58103">
        <ele>15</ele>
        <time>2021-08-11T07:25:29.537Z</time>
      </trkpt>
      <trkpt lat="50.52265" lon="1.58104">
        <ele>15</ele>
        <time>2021-08-11T07:25:34.530Z</time>
      </trkpt>
      <trkpt lat="50.52271" lon="1.58106">
        <ele>15</ele>
        <time>2021-08-11T07:25:39.519Z</time>
      </trkpt>
      <trkpt lat="50.52277" lon="1.58109">
        <ele>15</ele>
        <time>2021-08-11T07:25:44.526Z</time>
      </trkpt>
      <trkpt lat="50.52282" lon="1.58111">
        <ele>15</ele>
        <time>2021-08-11T07:25:49.526Z</time>
      </trkpt>
      <trkpt lat="50.52287" lon="1.58113">
        <ele>15</ele>
        <time>2021-08-11T07:25:54.529Z</time>
      </trkpt>
      <trkpt lat="50.52293" lon="1.58115">
        <ele>16</ele>
        <time>2021-08-11T07:25:59.532Z</time>
      </trkpt>
      <trkpt lat="50.52298" lon="1.58116">
        <ele>16</ele>
        <time>2021-08-11T07:26:03.532Z</time>
      </trkpt>
      <trkpt lat="50.52303" lon="1.58121">
        <ele>16</ele>
        <time>2021-08-11T07:26:08.528Z</time>
      </trkpt>
      <trkpt lat="50.52308" lon="1.58125">
        <ele>16</ele>
        <time>2021-08-11T07:26:12.524Z</time>
      </trkpt>
      <trkpt lat="50.52313" lon="1.58127">
        <ele>15</ele>
        <time>2021-08-11T07:26:17.522Z</time>
      </trkpt>
      <trkpt lat="50.5232" lon="1.58127">
        <ele>15</ele>
        <time>2021-08-11T07:26:22.536Z</time>
      </trkpt>
      <trkpt lat="50.52326" lon="1.5813">
        <ele>15</ele>
        <time>2021-08-11T07:26:27.534Z</time>
      </trkpt>
      <trkpt lat="50.52331" lon="1.58132">
        <ele>15</ele>
        <time>2021-08-11T07:26:32.524Z</time>
      </trkpt>
      <trkpt lat="50.52338" lon="1.58132">
        <ele>15</ele>
        <time>2021-08-11T07:26:37.526Z</time>
      </trkpt>
      <trkpt lat="50.52344" lon="1.58136">
        <ele>15</ele>
        <time>2021-08-11T07:26:42.531Z</time>
      </trkpt>
      <trkpt lat="50.52351" lon="1.58139">
        <ele>14</ele>
        <time>2021-08-11T07:26:47.529Z</time>
      </trkpt>
      <trkpt lat="50.52358" lon="1.58143">
        <ele>14</ele>
        <time>2021-08-11T07:26:52.531Z</time>
      </trkpt>
      <trkpt lat="50.52362" lon="1.58146">
        <ele>14</ele>
        <time>2021-08-11T07:26:56.525Z</time>
      </trkpt>
      <trkpt lat="50.52369" lon="1.58149">
        <ele>14</ele>
        <time>2021-08-11T07:27:01.533Z</time>
      </trkpt>
      <trkpt lat="50.52374" lon="1.58153">
        <ele>16</ele>
        <time>2021-08-11T07:27:06.525Z</time>
      </trkpt>
      <trkpt lat="50.5238" lon="1.58156">
        <ele>14</ele>
        <time>2021-08-11T07:27:11.533Z</time>
      </trkpt>
      <trkpt lat="50.52385" lon="1.58163">
        <ele>14</ele>
        <time>2021-08-11T07:27:16.530Z</time>
      </trkpt>
      <trkpt lat="50.52389" lon="1.58165">
        <ele>14</ele>
        <time>2021-08-11T07:27:20.532Z</time>
      </trkpt>
      <trkpt lat="50.52395" lon="1.58165">
        <ele>14</ele>
        <time>2021-08-11T07:27:25.522Z</time>
      </trkpt>
      <trkpt lat="50.52401" lon="1.5817">
        <ele>14</ele>
        <time>2021-08-11T07:27:30.527Z</time>
      </trkpt>
      <trkpt lat="50.52407" lon="1.58172">
        <ele>14</ele>
        <time>2021-08-11T07:27:35.523Z</time>
      </trkpt>
      <trkpt lat="50.52411" lon="1.58175">
        <ele>14</ele>
        <time>2021-08-11T07:27:40.525Z</time>
      </trkpt>
      <trkpt lat="50.52416" lon="1.58178">
        <ele>14</ele>
        <time>2021-08-11T07:27:45.530Z</time>
      </trkpt>
      <trkpt lat="50.52423" lon="1.58181">
        <ele>14</ele>
        <time>2021-08-11T07:27:50.530Z</time>
      </trkpt>
      <trkpt lat="50.52429" lon="1.58184">
        <ele>14</ele>
        <time>2021-08-11T07:27:55.522Z</time>
      </trkpt>
      <trkpt lat="50.52434" lon="1.58186">
        <ele>13</ele>
        <time>2021-08-11T07:27:59.531Z</time>
      </trkpt>
      <trkpt lat="50.52439" lon="1.5819">
        <ele>13</ele>
        <time>2021-08-11T07:28:04.520Z</time>
      </trkpt>
      <trkpt lat="50.52444" lon="1.58192">
        <ele>13</ele>
        <time>2021-08-11T07:28:08.538Z</time>
      </trkpt>
      <trkpt lat="50.5245" lon="1.58197">
        <ele>13</ele>
        <time>2021-08-11T07:28:13.530Z</time>
      </trkpt>
      <trkpt lat="50.52456" lon="1.58202">
        <ele>13</ele>
        <time>2021-08-11T07:28:18.519Z</time>
      </trkpt>
      <trkpt lat="50.52461" lon="1.58204">
        <ele>11</ele>
        <time>2021-08-11T07:28:22.528Z</time>
      </trkpt>
      <trkpt lat="50.52467" lon="1.58208">
        <ele>11</ele>
        <time>2021-08-11T07:28:27.527Z</time>
      </trkpt>
      <trkpt lat="50.52469" lon="1.5821">
        <ele>13</ele>
        <time>2021-08-11T07:28:42.532Z</time>
      </trkpt>
      <trkpt lat="50.52469" lon="1.58202">
        <ele>11</ele>
        <time>2021-08-11T07:28:47.524Z</time>
      </trkpt>
      <trkpt lat="50.52463" lon="1.58209">
        <ele>13</ele>
        <time>2021-08-11T07:28:52.522Z</time>
      </trkpt>
      <trkpt lat="50.52461" lon="1.5822">
        <ele>13</ele>
        <time>2021-08-11T07:28:57.512Z</time>
      </trkpt>
      <trkpt lat="50.52459" lon="1.58226">
        <ele>13</ele>
        <time>2021-08-11T07:29:01.513Z</time>
      </trkpt>
      <trkpt lat="50.52458" lon="1.58234">
        <ele>14</ele>
        <time>2021-08-11T07:29:06.515Z</time>
      </trkpt>
      <trkpt lat="50.52457" lon="1.58246">
        <ele>14</ele>
        <time>2021-08-11T07:29:11.526Z</time>
      </trkpt>
      <trkpt lat="50.52456" lon="1.58257">
        <ele>14</ele>
        <time>2021-08-11T07:29:16.519Z</time>
      </trkpt>
      <trkpt lat="50.52455" lon="1.58267">
        <ele>15</ele>
        <time>2021-08-11T07:29:21.520Z</time>
      </trkpt>
      <trkpt lat="50.52453" lon="1.58275">
        <ele>15</ele>
        <time>2021-08-11T07:29:26.514Z</time>
      </trkpt>
      <trkpt lat="50.52451" lon="1.58283">
        <ele>15</ele>
        <time>2021-08-11T07:29:30.527Z</time>
      </trkpt>
      <trkpt lat="50.52451" lon="1.58294">
        <ele>15</ele>
        <time>2021-08-11T07:29:35.529Z</time>
      </trkpt>
      <trkpt lat="50.5245" lon="1.58303">
        <ele>15</ele>
        <time>2021-08-11T07:29:40.522Z</time>
      </trkpt>
      <trkpt lat="50.52449" lon="1.58312">
        <ele>15</ele>
        <time>2021-08-11T07:29:44.523Z</time>
      </trkpt>
      <trkpt lat="50.52447" lon="1.58322">
        <ele>16</ele>
        <time>2021-08-11T07:29:49.523Z</time>
      </trkpt>
      <trkpt lat="50.52446" lon="1.5833">
        <ele>16</ele>
        <time>2021-08-11T07:29:53.521Z</time>
      </trkpt>
      <trkpt lat="50.52443" lon="1.58335">
        <ele>16</ele>
        <time>2021-08-11T07:29:57.557Z</time>
      </trkpt>
      <trkpt lat="50.52438" lon="1.58342">
        <ele>16</ele>
        <time>2021-08-11T07:30:20.532Z</time>
      </trkpt>
      <trkpt lat="50.52438" lon="1.58342">
        <ele>16</ele>
        <time>2021-08-11T07:30:25.525Z</time>
      </trkpt>
      <trkpt lat="50.52436" lon="1.58343">
        <ele>16</ele>
        <time>2021-08-11T07:30:29.550Z</time>
      </trkpt>
      <trkpt lat="50.52435" lon="1.5835">
        <ele>15</ele>
        <time>2021-08-11T07:30:34.522Z</time>
      </trkpt>
      <trkpt lat="50.52433" lon="1.58355">
        <ele>15</ele>
        <time>2021-08-11T07:30:38.533Z</time>
      </trkpt>
      <trkpt lat="50.5243" lon="1.5836">
        <ele>15</ele>
        <time>2021-08-11T07:30:43.515Z</time>
      </trkpt>
      <trkpt lat="50.52429" lon="1.58365">
        <ele>15</ele>
        <time>2021-08-11T07:30:47.554Z</time>
      </trkpt>
      <trkpt lat="50.52427" lon="1.58372">
        <ele>15</ele>
        <time>2021-08-11T07:30:52.519Z</time>
      </trkpt>
      <trkpt lat="50.52424" lon="1.58377">
        <ele>16</ele>
        <time>2021-08-11T07:30:57.525Z</time>
      </trkpt>
      <trkpt lat="50.52422" lon="1.58384">
        <ele>16</ele>
        <time>2021-08-11T07:31:02.515Z</time>
      </trkpt>
      <trkpt lat="50.5242" lon="1.58391">
        <ele>16</ele>
        <time>2021-08-11T07:31:07.536Z</time>
      </trkpt>
      <trkpt lat="50.52418" lon="1.58399">
        <ele>16</ele>
        <time>2021-08-11T07:31:12.515Z</time>
      </trkpt>
      <trkpt lat="50.52414" lon="1.58404">
        <ele>15</ele>
        <time>2021-08-11T07:31:17.517Z</time>
      </trkpt>
      <trkpt lat="50.52412" lon="1.5841">
        <ele>15</ele>
        <time>2021-08-11T07:31:22.521Z</time>
      </trkpt>
      <trkpt lat="50.5241" lon="1.58417">
        <ele>15</ele>
        <time>2021-08-11T07:31:26.517Z</time>
      </trkpt>
      <trkpt lat="50.52407" lon="1.58426">
        <ele>15</ele>
        <time>2021-08-11T07:31:31.533Z</time>
      </trkpt>
      <trkpt lat="50.52405" lon="1.58433">
        <ele>14</ele>
        <time>2021-08-11T07:31:35.537Z</time>
      </trkpt>
      <trkpt lat="50.52401" lon="1.58442">
        <ele>14</ele>
        <time>2021-08-11T07:31:40.519Z</time>
      </trkpt>
      <trkpt lat="50.524" lon="1.58453">
        <ele>14</ele>
        <time>2021-08-11T07:31:45.515Z</time>
      </trkpt>
      <trkpt lat="50.52396" lon="1.58461">
        <ele>14</ele>
        <time>2021-08-11T07:31:49.629Z</time>
      </trkpt>
      <trkpt lat="50.52394" lon="1.58472">
        <ele>14</ele>
        <time>2021-08-11T07:31:54.522Z</time>
      </trkpt>
      <trkpt lat="50.52393" lon="1.58481">
        <ele>14</ele>
        <time>2021-08-11T07:31:58.537Z</time>
      </trkpt>
      <trkpt lat="50.5239" lon="1.58491">
        <ele>15</ele>
        <time>2021-08-11T07:32:03.518Z</time>
      </trkpt>
      <trkpt lat="50.52387" lon="1.58498">
        <ele>15</ele>
        <time>2021-08-11T07:32:07.535Z</time>
      </trkpt>
      <trkpt lat="50.52383" lon="1.58505">
        <ele>15</ele>
        <time>2021-08-11T07:32:11.530Z</time>
      </trkpt>
      <trkpt lat="50.52381" lon="1.58513">
        <ele>15</ele>
        <time>2021-08-11T07:32:16.521Z</time>
      </trkpt>
      <trkpt lat="50.52377" lon="1.58524">
        <ele>15</ele>
        <time>2021-08-11T07:32:21.524Z</time>
      </trkpt>
      <trkpt lat="50.52374" lon="1.5853">
        <ele>15</ele>
        <time>2021-08-11T07:32:25.530Z</time>
      </trkpt>
      <trkpt lat="50.52371" lon="1.58539">
        <ele>15</ele>
        <time>2021-08-11T07:32:30.526Z</time>
      </trkpt>
      <trkpt lat="50.52368" lon="1.58547">
        <ele>15</ele>
        <time>2021-08-11T07:32:35.531Z</time>
      </trkpt>
      <trkpt lat="50.52364" lon="1.58555">
        <ele>15</ele>
        <time>2021-08-11T07:32:40.516Z</time>
      </trkpt>
      <trkpt lat="50.52361" lon="1.58561">
        <ele>15</ele>
        <time>2021-08-11T07:32:44.525Z</time>
      </trkpt>
      <trkpt lat="50.52357" lon="1.58571">
        <ele>15</ele>
        <time>2021-08-11T07:32:49.520Z</time>
      </trkpt>
      <trkpt lat="50.52354" lon="1.58579">
        <ele>15</ele>
        <time>2021-08-11T07:32:54.528Z</time>
      </trkpt>
      <trkpt lat="50.52351" lon="1.58588">
        <ele>15</ele>
        <time>2021-08-11T07:32:59.522Z</time>
      </trkpt>
      <trkpt lat="50.52348" lon="1.58596">
        <ele>15</ele>
        <time>2021-08-11T07:33:03.533Z</time>
      </trkpt>
      <trkpt lat="50.52345" lon="1.58606">
        <ele>14</ele>
        <time>2021-08-11T07:33:08.523Z</time>
      </trkpt>
      <trkpt lat="50.52342" lon="1.58614">
        <ele>14</ele>
        <time>2021-08-11T07:33:12.546Z</time>
      </trkpt>
      <trkpt lat="50.5234" lon="1.58624">
        <ele>14</ele>
        <time>2021-08-11T07:33:17.546Z</time>
      </trkpt>
      <trkpt lat="50.52337" lon="1.58632">
        <ele>14</ele>
        <time>2021-08-11T07:33:21.559Z</time>
      </trkpt>
      <trkpt lat="50.52334" lon="1.58642">
        <ele>14</ele>
        <time>2021-08-11T07:33:26.537Z</time>
      </trkpt>
      <trkpt lat="50.52331" lon="1.58652">
        <ele>14</ele>
        <time>2021-08-11T07:33:31.525Z</time>
      </trkpt>
      <trkpt lat="50.52328" lon="1.58658">
        <ele>14</ele>
        <time>2021-08-11T07:33:35.556Z</time>
      </trkpt>
      <trkpt lat="50.52324" lon="1.58667">
        <ele>14</ele>
        <time>2021-08-11T07:33:40.521Z</time>
      </trkpt>
      <trkpt lat="50.52321" lon="1.58677">
        <ele>14</ele>
        <time>2021-08-11T07:33:45.528Z</time>
      </trkpt>
      <trkpt lat="50.52317" lon="1.58686">
        <ele>13</ele>
        <time>2021-08-11T07:33:50.526Z</time>
      </trkpt>
      <trkpt lat="50.52314" lon="1.58693">
        <ele>13</ele>
        <time>2021-08-11T07:33:54.556Z</time>
      </trkpt>
      <trkpt lat="50.52312" lon="1.58703">
        <ele>13</ele>
        <time>2021-08-11T07:33:59.529Z</time>
      </trkpt>
      <trkpt lat="50.52309" lon="1.5871">
        <ele>13</ele>
        <time>2021-08-11T07:34:03.522Z</time>
      </trkpt>
      <trkpt lat="50.52305" lon="1.58718">
        <ele>13</ele>
        <time>2021-08-11T07:34:08.535Z</time>
      </trkpt>
      <trkpt lat="50.52301" lon="1.58726">
        <ele>13</ele>
        <time>2021-08-11T07:34:13.517Z</time>
      </trkpt>
      <trkpt lat="50.523" lon="1.58733">
        <ele>13</ele>
        <time>2021-08-11T07:34:17.524Z</time>
      </trkpt>
      <trkpt lat="50.52296" lon="1.58741">
        <ele>13</ele>
        <time>2021-08-11T07:34:22.538Z</time>
      </trkpt>
      <trkpt lat="50.52293" lon="1.5875">
        <ele>13</ele>
        <time>2021-08-11T07:34:27.522Z</time>
      </trkpt>
      <trkpt lat="50.52289" lon="1.58759">
        <ele>13</ele>
        <time>2021-08-11T07:34:32.519Z</time>
      </trkpt>
      <trkpt lat="50.52285" lon="1.58769">
        <ele>12</ele>
        <time>2021-08-11T07:34:37.532Z</time>
      </trkpt>
      <trkpt lat="50.52281" lon="1.58777">
        <ele>12</ele>
        <time>2021-08-11T07:34:42.521Z</time>
      </trkpt>
      <trkpt lat="50.52277" lon="1.58784">
        <ele>12</ele>
        <time>2021-08-11T07:34:46.527Z</time>
      </trkpt>
      <trkpt lat="50.52273" lon="1.58793">
        <ele>12</ele>
        <time>2021-08-11T07:34:51.526Z</time>
      </trkpt>
      <trkpt lat="50.52269" lon="1.58803">
        <ele>12</ele>
        <time>2021-08-11T07:34:56.527Z</time>
      </trkpt>
      <trkpt lat="50.52266" lon="1.58812">
        <ele>12</ele>
        <time>2021-08-11T07:35:01.521Z</time>
      </trkpt>
      <trkpt lat="50.52264" lon="1.5882">
        <ele>12</ele>
        <time>2021-08-11T07:35:05.529Z</time>
      </trkpt>
      <trkpt lat="50.52261" lon="1.58829">
        <ele>12</ele>
        <time>2021-08-11T07:35:10.525Z</time>
      </trkpt>
      <trkpt lat="50.52259" lon="1.58839">
        <ele>12</ele>
        <time>2021-08-11T07:35:15.531Z</time>
      </trkpt>
      <trkpt lat="50.52255" lon="1.58847">
        <ele>12</ele>
        <time>2021-08-11T07:35:20.518Z</time>
      </trkpt>
      <trkpt lat="50.52251" lon="1.58856">
        <ele>12</ele>
        <time>2021-08-11T07:35:25.530Z</time>
      </trkpt>
      <trkpt lat="50.52249" lon="1.58862">
        <ele>12</ele>
        <time>2021-08-11T07:35:29.528Z</time>
      </trkpt>
      <trkpt lat="50.52246" lon="1.58871">
        <ele>12</ele>
        <time>2021-08-11T07:35:34.518Z</time>
      </trkpt>
      <trkpt lat="50.52243" lon="1.58881">
        <ele>12</ele>
        <time>2021-08-11T07:35:39.524Z</time>
      </trkpt>
      <trkpt lat="50.52241" lon="1.58889">
        <ele>12</ele>
        <time>2021-08-11T07:35:43.534Z</time>
      </trkpt>
      <trkpt lat="50.52238" lon="1.58897">
        <ele>12</ele>
        <time>2021-08-11T07:35:47.528Z</time>
      </trkpt>
      <trkpt lat="50.52236" lon="1.58907">
        <ele>11</ele>
        <time>2021-08-11T07:35:52.533Z</time>
      </trkpt>
      <trkpt lat="50.52233" lon="1.58916">
        <ele>11</ele>
        <time>2021-08-11T07:35:57.525Z</time>
      </trkpt>
      <trkpt lat="50.52231" lon="1.58926">
        <ele>11</ele>
        <time>2021-08-11T07:36:02.525Z</time>
      </trkpt>
      <trkpt lat="50.5223" lon="1.58936">
        <ele>11</ele>
        <time>2021-08-11T07:36:07.519Z</time>
      </trkpt>
      <trkpt lat="50.52228" lon="1.58945">
        <ele>11</ele>
        <time>2021-08-11T07:36:12.517Z</time>
      </trkpt>
      <trkpt lat="50.52226" lon="1.58955">
        <ele>11</ele>
        <time>2021-08-11T07:36:17.522Z</time>
      </trkpt>
      <trkpt lat="50.52222" lon="1.5896">
        <ele>11</ele>
        <time>2021-08-11T07:36:21.549Z</time>
      </trkpt>
      <trkpt lat="50.5222" lon="1.58969">
        <ele>11</ele>
        <time>2021-08-11T07:36:26.531Z</time>
      </trkpt>
      <trkpt lat="50.52219" lon="1.5898">
        <ele>11</ele>
        <time>2021-08-11T07:36:31.518Z</time>
      </trkpt>
      <trkpt lat="50.52217" lon="1.5899">
        <ele>12</ele>
        <time>2021-08-11T07:36:36.531Z</time>
      </trkpt>
      <trkpt lat="50.52216" lon="1.58997">
        <ele>12</ele>
        <time>2021-08-11T07:36:40.530Z</time>
      </trkpt>
      <trkpt lat="50.52214" lon="1.59006">
        <ele>12</ele>
        <time>2021-08-11T07:36:45.526Z</time>
      </trkpt>
      <trkpt lat="50.52213" lon="1.59016">
        <ele>12</ele>
        <time>2021-08-11T07:36:50.519Z</time>
      </trkpt>
      <trkpt lat="50.52212" lon="1.59023">
        <ele>12</ele>
        <time>2021-08-11T07:36:54.529Z</time>
      </trkpt>
      <trkpt lat="50.5221" lon="1.59032">
        <ele>12</ele>
        <time>2021-08-11T07:36:59.518Z</time>
      </trkpt>
      <trkpt lat="50.52207" lon="1.59041">
        <ele>14</ele>
        <time>2021-08-11T07:37:04.528Z</time>
      </trkpt>
      <trkpt lat="50.52205" lon="1.59049">
        <ele>17</ele>
        <time>2021-08-11T07:37:08.529Z</time>
      </trkpt>
      <trkpt lat="50.52203" lon="1.5906">
        <ele>17</ele>
        <time>2021-08-11T07:37:13.519Z</time>
      </trkpt>
      <trkpt lat="50.52201" lon="1.59068">
        <ele>17</ele>
        <time>2021-08-11T07:37:17.533Z</time>
      </trkpt>
      <trkpt lat="50.52198" lon="1.59075">
        <ele>15</ele>
        <time>2021-08-11T07:37:22.534Z</time>
      </trkpt>
      <trkpt lat="50.52194" lon="1.59082">
        <ele>15</ele>
        <time>2021-08-11T07:37:26.548Z</time>
      </trkpt>
      <trkpt lat="50.52191" lon="1.59091">
        <ele>15</ele>
        <time>2021-08-11T07:37:31.529Z</time>
      </trkpt>
      <trkpt lat="50.52188" lon="1.59097">
        <ele>16</ele>
        <time>2021-08-11T07:37:35.527Z</time>
      </trkpt>
      <trkpt lat="50.52186" lon="1.59105">
        <ele>16</ele>
        <time>2021-08-11T07:37:39.524Z</time>
      </trkpt>
      <trkpt lat="50.52183" lon="1.59115">
        <ele>16</ele>
        <time>2021-08-11T07:37:44.516Z</time>
      </trkpt>
      <trkpt lat="50.52181" lon="1.59122">
        <ele>16</ele>
        <time>2021-08-11T07:37:48.536Z</time>
      </trkpt>
      <trkpt lat="50.52178" lon="1.59131">
        <ele>15</ele>
        <time>2021-08-11T07:37:53.529Z</time>
      </trkpt>
      <trkpt lat="50.52176" lon="1.59138">
        <ele>15</ele>
        <time>2021-08-11T07:37:57.542Z</time>
      </trkpt>
      <trkpt lat="50.52173" lon="1.59148">
        <ele>15</ele>
        <time>2021-08-11T07:38:02.520Z</time>
      </trkpt>
      <trkpt lat="50.52169" lon="1.59157">
        <ele>15</ele>
        <time>2021-08-11T07:38:07.527Z</time>
      </trkpt>
      <trkpt lat="50.52166" lon="1.59164">
        <ele>15</ele>
        <time>2021-08-11T07:38:11.636Z</time>
      </trkpt>
      <trkpt lat="50.52161" lon="1.59171">
        <ele>15</ele>
        <time>2021-08-11T07:38:16.520Z</time>
      </trkpt>
      <trkpt lat="50.52157" lon="1.59177">
        <ele>15</ele>
        <time>2021-08-11T07:38:20.519Z</time>
      </trkpt>
      <trkpt lat="50.52153" lon="1.59183">
        <ele>13</ele>
        <time>2021-08-11T07:38:25.545Z</time>
      </trkpt>
      <trkpt lat="50.52147" lon="1.59189">
        <ele>13</ele>
        <time>2021-08-11T07:38:30.532Z</time>
      </trkpt>
      <trkpt lat="50.5214" lon="1.59194">
        <ele>13</ele>
        <time>2021-08-11T07:38:35.529Z</time>
      </trkpt>
      <trkpt lat="50.52133" lon="1.59198">
        <ele>13</ele>
        <time>2021-08-11T07:38:40.527Z</time>
      </trkpt>
      <trkpt lat="50.52128" lon="1.59202">
        <ele>13</ele>
        <time>2021-08-11T07:38:45.521Z</time>
      </trkpt>
      <trkpt lat="50.52123" lon="1.59205">
        <ele>13</ele>
        <time>2021-08-11T07:38:49.528Z</time>
      </trkpt>
      <trkpt lat="50.52119" lon="1.5921">
        <ele>11</ele>
        <time>2021-08-11T07:38:53.546Z</time>
      </trkpt>
      <trkpt lat="50.52113" lon="1.59215">
        <ele>11</ele>
        <time>2021-08-11T07:38:58.525Z</time>
      </trkpt>
      <trkpt lat="50.52109" lon="1.59219">
        <ele>11</ele>
        <time>2021-08-11T07:39:02.560Z</time>
      </trkpt>
      <trkpt lat="50.52102" lon="1.59222">
        <ele>11</ele>
        <time>2021-08-11T07:39:07.529Z</time>
      </trkpt>
      <trkpt lat="50.52096" lon="1.59227">
        <ele>11</ele>
        <time>2021-08-11T07:39:12.524Z</time>
      </trkpt>
      <trkpt lat="50.52091" lon="1.59231">
        <ele>11</ele>
        <time>2021-08-11T07:39:16.530Z</time>
      </trkpt>
      <trkpt lat="50.52086" lon="1.59236">
        <ele>11</ele>
        <time>2021-08-11T07:39:21.530Z</time>
      </trkpt>
      <trkpt lat="50.52079" lon="1.59241">
        <ele>9</ele>
        <time>2021-08-11T07:39:26.519Z</time>
      </trkpt>
      <trkpt lat="50.52073" lon="1.59246">
        <ele>9</ele>
        <time>2021-08-11T07:39:31.532Z</time>
      </trkpt>
      <trkpt lat="50.52068" lon="1.59251">
        <ele>9</ele>
        <time>2021-08-11T07:39:36.520Z</time>
      </trkpt>
      <trkpt lat="50.52061" lon="1.59255">
        <ele>9</ele>
        <time>2021-08-11T07:39:41.526Z</time>
      </trkpt>
      <trkpt lat="50.52054" lon="1.59258">
        <ele>9</ele>
        <time>2021-08-11T07:39:46.527Z</time>
      </trkpt>
      <trkpt lat="50.52048" lon="1.59262">
        <ele>9</ele>
        <time>2021-08-11T07:39:51.528Z</time>
      </trkpt>
      <trkpt lat="50.52042" lon="1.59268">
        <ele>8</ele>
        <time>2021-08-11T07:39:56.529Z</time>
      </trkpt>
      <trkpt lat="50.52035" lon="1.59273">
        <ele>10</ele>
        <time>2021-08-11T07:40:01.523Z</time>
      </trkpt>
      <trkpt lat="50.5203" lon="1.59278">
        <ele>10</ele>
        <time>2021-08-11T07:40:05.524Z</time>
      </trkpt>
      <trkpt lat="50.52024" lon="1.59284">
        <ele>10</ele>
        <time>2021-08-11T07:40:10.522Z</time>
      </trkpt>
      <trkpt lat="50.52018" lon="1.5929">
        <ele>10</ele>
        <time>2021-08-11T07:40:15.535Z</time>
      </trkpt>
      <trkpt lat="50.52012" lon="1.59295">
        <ele>10</ele>
        <time>2021-08-11T07:40:20.536Z</time>
      </trkpt>
      <trkpt lat="50.52008" lon="1.59299">
        <ele>10</ele>
        <time>2021-08-11T07:40:24.549Z</time>
      </trkpt>
      <trkpt lat="50.52001" lon="1.59303">
        <ele>10</ele>
        <time>2021-08-11T07:40:29.515Z</time>
      </trkpt>
      <trkpt lat="50.51996" lon="1.59307">
        <ele>10</ele>
        <time>2021-08-11T07:40:33.527Z</time>
      </trkpt>
      <trkpt lat="50.51991" lon="1.59312">
        <ele>10</ele>
        <time>2021-08-11T07:40:38.538Z</time>
      </trkpt>
      <trkpt lat="50.51986" lon="1.59318">
        <ele>10</ele>
        <time>2021-08-11T07:40:43.536Z</time>
      </trkpt>
      <trkpt lat="50.5198" lon="1.59324">
        <ele>9</ele>
        <time>2021-08-11T07:40:48.525Z</time>
      </trkpt>
      <trkpt lat="50.51976" lon="1.59329">
        <ele>9</ele>
        <time>2021-08-11T07:40:52.529Z</time>
      </trkpt>
      <trkpt lat="50.51972" lon="1.59335">
        <ele>9</ele>
        <time>2021-08-11T07:40:56.554Z</time>
      </trkpt>
      <trkpt lat="50.51966" lon="1.5934">
        <ele>9</ele>
        <time>2021-08-11T07:41:01.523Z</time>
      </trkpt>
      <trkpt lat="50.51961" lon="1.59347">
        <ele>9</ele>
        <time>2021-08-11T07:41:06.526Z</time>
      </trkpt>
      <trkpt lat="50.51957" lon="1.59353">
        <ele>9</ele>
        <time>2021-08-11T07:41:10.527Z</time>
      </trkpt>
      <trkpt lat="50.51952" lon="1.59358">
        <ele>9</ele>
        <time>2021-08-11T07:41:14.530Z</time>
      </trkpt>
      <trkpt lat="50.51947" lon="1.59364">
        <ele>9</ele>
        <time>2021-08-11T07:41:19.531Z</time>
      </trkpt>
      <trkpt lat="50.51942" lon="1.59371">
        <ele>9</ele>
        <time>2021-08-11T07:41:24.529Z</time>
      </trkpt>
      <trkpt lat="50.51937" lon="1.59378">
        <ele>10</ele>
        <time>2021-08-11T07:41:29.558Z</time>
      </trkpt>
      <trkpt lat="50.51931" lon="1.59384">
        <ele>10</ele>
        <time>2021-08-11T07:41:34.520Z</time>
      </trkpt>
      <trkpt lat="50.51927" lon="1.59391">
        <ele>8</ele>
        <time>2021-08-11T07:41:39.544Z</time>
      </trkpt>
      <trkpt lat="50.51926" lon="1.59401">
        <ele>8</ele>
        <time>2021-08-11T07:41:44.515Z</time>
      </trkpt>
      <trkpt lat="50.51928" lon="1.59407">
        <ele>9</ele>
        <time>2021-08-11T07:41:48.528Z</time>
      </trkpt>
      <trkpt lat="50.51931" lon="1.59415">
        <ele>10</ele>
        <time>2021-08-11T07:41:53.544Z</time>
      </trkpt>
      <trkpt lat="50.51935" lon="1.59422">
        <ele>10</ele>
        <time>2021-08-11T07:41:58.527Z</time>
      </trkpt>
      <trkpt lat="50.51935" lon="1.59431">
        <ele>11</ele>
        <time>2021-08-11T07:42:03.528Z</time>
      </trkpt>
      <trkpt lat="50.5193" lon="1.59437">
        <ele>9</ele>
        <time>2021-08-11T07:42:08.532Z</time>
      </trkpt>
      <trkpt lat="50.51926" lon="1.59442">
        <ele>9</ele>
        <time>2021-08-11T07:42:12.542Z</time>
      </trkpt>
      <trkpt lat="50.51921" lon="1.59448">
        <ele>9</ele>
        <time>2021-08-11T07:42:17.527Z</time>
      </trkpt>
      <trkpt lat="50.51916" lon="1.59455">
        <ele>9</ele>
        <time>2021-08-11T07:42:22.535Z</time>
      </trkpt>
      <trkpt lat="50.51911" lon="1.59459">
        <ele>10</ele>
        <time>2021-08-11T07:42:26.536Z</time>
      </trkpt>
      <trkpt lat="50.51906" lon="1.59466">
        <ele>10</ele>
        <time>2021-08-11T07:42:31.519Z</time>
      </trkpt>
      <trkpt lat="50.51901" lon="1.59473">
        <ele>10</ele>
        <time>2021-08-11T07:42:36.521Z</time>
      </trkpt>
      <trkpt lat="50.51897" lon="1.59478">
        <ele>10</ele>
        <time>2021-08-11T07:42:40.534Z</time>
      </trkpt>
      <trkpt lat="50.51892" lon="1.59486">
        <ele>10</ele>
        <time>2021-08-11T07:42:45.520Z</time>
      </trkpt>
      <trkpt lat="50.51889" lon="1.59495">
        <ele>11</ele>
        <time>2021-08-11T07:42:50.537Z</time>
      </trkpt>
      <trkpt lat="50.51888" lon="1.59506">
        <ele>11</ele>
        <time>2021-08-11T07:42:55.529Z</time>
      </trkpt>
      <trkpt lat="50.51886" lon="1.59514">
        <ele>9</ele>
        <time>2021-08-11T07:42:59.519Z</time>
      </trkpt>
      <trkpt lat="50.51883" lon="1.59523">
        <ele>9</ele>
        <time>2021-08-11T07:43:04.536Z</time>
      </trkpt>
      <trkpt lat="50.51879" lon="1.59531">
        <ele>9</ele>
        <time>2021-08-11T07:43:09.541Z</time>
      </trkpt>
      <trkpt lat="50.51874" lon="1.59538">
        <ele>9</ele>
        <time>2021-08-11T07:43:14.526Z</time>
      </trkpt>
      <trkpt lat="50.51868" lon="1.59543">
        <ele>10</ele>
        <time>2021-08-11T07:43:19.526Z</time>
      </trkpt>
      <trkpt lat="50.51863" lon="1.59546">
        <ele>10</ele>
        <time>2021-08-11T07:43:23.530Z</time>
      </trkpt>
      <trkpt lat="50.51856" lon="1.5955">
        <ele>10</ele>
        <time>2021-08-11T07:43:28.519Z</time>
      </trkpt>
      <trkpt lat="50.5185" lon="1.5955">
        <ele>10</ele>
        <time>2021-08-11T07:43:33.531Z</time>
      </trkpt>
      <trkpt lat="50.51845" lon="1.59549">
        <ele>9</ele>
        <time>2021-08-11T07:43:37.531Z</time>
      </trkpt>
      <trkpt lat="50.51844" lon="1.59552">
        <ele>9</ele>
        <time>2021-08-11T07:43:41.638Z</time>
      </trkpt>
      <trkpt lat="50.51845" lon="1.59558">
        <ele>9</ele>
        <time>2021-08-11T07:43:46.542Z</time>
      </trkpt>
      <trkpt lat="50.51843" lon="1.59569">
        <ele>9</ele>
        <time>2021-08-11T07:43:51.527Z</time>
      </trkpt>
      <trkpt lat="50.51841" lon="1.59576">
        <ele>9</ele>
        <time>2021-08-11T07:43:55.536Z</time>
      </trkpt>
      <trkpt lat="50.51841" lon="1.59586">
        <ele>9</ele>
        <time>2021-08-11T07:44:00.533Z</time>
      </trkpt>
      <trkpt lat="50.51838" lon="1.59596">
        <ele>9</ele>
        <time>2021-08-11T07:44:05.535Z</time>
      </trkpt>
      <trkpt lat="50.51836" lon="1.59604">
        <ele>8</ele>
        <time>2021-08-11T07:44:10.532Z</time>
      </trkpt>
      <trkpt lat="50.51833" lon="1.59614">
        <ele>8</ele>
        <time>2021-08-11T07:44:15.526Z</time>
      </trkpt>
      <trkpt lat="50.51831" lon="1.59622">
        <ele>8</ele>
        <time>2021-08-11T07:44:19.570Z</time>
      </trkpt>
      <trkpt lat="50.51827" lon="1.59631">
        <ele>8</ele>
        <time>2021-08-11T07:44:24.521Z</time>
      </trkpt>
      <trkpt lat="50.51824" lon="1.5964">
        <ele>8</ele>
        <time>2021-08-11T07:44:29.527Z</time>
      </trkpt>
      <trkpt lat="50.51821" lon="1.59647">
        <ele>8</ele>
        <time>2021-08-11T07:44:33.534Z</time>
      </trkpt>
      <trkpt lat="50.51819" lon="1.59654">
        <ele>9</ele>
        <time>2021-08-11T07:44:37.552Z</time>
      </trkpt>
      <trkpt lat="50.51816" lon="1.59663">
        <ele>9</ele>
        <time>2021-08-11T07:44:42.569Z</time>
      </trkpt>
      <trkpt lat="50.51814" lon="1.59673">
        <ele>9</ele>
        <time>2021-08-11T07:44:47.530Z</time>
      </trkpt>
      <trkpt lat="50.51812" lon="1.59683">
        <ele>9</ele>
        <time>2021-08-11T07:44:52.533Z</time>
      </trkpt>
      <trkpt lat="50.5181" lon="1.59692">
        <ele>9</ele>
        <time>2021-08-11T07:44:57.529Z</time>
      </trkpt>
      <trkpt lat="50.51808" lon="1.597">
        <ele>9</ele>
        <time>2021-08-11T07:45:01.525Z</time>
      </trkpt>
      <trkpt lat="50.51805" lon="1.59707">
        <ele>9</ele>
        <time>2021-08-11T07:45:05.529Z</time>
      </trkpt>
      <trkpt lat="50.51803" lon="1.59717">
        <ele>11</ele>
        <time>2021-08-11T07:45:10.528Z</time>
      </trkpt>
      <trkpt lat="50.518" lon="1.59727">
        <ele>11</ele>
        <time>2021-08-11T07:45:15.546Z</time>
      </trkpt>
      <trkpt lat="50.51797" lon="1.59736">
        <ele>10</ele>
        <time>2021-08-11T07:45:20.534Z</time>
      </trkpt>
      <trkpt lat="50.51794" lon="1.59746">
        <ele>10</ele>
        <time>2021-08-11T07:45:25.540Z</time>
      </trkpt>
      <trkpt lat="50.51792" lon="1.59755">
        <ele>10</ele>
        <time>2021-08-11T07:45:30.530Z</time>
      </trkpt>
      <trkpt lat="50.5179" lon="1.59764">
        <ele>11</ele>
        <time>2021-08-11T07:45:35.534Z</time>
      </trkpt>
      <trkpt lat="50.51787" lon="1.59774">
        <ele>11</ele>
        <time>2021-08-11T07:45:40.556Z</time>
      </trkpt>
      <trkpt lat="50.51784" lon="1.59783">
        <ele>11</ele>
        <time>2021-08-11T07:45:45.531Z</time>
      </trkpt>
      <trkpt lat="50.51781" lon="1.59791">
        <ele>11</ele>
        <time>2021-08-11T07:45:49.560Z</time>
      </trkpt>
      <trkpt lat="50.51778" lon="1.59799">
        <ele>10</ele>
        <time>2021-08-11T07:45:54.532Z</time>
      </trkpt>
      <trkpt lat="50.51776" lon="1.59806">
        <ele>10</ele>
        <time>2021-08-11T07:45:58.556Z</time>
      </trkpt>
      <trkpt lat="50.51773" lon="1.59815">
        <ele>10</ele>
        <time>2021-08-11T07:46:03.530Z</time>
      </trkpt>
      <trkpt lat="50.51771" lon="1.59824">
        <ele>11</ele>
        <time>2021-08-11T07:46:08.538Z</time>
      </trkpt>
      <trkpt lat="50.51769" lon="1.59834">
        <ele>11</ele>
        <time>2021-08-11T07:46:13.551Z</time>
      </trkpt>
      <trkpt lat="50.51767" lon="1.59844">
        <ele>11</ele>
        <time>2021-08-11T07:46:18.532Z</time>
      </trkpt>
      <trkpt lat="50.51764" lon="1.59854">
        <ele>10</ele>
        <time>2021-08-11T07:46:23.526Z</time>
      </trkpt>
      <trkpt lat="50.51761" lon="1.59863">
        <ele>10</ele>
        <time>2021-08-11T07:46:27.536Z</time>
      </trkpt>
      <trkpt lat="50.51759" lon="1.59873">
        <ele>10</ele>
        <time>2021-08-11T07:46:32.532Z</time>
      </trkpt>
      <trkpt lat="50.51755" lon="1.59882">
        <ele>11</ele>
        <time>2021-08-11T07:46:37.540Z</time>
      </trkpt>
      <trkpt lat="50.51753" lon="1.59889">
        <ele>11</ele>
        <time>2021-08-11T07:46:41.558Z</time>
      </trkpt>
      <trkpt lat="50.51751" lon="1.59896">
        <ele>11</ele>
        <time>2021-08-11T07:46:46.520Z</time>
      </trkpt>
      <trkpt lat="50.51749" lon="1.59904">
        <ele>11</ele>
        <time>2021-08-11T07:46:50.531Z</time>
      </trkpt>
      <trkpt lat="50.51746" lon="1.59913">
        <ele>11</ele>
        <time>2021-08-11T07:46:55.530Z</time>
      </trkpt>
      <trkpt lat="50.51742" lon="1.59924">
        <ele>11</ele>
        <time>2021-08-11T07:47:00.520Z</time>
      </trkpt>
      <trkpt lat="50.51738" lon="1.59932">
        <ele>11</ele>
        <time>2021-08-11T07:47:05.530Z</time>
      </trkpt>
      <trkpt lat="50.51736" lon="1.59942">
        <ele>11</ele>
        <time>2021-08-11T07:47:10.525Z</time>
      </trkpt>
      <trkpt lat="50.51734" lon="1.59952">
        <ele>12</ele>
        <time>2021-08-11T07:47:15.526Z</time>
      </trkpt>
      <trkpt lat="50.51732" lon="1.5996">
        <ele>11</ele>
        <time>2021-08-11T07:47:19.533Z</time>
      </trkpt>
      <trkpt lat="50.51729" lon="1.59969">
        <ele>11</ele>
        <time>2021-08-11T07:47:24.531Z</time>
      </trkpt>
      <trkpt lat="50.51727" lon="1.59978">
        <ele>11</ele>
        <time>2021-08-11T07:47:29.529Z</time>
      </trkpt>
      <trkpt lat="50.51724" lon="1.59987">
        <ele>12</ele>
        <time>2021-08-11T07:47:34.532Z</time>
      </trkpt>
      <trkpt lat="50.51721" lon="1.59996">
        <ele>12</ele>
        <time>2021-08-11T07:47:39.521Z</time>
      </trkpt>
      <trkpt lat="50.51718" lon="1.60004">
        <ele>12</ele>
        <time>2021-08-11T07:47:44.536Z</time>
      </trkpt>
      <trkpt lat="50.51717" lon="1.60005">
        <ele>12</ele>
        <time>2021-08-11T07:47:49.534Z</time>
      </trkpt>
      <trkpt lat="50.51715" lon="1.60011">
        <ele>12</ele>
        <time>2021-08-11T07:47:53.543Z</time>
      </trkpt>
      <trkpt lat="50.51714" lon="1.60019">
        <ele>11</ele>
        <time>2021-08-11T07:47:58.521Z</time>
      </trkpt>
      <trkpt lat="50.51713" lon="1.60028">
        <ele>11</ele>
        <time>2021-08-11T07:48:02.541Z</time>
      </trkpt>
      <trkpt lat="50.51709" lon="1.60037">
        <ele>11</ele>
        <time>2021-08-11T07:48:07.532Z</time>
      </trkpt>
      <trkpt lat="50.51705" lon="1.60046">
        <ele>12</ele>
        <time>2021-08-11T07:48:12.521Z</time>
      </trkpt>
      <trkpt lat="50.51703" lon="1.60054">
        <ele>12</ele>
        <time>2021-08-11T07:48:17.538Z</time>
      </trkpt>
      <trkpt lat="50.51701" lon="1.60061">
        <ele>12</ele>
        <time>2021-08-11T07:48:21.530Z</time>
      </trkpt>
      <trkpt lat="50.51699" lon="1.60069">
        <ele>12</ele>
        <time>2021-08-11T07:48:26.527Z</time>
      </trkpt>
      <trkpt lat="50.51697" lon="1.60076">
        <ele>11</ele>
        <time>2021-08-11T07:48:30.531Z</time>
      </trkpt>
      <trkpt lat="50.51693" lon="1.60087">
        <ele>11</ele>
        <time>2021-08-11T07:48:35.532Z</time>
      </trkpt>
      <trkpt lat="50.5169" lon="1.60097">
        <ele>11</ele>
        <time>2021-08-11T07:48:40.527Z</time>
      </trkpt>
      <trkpt lat="50.51688" lon="1.60105">
        <ele>11</ele>
        <time>2021-08-11T07:48:44.531Z</time>
      </trkpt>
      <trkpt lat="50.51686" lon="1.60113">
        <ele>11</ele>
        <time>2021-08-11T07:48:48.530Z</time>
      </trkpt>
      <trkpt lat="50.51683" lon="1.60122">
        <ele>11</ele>
        <time>2021-08-11T07:48:53.529Z</time>
      </trkpt>
      <trkpt lat="50.5168" lon="1.60131">
        <ele>12</ele>
        <time>2021-08-11T07:48:58.536Z</time>
      </trkpt>
      <trkpt lat="50.51678" lon="1.60139">
        <ele>12</ele>
        <time>2021-08-11T07:49:02.528Z</time>
      </trkpt>
      <trkpt lat="50.51675" lon="1.60149">
        <ele>12</ele>
        <time>2021-08-11T07:49:07.525Z</time>
      </trkpt>
      <trkpt lat="50.51673" lon="1.60158">
        <ele>13</ele>
        <time>2021-08-11T07:49:12.554Z</time>
      </trkpt>
      <trkpt lat="50.51671" lon="1.60167">
        <ele>13</ele>
        <time>2021-08-11T07:49:17.532Z</time>
      </trkpt>
      <trkpt lat="50.51669" lon="1.60176">
        <ele>13</ele>
        <time>2021-08-11T07:49:22.521Z</time>
      </trkpt>
      <trkpt lat="50.51666" lon="1.60183">
        <ele>12</ele>
        <time>2021-08-11T07:49:26.558Z</time>
      </trkpt>
      <trkpt lat="50.51663" lon="1.60193">
        <ele>12</ele>
        <time>2021-08-11T07:49:31.537Z</time>
      </trkpt>
      <trkpt lat="50.51661" lon="1.60202">
        <ele>12</ele>
        <time>2021-08-11T07:49:36.523Z</time>
      </trkpt>
      <trkpt lat="50.51659" lon="1.6021">
        <ele>12</ele>
        <time>2021-08-11T07:49:40.532Z</time>
      </trkpt>
      <trkpt lat="50.51656" lon="1.6022">
        <ele>12</ele>
        <time>2021-08-11T07:49:45.522Z</time>
      </trkpt>
      <trkpt lat="50.51654" lon="1.60228">
        <ele>12</ele>
        <time>2021-08-11T07:49:49.535Z</time>
      </trkpt>
      <trkpt lat="50.51651" lon="1.60238">
        <ele>12</ele>
        <time>2021-08-11T07:49:54.524Z</time>
      </trkpt>
      <trkpt lat="50.51649" lon="1.60245">
        <ele>12</ele>
        <time>2021-08-11T07:49:58.532Z</time>
      </trkpt>
      <trkpt lat="50.51646" lon="1.60255">
        <ele>12</ele>
        <time>2021-08-11T07:50:03.518Z</time>
      </trkpt>
      <trkpt lat="50.51643" lon="1.60264">
        <ele>11</ele>
        <time>2021-08-11T07:50:08.537Z</time>
      </trkpt>
      <trkpt lat="50.5164" lon="1.60271">
        <ele>11</ele>
        <time>2021-08-11T07:50:12.530Z</time>
      </trkpt>
      <trkpt lat="50.51637" lon="1.60281">
        <ele>11</ele>
        <time>2021-08-11T07:50:17.524Z</time>
      </trkpt>
      <trkpt lat="50.51635" lon="1.60289">
        <ele>11</ele>
        <time>2021-08-11T07:50:21.525Z</time>
      </trkpt>
      <trkpt lat="50.51633" lon="1.603">
        <ele>11</ele>
        <time>2021-08-11T07:50:26.534Z</time>
      </trkpt>
      <trkpt lat="50.5163" lon="1.60309">
        <ele>11</ele>
        <time>2021-08-11T07:50:31.528Z</time>
      </trkpt>
      <trkpt lat="50.51626" lon="1.60318">
        <ele>11</ele>
        <time>2021-08-11T07:50:36.537Z</time>
      </trkpt>
      <trkpt lat="50.51624" lon="1.60327">
        <ele>10</ele>
        <time>2021-08-11T07:50:41.532Z</time>
      </trkpt>
      <trkpt lat="50.51621" lon="1.60337">
        <ele>10</ele>
        <time>2021-08-11T07:50:46.522Z</time>
      </trkpt>
      <trkpt lat="50.51618" lon="1.60346">
        <ele>10</ele>
        <time>2021-08-11T07:50:51.540Z</time>
      </trkpt>
      <trkpt lat="50.51616" lon="1.60355">
        <ele>11</ele>
        <time>2021-08-11T07:50:56.528Z</time>
      </trkpt>
      <trkpt lat="50.51615" lon="1.60365">
        <ele>11</ele>
        <time>2021-08-11T07:51:01.524Z</time>
      </trkpt>
      <trkpt lat="50.51611" lon="1.60374">
        <ele>11</ele>
        <time>2021-08-11T07:51:06.527Z</time>
      </trkpt>
      <trkpt lat="50.51608" lon="1.60381">
        <ele>12</ele>
        <time>2021-08-11T07:51:10.532Z</time>
      </trkpt>
      <trkpt lat="50.51606" lon="1.6039">
        <ele>12</ele>
        <time>2021-08-11T07:51:15.528Z</time>
      </trkpt>
      <trkpt lat="50.51603" lon="1.60399">
        <ele>12</ele>
        <time>2021-08-11T07:51:20.522Z</time>
      </trkpt>
      <trkpt lat="50.51601" lon="1.60408">
        <ele>12</ele>
        <time>2021-08-11T07:51:25.528Z</time>
      </trkpt>
      <trkpt lat="50.51598" lon="1.60417">
        <ele>12</ele>
        <time>2021-08-11T07:51:30.532Z</time>
      </trkpt>
      <trkpt lat="50.51595" lon="1.60425">
        <ele>12</ele>
        <time>2021-08-11T07:51:35.521Z</time>
      </trkpt>
      <trkpt lat="50.51593" lon="1.60433">
        <ele>13</ele>
        <time>2021-08-11T07:51:39.525Z</time>
      </trkpt>
      <trkpt lat="50.5159" lon="1.60442">
        <ele>13</ele>
        <time>2021-08-11T07:51:44.523Z</time>
      </trkpt>
      <trkpt lat="50.51587" lon="1.60451">
        <ele>13</ele>
        <time>2021-08-11T07:51:49.518Z</time>
      </trkpt>
      <trkpt lat="50.51585" lon="1.6046">
        <ele>11</ele>
        <time>2021-08-11T07:51:54.517Z</time>
      </trkpt>
      <trkpt lat="50.51583" lon="1.60469">
        <ele>11</ele>
        <time>2021-08-11T07:51:59.521Z</time>
      </trkpt>
      <trkpt lat="50.5158" lon="1.60476">
        <ele>11</ele>
        <time>2021-08-11T07:52:03.524Z</time>
      </trkpt>
      <trkpt lat="50.51577" lon="1.60486">
        <ele>11</ele>
        <time>2021-08-11T07:52:08.530Z</time>
      </trkpt>
      <trkpt lat="50.51574" lon="1.60496">
        <ele>11</ele>
        <time>2021-08-11T07:52:12.525Z</time>
      </trkpt>
      <trkpt lat="50.51571" lon="1.60506">
        <ele>11</ele>
        <time>2021-08-11T07:52:17.535Z</time>
      </trkpt>
      <trkpt lat="50.51568" lon="1.60514">
        <ele>10</ele>
        <time>2021-08-11T07:52:22.516Z</time>
      </trkpt>
      <trkpt lat="50.51565" lon="1.60524">
        <ele>10</ele>
        <time>2021-08-11T07:52:27.521Z</time>
      </trkpt>
      <trkpt lat="50.51562" lon="1.6053">
        <ele>10</ele>
        <time>2021-08-11T07:52:31.531Z</time>
      </trkpt>
      <trkpt lat="50.5156" lon="1.60539">
        <ele>10</ele>
        <time>2021-08-11T07:52:36.514Z</time>
      </trkpt>
      <trkpt lat="50.51557" lon="1.60548">
        <ele>11</ele>
        <time>2021-08-11T07:52:41.531Z</time>
      </trkpt>
      <trkpt lat="50.51555" lon="1.60557">
        <ele>11</ele>
        <time>2021-08-11T07:52:46.525Z</time>
      </trkpt>
      <trkpt lat="50.51551" lon="1.60565">
        <ele>11</ele>
        <time>2021-08-11T07:52:51.517Z</time>
      </trkpt>
      <trkpt lat="50.5155" lon="1.60574">
        <ele>11</ele>
        <time>2021-08-11T07:52:55.523Z</time>
      </trkpt>
      <trkpt lat="50.51547" lon="1.60583">
        <ele>11</ele>
        <time>2021-08-11T07:53:00.524Z</time>
      </trkpt>
      <trkpt lat="50.51544" lon="1.60594">
        <ele>11</ele>
        <time>2021-08-11T07:53:05.530Z</time>
      </trkpt>
      <trkpt lat="50.51541" lon="1.60601">
        <ele>12</ele>
        <time>2021-08-11T07:53:09.530Z</time>
      </trkpt>
      <trkpt lat="50.51538" lon="1.60609">
        <ele>12</ele>
        <time>2021-08-11T07:53:14.532Z</time>
      </trkpt>
      <trkpt lat="50.51536" lon="1.60616">
        <ele>12</ele>
        <time>2021-08-11T07:53:18.533Z</time>
      </trkpt>
      <trkpt lat="50.51532" lon="1.60626">
        <ele>12</ele>
        <time>2021-08-11T07:53:23.523Z</time>
      </trkpt>
      <trkpt lat="50.5153" lon="1.60635">
        <ele>12</ele>
        <time>2021-08-11T07:53:28.533Z</time>
      </trkpt>
      <trkpt lat="50.51527" lon="1.60646">
        <ele>12</ele>
        <time>2021-08-11T07:53:33.526Z</time>
      </trkpt>
      <trkpt lat="50.51525" lon="1.60655">
        <ele>12</ele>
        <time>2021-08-11T07:53:37.523Z</time>
      </trkpt>
      <trkpt lat="50.51523" lon="1.60664">
        <ele>12</ele>
        <time>2021-08-11T07:53:41.522Z</time>
      </trkpt>
      <trkpt lat="50.5152" lon="1.60674">
        <ele>12</ele>
        <time>2021-08-11T07:53:46.522Z</time>
      </trkpt>
      <trkpt lat="50.51518" lon="1.60683">
        <ele>12</ele>
        <time>2021-08-11T07:53:50.529Z</time>
      </trkpt>
      <trkpt lat="50.51515" lon="1.60694">
        <ele>12</ele>
        <time>2021-08-11T07:53:55.530Z</time>
      </trkpt>
      <trkpt lat="50.51512" lon="1.60703">
        <ele>12</ele>
        <time>2021-08-11T07:54:00.529Z</time>
      </trkpt>
      <trkpt lat="50.51509" lon="1.6071">
        <ele>11</ele>
        <time>2021-08-11T07:54:04.533Z</time>
      </trkpt>
      <trkpt lat="50.51506" lon="1.60719">
        <ele>11</ele>
        <time>2021-08-11T07:54:09.533Z</time>
      </trkpt>
      <trkpt lat="50.51503" lon="1.60728">
        <ele>11</ele>
        <time>2021-08-11T07:54:14.528Z</time>
      </trkpt>
      <trkpt lat="50.515" lon="1.60738">
        <ele>11</ele>
        <time>2021-08-11T07:54:19.526Z</time>
      </trkpt>
      <trkpt lat="50.51498" lon="1.60745">
        <ele>11</ele>
        <time>2021-08-11T07:54:23.534Z</time>
      </trkpt>
      <trkpt lat="50.51496" lon="1.60754">
        <ele>11</ele>
        <time>2021-08-11T07:54:28.533Z</time>
      </trkpt>
      <trkpt lat="50.51493" lon="1.6076">
        <ele>11</ele>
        <time>2021-08-11T07:54:32.542Z</time>
      </trkpt>
      <trkpt lat="50.5149" lon="1.60772">
        <ele>12</ele>
        <time>2021-08-11T07:54:37.528Z</time>
      </trkpt>
      <trkpt lat="50.51487" lon="1.60782">
        <ele>12</ele>
        <time>2021-08-11T07:54:42.522Z</time>
      </trkpt>
      <trkpt lat="50.51484" lon="1.60794">
        <ele>11</ele>
        <time>2021-08-11T07:54:47.528Z</time>
      </trkpt>
      <trkpt lat="50.51482" lon="1.60805">
        <ele>11</ele>
        <time>2021-08-11T07:54:52.520Z</time>
      </trkpt>
      <trkpt lat="50.51479" lon="1.60812">
        <ele>11</ele>
        <time>2021-08-11T07:54:56.520Z</time>
      </trkpt>
      <trkpt lat="50.51478" lon="1.60818">
        <ele>11</ele>
        <time>2021-08-11T07:55:01.523Z</time>
      </trkpt>
      <trkpt lat="50.51478" lon="1.60819">
        <ele>11</ele>
        <time>2021-08-11T07:55:05.529Z</time>
      </trkpt>
      <trkpt lat="50.5148" lon="1.60827">
        <ele>11</ele>
        <time>2021-08-11T07:55:09.527Z</time>
      </trkpt>
      <trkpt lat="50.51482" lon="1.60834">
        <ele>11</ele>
        <time>2021-08-11T07:55:13.533Z</time>
      </trkpt>
      <trkpt lat="50.51486" lon="1.60843">
        <ele>11</ele>
        <time>2021-08-11T07:55:17.558Z</time>
      </trkpt>
      <trkpt lat="50.51493" lon="1.60847">
        <ele>10</ele>
        <time>2021-08-11T07:55:22.520Z</time>
      </trkpt>
      <trkpt lat="50.51498" lon="1.6085">
        <ele>11</ele>
        <time>2021-08-11T07:55:27.519Z</time>
      </trkpt>
      <trkpt lat="50.51503" lon="1.60851">
        <ele>11</ele>
        <time>2021-08-11T07:55:32.524Z</time>
      </trkpt>
      <trkpt lat="50.51507" lon="1.60847">
        <ele>10</ele>
        <time>2021-08-11T07:55:36.530Z</time>
      </trkpt>
      <trkpt lat="50.51509" lon="1.60848">
        <ele>11</ele>
        <time>2021-08-11T07:55:41.529Z</time>
      </trkpt>
      <trkpt lat="50.51511" lon="1.60859">
        <ele>11</ele>
        <time>2021-08-11T07:55:46.531Z</time>
      </trkpt>
      <trkpt lat="50.51517" lon="1.60865">
        <ele>11</ele>
        <time>2021-08-11T07:55:51.522Z</time>
      </trkpt>
      <trkpt lat="50.51523" lon="1.6087">
        <ele>11</ele>
        <time>2021-08-11T07:55:56.520Z</time>
      </trkpt>
      <trkpt lat="50.5153" lon="1.60874">
        <ele>11</ele>
        <time>2021-08-11T07:56:01.541Z</time>
      </trkpt>
      <trkpt lat="50.51535" lon="1.60871">
        <ele>11</ele>
        <time>2021-08-11T07:56:06.528Z</time>
      </trkpt>
      <trkpt lat="50.51538" lon="1.60861">
        <ele>11</ele>
        <time>2021-08-11T07:56:11.522Z</time>
      </trkpt>
      <trkpt lat="50.5154" lon="1.60853">
        <ele>11</ele>
        <time>2021-08-11T07:56:16.530Z</time>
      </trkpt>
      <trkpt lat="50.51541" lon="1.60843">
        <ele>11</ele>
        <time>2021-08-11T07:56:21.525Z</time>
      </trkpt>
      <trkpt lat="50.51542" lon="1.60835">
        <ele>12</ele>
        <time>2021-08-11T07:56:25.531Z</time>
      </trkpt>
      <trkpt lat="50.5154" lon="1.60826">
        <ele>11</ele>
        <time>2021-08-11T07:56:30.525Z</time>
      </trkpt>
      <trkpt lat="50.51536" lon="1.60822">
        <ele>11</ele>
        <time>2021-08-11T07:56:34.528Z</time>
      </trkpt>
      <trkpt lat="50.51532" lon="1.6082">
        <ele>11</ele>
        <time>2021-08-11T07:56:39.524Z</time>
      </trkpt>
      <trkpt lat="50.51529" lon="1.60816">
        <ele>12</ele>
        <time>2021-08-11T07:56:43.521Z</time>
      </trkpt>
      <trkpt lat="50.51515" lon="1.60817">
        <ele>12</ele>
        <time>2021-08-11T08:08:42.524Z</time>
      </trkpt>
      <trkpt lat="50.51513" lon="1.60821">
        <ele>10</ele>
        <time>2021-08-11T08:08:47.517Z</time>
      </trkpt>
      <trkpt lat="50.51511" lon="1.60824">
        <ele>10</ele>
        <time>2021-08-11T08:08:51.522Z</time>
      </trkpt>
      <trkpt lat="50.51511" lon="1.60825">
        <ele>10</ele>
        <time>2021-08-11T08:08:56.534Z</time>
      </trkpt>
      <trkpt lat="50.51511" lon="1.60825">
        <ele>10</ele>
        <time>2021-08-11T08:09:00.521Z</time>
      </trkpt>
      <trkpt lat="50.5151" lon="1.60804">
        <ele>11</ele>
        <time>2021-08-11T08:10:06.518Z</time>
      </trkpt>
      <trkpt lat="50.5151" lon="1.60802">
        <ele>11</ele>
        <time>2021-08-11T08:10:11.521Z</time>
      </trkpt>
      <trkpt lat="50.5151" lon="1.60802">
        <ele>11</ele>
        <time>2021-08-11T08:10:16.520Z</time>
      </trkpt>
      <trkpt lat="50.51509" lon="1.60802">
        <ele>11</ele>
        <time>2021-08-11T08:10:20.538Z</time>
      </trkpt>
      <trkpt lat="50.51508" lon="1.608">
        <ele>11</ele>
        <time>2021-08-11T08:10:25.524Z</time>
      </trkpt>
      <trkpt lat="50.51505" lon="1.60799">
        <ele>11</ele>
        <time>2021-08-11T08:10:44.518Z</time>
      </trkpt>
      <trkpt lat="50.51508" lon="1.60797">
        <ele>11</ele>
        <time>2021-08-11T08:10:49.526Z</time>
      </trkpt>
      <trkpt lat="50.51507" lon="1.60788">
        <ele>12</ele>
        <time>2021-08-11T08:10:54.554Z</time>
      </trkpt>
      <trkpt lat="50.51506" lon="1.60787">
        <ele>12</ele>
        <time>2021-08-11T08:10:59.522Z</time>
      </trkpt>
      <trkpt lat="50.51507" lon="1.60787">
        <ele>12</ele>
        <time>2021-08-11T08:11:03.528Z</time>
      </trkpt>
      <trkpt lat="50.51511" lon="1.60798">
        <ele>11</ele>
        <time>2021-08-11T08:11:35.515Z</time>
      </trkpt>
      <trkpt lat="50.51513" lon="1.60799">
        <ele>11</ele>
        <time>2021-08-11T08:11:40.524Z</time>
      </trkpt>
      <trkpt lat="50.51514" lon="1.60801">
        <ele>12</ele>
        <time>2021-08-11T08:11:45.531Z</time>
      </trkpt>
      <trkpt lat="50.51517" lon="1.60802">
        <ele>12</ele>
        <time>2021-08-11T08:11:50.522Z</time>
      </trkpt>
      <trkpt lat="50.51517" lon="1.60802">
        <ele>12</ele>
        <time>2021-08-11T08:11:54.526Z</time>
      </trkpt>
      <trkpt lat="50.5151" lon="1.60814">
        <ele>11</ele>
        <time>2021-08-11T08:15:12.542Z</time>
      </trkpt>
      <trkpt lat="50.51508" lon="1.60809">
        <ele>11</ele>
        <time>2021-08-11T08:15:17.516Z</time>
      </trkpt>
      <trkpt lat="50.51507" lon="1.60806">
        <ele>11</ele>
        <time>2021-08-11T08:15:21.533Z</time>
      </trkpt>
      <trkpt lat="50.51506" lon="1.60808">
        <ele>11</ele>
        <time>2021-08-11T08:15:25.525Z</time>
      </trkpt>
      <trkpt lat="50.51504" lon="1.6081">
        <ele>11</ele>
        <time>2021-08-11T08:15:29.525Z</time>
      </trkpt>
      <trkpt lat="50.51503" lon="1.60809">
        <ele>11</ele>
        <time>2021-08-11T08:15:33.530Z</time>
      </trkpt>
      <trkpt lat="50.51506" lon="1.60812">
        <ele>11</ele>
        <time>2021-08-11T08:15:37.536Z</time>
      </trkpt>
      <trkpt lat="50.5151" lon="1.60813">
        <ele>11</ele>
        <time>2021-08-11T08:15:41.524Z</time>
      </trkpt>
      <trkpt lat="50.51512" lon="1.60814">
        <ele>11</ele>
        <time>2021-08-11T08:15:45.529Z</time>
      </trkpt>
      <trkpt lat="50.51512" lon="1.60813">
        <ele>11</ele>
        <time>2021-08-11T08:16:06.525Z</time>
      </trkpt>
      <trkpt lat="50.51514" lon="1.60813">
        <ele>12</ele>
        <time>2021-08-11T08:16:11.519Z</time>
      </trkpt>
      <trkpt lat="50.51516" lon="1.60814">
        <ele>12</ele>
        <time>2021-08-11T08:16:15.522Z</time>
      </trkpt>
      <trkpt lat="50.51521" lon="1.60813">
        <ele>12</ele>
        <time>2021-08-11T08:16:20.516Z</time>
      </trkpt>
      <trkpt lat="50.51523" lon="1.60811">
        <ele>12</ele>
        <time>2021-08-11T08:16:25.516Z</time>
      </trkpt>
      <trkpt lat="50.51528" lon="1.6081">
        <ele>12</ele>
        <time>2021-08-11T08:18:30.517Z</time>
      </trkpt>
      <trkpt lat="50.51529" lon="1.60814">
        <ele>12</ele>
        <time>2021-08-11T08:18:34.519Z</time>
      </trkpt>
      <trkpt lat="50.51529" lon="1.60817">
        <ele>12</ele>
        <time>2021-08-11T08:18:38.520Z</time>
      </trkpt>
      <trkpt lat="50.51531" lon="1.60816">
        <ele>12</ele>
        <time>2021-08-11T08:18:42.519Z</time>
      </trkpt>
      <trkpt lat="50.51532" lon="1.60816">
        <ele>12</ele>
        <time>2021-08-11T08:18:46.558Z</time>
      </trkpt>
      <trkpt lat="50.51531" lon="1.60806">
        <ele>12</ele>
        <time>2021-08-11T08:19:11.518Z</time>
      </trkpt>
      <trkpt lat="50.51531" lon="1.60806">
        <ele>12</ele>
        <time>2021-08-11T08:19:15.518Z</time>
      </trkpt>
      <trkpt lat="50.51526" lon="1.60804">
        <ele>12</ele>
        <time>2021-08-11T08:19:19.512Z</time>
      </trkpt>
      <trkpt lat="50.51526" lon="1.60804">
        <ele>12</ele>
        <time>2021-08-11T08:19:23.518Z</time>
      </trkpt>
      <trkpt lat="50.51524" lon="1.60804">
        <ele>12</ele>
        <time>2021-08-11T08:19:27.516Z</time>
      </trkpt>
      <trkpt lat="50.51523" lon="1.60802">
        <ele>12</ele>
        <time>2021-08-11T08:21:01.548Z</time>
      </trkpt>
      <trkpt lat="50.51522" lon="1.60805">
        <ele>12</ele>
        <time>2021-08-11T08:21:05.516Z</time>
      </trkpt>
      <trkpt lat="50.51523" lon="1.60805">
        <ele>12</ele>
        <time>2021-08-11T08:21:09.518Z</time>
      </trkpt>
      <trkpt lat="50.51524" lon="1.60809">
        <ele>12</ele>
        <time>2021-08-11T08:21:13.519Z</time>
      </trkpt>
      <trkpt lat="50.51525" lon="1.60817">
        <ele>12</ele>
        <time>2021-08-11T08:21:17.514Z</time>
      </trkpt>
      <trkpt lat="50.51526" lon="1.60821">
        <ele>11</ele>
        <time>2021-08-11T08:21:34.516Z</time>
      </trkpt>
      <trkpt lat="50.51522" lon="1.6082">
        <ele>11</ele>
        <time>2021-08-11T08:21:38.524Z</time>
      </trkpt>
      <trkpt lat="50.51517" lon="1.60822">
        <ele>11</ele>
        <time>2021-08-11T08:21:42.515Z</time>
      </trkpt>
      <trkpt lat="50.51513" lon="1.60824">
        <ele>10</ele>
        <time>2021-08-11T08:21:46.527Z</time>
      </trkpt>
      <trkpt lat="50.51508" lon="1.60823">
        <ele>10</ele>
        <time>2021-08-11T08:21:50.517Z</time>
      </trkpt>
      <trkpt lat="50.51527" lon="1.60822">
        <ele>11</ele>
        <time>2021-08-11T08:24:40.521Z</time>
      </trkpt>
      <trkpt lat="50.51531" lon="1.60822">
        <ele>11</ele>
        <time>2021-08-11T08:24:45.548Z</time>
      </trkpt>
      <trkpt lat="50.51535" lon="1.60822">
        <ele>11</ele>
        <time>2021-08-11T08:24:49.524Z</time>
      </trkpt>
      <trkpt lat="50.5154" lon="1.6082">
        <ele>11</ele>
        <time>2021-08-11T08:24:53.534Z</time>
      </trkpt>
      <trkpt lat="50.51542" lon="1.60826">
        <ele>12</ele>
        <time>2021-08-11T08:24:58.518Z</time>
      </trkpt>
      <trkpt lat="50.51543" lon="1.60828">
        <ele>12</ele>
        <time>2021-08-11T08:25:02.516Z</time>
      </trkpt>
      <trkpt lat="50.51542" lon="1.60832">
        <ele>12</ele>
        <time>2021-08-11T08:25:07.515Z</time>
      </trkpt>
      <trkpt lat="50.51542" lon="1.60841">
        <ele>11</ele>
        <time>2021-08-11T08:25:11.516Z</time>
      </trkpt>
      <trkpt lat="50.5154" lon="1.60846">
        <ele>11</ele>
        <time>2021-08-11T08:25:15.520Z</time>
      </trkpt>
      <trkpt lat="50.51539" lon="1.60848">
        <ele>11</ele>
        <time>2021-08-11T08:25:19.533Z</time>
      </trkpt>
      <trkpt lat="50.51539" lon="1.6085">
        <ele>11</ele>
        <time>2021-08-11T08:25:23.546Z</time>
      </trkpt>
      <trkpt lat="50.51537" lon="1.60858">
        <ele>11</ele>
        <time>2021-08-11T08:25:27.519Z</time>
      </trkpt>
      <trkpt lat="50.51535" lon="1.60866">
        <ele>11</ele>
        <time>2021-08-11T08:25:32.518Z</time>
      </trkpt>
      <trkpt lat="50.51534" lon="1.60873">
        <ele>11</ele>
        <time>2021-08-11T08:25:36.518Z</time>
      </trkpt>
      <trkpt lat="50.51531" lon="1.60874">
        <ele>11</ele>
        <time>2021-08-11T08:25:40.521Z</time>
      </trkpt>
      <trkpt lat="50.51527" lon="1.60871">
        <ele>11</ele>
        <time>2021-08-11T08:25:44.524Z</time>
      </trkpt>
      <trkpt lat="50.51523" lon="1.60869">
        <ele>11</ele>
        <time>2021-08-11T08:25:48.524Z</time>
      </trkpt>
      <trkpt lat="50.5152" lon="1.60865">
        <ele>11</ele>
        <time>2021-08-11T08:25:52.515Z</time>
      </trkpt>
      <trkpt lat="50.51515" lon="1.60862">
        <ele>11</ele>
        <time>2021-08-11T08:25:56.516Z</time>
      </trkpt>
      <trkpt lat="50.51512" lon="1.60859">
        <ele>11</ele>
        <time>2021-08-11T08:26:00.517Z</time>
      </trkpt>
      <trkpt lat="50.51508" lon="1.60856">
        <ele>11</ele>
        <time>2021-08-11T08:26:04.525Z</time>
      </trkpt>
      <trkpt lat="50.51503" lon="1.60852">
        <ele>11</ele>
        <time>2021-08-11T08:26:09.525Z</time>
      </trkpt>
      <trkpt lat="50.515" lon="1.6085">
        <ele>11</ele>
        <time>2021-08-11T08:26:13.524Z</time>
      </trkpt>
      <trkpt lat="50.51499" lon="1.60847">
        <ele>10</ele>
        <time>2021-08-11T08:26:17.548Z</time>
      </trkpt>
      <trkpt lat="50.51499" lon="1.60839">
        <ele>10</ele>
        <time>2021-08-11T08:26:22.524Z</time>
      </trkpt>
      <trkpt lat="50.51496" lon="1.60828">
        <ele>10</ele>
        <time>2021-08-11T08:26:41.519Z</time>
      </trkpt>
      <trkpt lat="50.51495" lon="1.60828">
        <ele>10</ele>
        <time>2021-08-11T08:26:45.533Z</time>
      </trkpt>
      <trkpt lat="50.51491" lon="1.60831">
        <ele>10</ele>
        <time>2021-08-11T08:26:50.519Z</time>
      </trkpt>
      <trkpt lat="50.51487" lon="1.60834">
        <ele>10</ele>
        <time>2021-08-11T08:26:54.522Z</time>
      </trkpt>
      <trkpt lat="50.51482" lon="1.60835">
        <ele>11</ele>
        <time>2021-08-11T08:26:58.548Z</time>
      </trkpt>
      <trkpt lat="50.51481" lon="1.60828">
        <ele>11</ele>
        <time>2021-08-11T08:27:03.521Z</time>
      </trkpt>
      <trkpt lat="50.51479" lon="1.6082">
        <ele>11</ele>
        <time>2021-08-11T08:27:08.525Z</time>
      </trkpt>
      <trkpt lat="50.51481" lon="1.60813">
        <ele>11</ele>
        <time>2021-08-11T08:27:13.541Z</time>
      </trkpt>
      <trkpt lat="50.51484" lon="1.60805">
        <ele>11</ele>
        <time>2021-08-11T08:27:18.523Z</time>
      </trkpt>
      <trkpt lat="50.51487" lon="1.60797">
        <ele>11</ele>
        <time>2021-08-11T08:27:23.515Z</time>
      </trkpt>
      <trkpt lat="50.5149" lon="1.60789">
        <ele>12</ele>
        <time>2021-08-11T08:27:28.537Z</time>
      </trkpt>
      <trkpt lat="50.51493" lon="1.60781">
        <ele>12</ele>
        <time>2021-08-11T08:27:33.520Z</time>
      </trkpt>
      <trkpt lat="50.51495" lon="1.60775">
        <ele>12</ele>
        <time>2021-08-11T08:27:37.519Z</time>
      </trkpt>
      <trkpt lat="50.51497" lon="1.60769">
        <ele>12</ele>
        <time>2021-08-11T08:27:42.510Z</time>
      </trkpt>
      <trkpt lat="50.51499" lon="1.60762">
        <ele>11</ele>
        <time>2021-08-11T08:27:47.518Z</time>
      </trkpt>
      <trkpt lat="50.51501" lon="1.60755">
        <ele>11</ele>
        <time>2021-08-11T08:27:52.518Z</time>
      </trkpt>
      <trkpt lat="50.51504" lon="1.60746">
        <ele>11</ele>
        <time>2021-08-11T08:27:57.518Z</time>
      </trkpt>
      <trkpt lat="50.51506" lon="1.60738">
        <ele>11</ele>
        <time>2021-08-11T08:28:02.520Z</time>
      </trkpt>
      <trkpt lat="50.51509" lon="1.60731">
        <ele>11</ele>
        <time>2021-08-11T08:28:06.523Z</time>
      </trkpt>
      <trkpt lat="50.51512" lon="1.60726">
        <ele>11</ele>
        <time>2021-08-11T08:28:10.524Z</time>
      </trkpt>
      <trkpt lat="50.51514" lon="1.6072">
        <ele>11</ele>
        <time>2021-08-11T08:28:14.516Z</time>
      </trkpt>
      <trkpt lat="50.51515" lon="1.60714">
        <ele>11</ele>
        <time>2021-08-11T08:28:18.520Z</time>
      </trkpt>
      <trkpt lat="50.51517" lon="1.60709">
        <ele>11</ele>
        <time>2021-08-11T08:28:22.516Z</time>
      </trkpt>
      <trkpt lat="50.51519" lon="1.60702">
        <ele>12</ele>
        <time>2021-08-11T08:28:26.521Z</time>
      </trkpt>
      <trkpt lat="50.51521" lon="1.60696">
        <ele>12</ele>
        <time>2021-08-11T08:28:30.522Z</time>
      </trkpt>
      <trkpt lat="50.51523" lon="1.60689">
        <ele>12</ele>
        <time>2021-08-11T08:28:34.516Z</time>
      </trkpt>
      <trkpt lat="50.51526" lon="1.60683">
        <ele>12</ele>
        <time>2021-08-11T08:28:38.513Z</time>
      </trkpt>
      <trkpt lat="50.51527" lon="1.60675">
        <ele>12</ele>
        <time>2021-08-11T08:28:42.544Z</time>
      </trkpt>
      <trkpt lat="50.51529" lon="1.60669">
        <ele>12</ele>
        <time>2021-08-11T08:28:46.519Z</time>
      </trkpt>
      <trkpt lat="50.51531" lon="1.60662">
        <ele>12</ele>
        <time>2021-08-11T08:28:50.530Z</time>
      </trkpt>
      <trkpt lat="50.51531" lon="1.60655">
        <ele>12</ele>
        <time>2021-08-11T08:28:54.515Z</time>
      </trkpt>
      <trkpt lat="50.51533" lon="1.60647">
        <ele>12</ele>
        <time>2021-08-11T08:28:58.526Z</time>
      </trkpt>
      <trkpt lat="50.51535" lon="1.60641">
        <ele>12</ele>
        <time>2021-08-11T08:29:02.521Z</time>
      </trkpt>
      <trkpt lat="50.51538" lon="1.60632">
        <ele>12</ele>
        <time>2021-08-11T08:29:07.511Z</time>
      </trkpt>
      <trkpt lat="50.51539" lon="1.60624">
        <ele>12</ele>
        <time>2021-08-11T08:29:11.521Z</time>
      </trkpt>
      <trkpt lat="50.51541" lon="1.60617">
        <ele>12</ele>
        <time>2021-08-11T08:29:15.523Z</time>
      </trkpt>
      <trkpt lat="50.51543" lon="1.6061">
        <ele>12</ele>
        <time>2021-08-11T08:29:19.520Z</time>
      </trkpt>
      <trkpt lat="50.51545" lon="1.60604">
        <ele>12</ele>
        <time>2021-08-11T08:29:23.517Z</time>
      </trkpt>
      <trkpt lat="50.51546" lon="1.60598">
        <ele>12</ele>
        <time>2021-08-11T08:29:27.518Z</time>
      </trkpt>
      <trkpt lat="50.51548" lon="1.60593">
        <ele>11</ele>
        <time>2021-08-11T08:29:31.516Z</time>
      </trkpt>
      <trkpt lat="50.5155" lon="1.60586">
        <ele>11</ele>
        <time>2021-08-11T08:29:36.522Z</time>
      </trkpt>
      <trkpt lat="50.51552" lon="1.60581">
        <ele>11</ele>
        <time>2021-08-11T08:29:40.521Z</time>
      </trkpt>
      <trkpt lat="50.51554" lon="1.60578">
        <ele>11</ele>
        <time>2021-08-11T08:29:44.520Z</time>
      </trkpt>
      <trkpt lat="50.51556" lon="1.60572">
        <ele>11</ele>
        <time>2021-08-11T08:29:48.516Z</time>
      </trkpt>
      <trkpt lat="50.51558" lon="1.60564">
        <ele>11</ele>
        <time>2021-08-11T08:29:52.515Z</time>
      </trkpt>
      <trkpt lat="50.5156" lon="1.60558">
        <ele>11</ele>
        <time>2021-08-11T08:29:56.524Z</time>
      </trkpt>
      <trkpt lat="50.51563" lon="1.60552">
        <ele>11</ele>
        <time>2021-08-11T08:30:00.522Z</time>
      </trkpt>
      <trkpt lat="50.51564" lon="1.6054">
        <ele>10</ele>
        <time>2021-08-11T08:30:05.538Z</time>
      </trkpt>
      <trkpt lat="50.51565" lon="1.60528">
        <ele>10</ele>
        <time>2021-08-11T08:30:10.522Z</time>
      </trkpt>
      <trkpt lat="50.51568" lon="1.60519">
        <ele>10</ele>
        <time>2021-08-11T08:30:15.509Z</time>
      </trkpt>
      <trkpt lat="50.51571" lon="1.60514">
        <ele>11</ele>
        <time>2021-08-11T08:30:20.521Z</time>
      </trkpt>
      <trkpt lat="50.51573" lon="1.60507">
        <ele>11</ele>
        <time>2021-08-11T08:30:25.517Z</time>
      </trkpt>
      <trkpt lat="50.51576" lon="1.60499">
        <ele>11</ele>
        <time>2021-08-11T08:30:29.512Z</time>
      </trkpt>
      <trkpt lat="50.5158" lon="1.6049">
        <ele>11</ele>
        <time>2021-08-11T08:30:34.514Z</time>
      </trkpt>
      <trkpt lat="50.51583" lon="1.60479">
        <ele>11</ele>
        <time>2021-08-11T08:30:39.522Z</time>
      </trkpt>
      <trkpt lat="50.51584" lon="1.60468">
        <ele>11</ele>
        <time>2021-08-11T08:30:44.515Z</time>
      </trkpt>
      <trkpt lat="50.51585" lon="1.60461">
        <ele>11</ele>
        <time>2021-08-11T08:30:48.520Z</time>
      </trkpt>
      <trkpt lat="50.51587" lon="1.60453">
        <ele>13</ele>
        <time>2021-08-11T08:30:53.513Z</time>
      </trkpt>
      <trkpt lat="50.5159" lon="1.60444">
        <ele>13</ele>
        <time>2021-08-11T08:30:58.517Z</time>
      </trkpt>
      <trkpt lat="50.51592" lon="1.60437">
        <ele>13</ele>
        <time>2021-08-11T08:31:03.510Z</time>
      </trkpt>
      <trkpt lat="50.51594" lon="1.60431">
        <ele>13</ele>
        <time>2021-08-11T08:31:07.514Z</time>
      </trkpt>
      <trkpt lat="50.51596" lon="1.60423">
        <ele>12</ele>
        <time>2021-08-11T08:31:12.525Z</time>
      </trkpt>
      <trkpt lat="50.51598" lon="1.60416">
        <ele>12</ele>
        <time>2021-08-11T08:31:17.513Z</time>
      </trkpt>
      <trkpt lat="50.516" lon="1.60408">
        <ele>12</ele>
        <time>2021-08-11T08:31:22.514Z</time>
      </trkpt>
      <trkpt lat="50.51602" lon="1.60401">
        <ele>12</ele>
        <time>2021-08-11T08:31:26.512Z</time>
      </trkpt>
      <trkpt lat="50.51603" lon="1.60392">
        <ele>12</ele>
        <time>2021-08-11T08:31:31.513Z</time>
      </trkpt>
      <trkpt lat="50.51606" lon="1.60382">
        <ele>12</ele>
        <time>2021-08-11T08:31:36.511Z</time>
      </trkpt>
      <trkpt lat="50.51609" lon="1.60375">
        <ele>12</ele>
        <time>2021-08-11T08:31:41.517Z</time>
      </trkpt>
      <trkpt lat="50.51611" lon="1.6037">
        <ele>11</ele>
        <time>2021-08-11T08:31:45.518Z</time>
      </trkpt>
      <trkpt lat="50.51611" lon="1.60362">
        <ele>11</ele>
        <time>2021-08-11T08:31:50.528Z</time>
      </trkpt>
      <trkpt lat="50.51615" lon="1.60354">
        <ele>11</ele>
        <time>2021-08-11T08:31:55.514Z</time>
      </trkpt>
      <trkpt lat="50.51618" lon="1.60344">
        <ele>10</ele>
        <time>2021-08-11T08:32:00.510Z</time>
      </trkpt>
      <trkpt lat="50.51622" lon="1.60338">
        <ele>10</ele>
        <time>2021-08-11T08:32:04.543Z</time>
      </trkpt>
      <trkpt lat="50.51625" lon="1.60328">
        <ele>10</ele>
        <time>2021-08-11T08:32:09.550Z</time>
      </trkpt>
      <trkpt lat="50.51626" lon="1.60321">
        <ele>11</ele>
        <time>2021-08-11T08:32:13.543Z</time>
      </trkpt>
      <trkpt lat="50.51628" lon="1.60315">
        <ele>11</ele>
        <time>2021-08-11T08:32:17.549Z</time>
      </trkpt>
      <trkpt lat="50.51631" lon="1.60307">
        <ele>11</ele>
        <time>2021-08-11T08:32:22.558Z</time>
      </trkpt>
      <trkpt lat="50.51634" lon="1.60299">
        <ele>11</ele>
        <time>2021-08-11T08:32:27.548Z</time>
      </trkpt>
      <trkpt lat="50.51637" lon="1.60291">
        <ele>11</ele>
        <time>2021-08-11T08:32:32.531Z</time>
      </trkpt>
      <trkpt lat="50.51639" lon="1.60284">
        <ele>11</ele>
        <time>2021-08-11T08:32:36.554Z</time>
      </trkpt>
      <trkpt lat="50.51642" lon="1.60277">
        <ele>11</ele>
        <time>2021-08-11T08:32:40.541Z</time>
      </trkpt>
      <trkpt lat="50.51645" lon="1.60271">
        <ele>11</ele>
        <time>2021-08-11T08:32:44.557Z</time>
      </trkpt>
      <trkpt lat="50.51647" lon="1.60263">
        <ele>12</ele>
        <time>2021-08-11T08:32:49.537Z</time>
      </trkpt>
      <trkpt lat="50.5165" lon="1.60255">
        <ele>12</ele>
        <time>2021-08-11T08:32:54.560Z</time>
      </trkpt>
      <trkpt lat="50.51651" lon="1.60248">
        <ele>12</ele>
        <time>2021-08-11T08:32:58.555Z</time>
      </trkpt>
      <trkpt lat="50.51653" lon="1.60242">
        <ele>12</ele>
        <time>2021-08-11T08:33:02.548Z</time>
      </trkpt>
      <trkpt lat="50.51656" lon="1.60234">
        <ele>12</ele>
        <time>2021-08-11T08:33:07.566Z</time>
      </trkpt>
      <trkpt lat="50.51657" lon="1.60224">
        <ele>12</ele>
        <time>2021-08-11T08:33:12.531Z</time>
      </trkpt>
      <trkpt lat="50.51659" lon="1.60217">
        <ele>12</ele>
        <time>2021-08-11T08:33:16.530Z</time>
      </trkpt>
      <trkpt lat="50.51661" lon="1.60211">
        <ele>12</ele>
        <time>2021-08-11T08:33:20.543Z</time>
      </trkpt>
      <trkpt lat="50.51663" lon="1.60205">
        <ele>12</ele>
        <time>2021-08-11T08:33:24.532Z</time>
      </trkpt>
      <trkpt lat="50.51665" lon="1.60196">
        <ele>12</ele>
        <time>2021-08-11T08:33:29.549Z</time>
      </trkpt>
      <trkpt lat="50.51666" lon="1.60188">
        <ele>12</ele>
        <time>2021-08-11T08:33:34.531Z</time>
      </trkpt>
      <trkpt lat="50.51669" lon="1.60181">
        <ele>12</ele>
        <time>2021-08-11T08:33:38.536Z</time>
      </trkpt>
      <trkpt lat="50.51671" lon="1.60175">
        <ele>13</ele>
        <time>2021-08-11T08:33:42.536Z</time>
      </trkpt>
      <trkpt lat="50.51673" lon="1.60167">
        <ele>13</ele>
        <time>2021-08-11T08:33:47.528Z</time>
      </trkpt>
      <trkpt lat="50.51675" lon="1.6016">
        <ele>13</ele>
        <time>2021-08-11T08:33:51.525Z</time>
      </trkpt>
      <trkpt lat="50.51678" lon="1.60152">
        <ele>12</ele>
        <time>2021-08-11T08:33:56.538Z</time>
      </trkpt>
      <trkpt lat="50.51681" lon="1.60146">
        <ele>11</ele>
        <time>2021-08-11T08:34:00.528Z</time>
      </trkpt>
      <trkpt lat="50.51682" lon="1.60139">
        <ele>11</ele>
        <time>2021-08-11T08:34:04.534Z</time>
      </trkpt>
      <trkpt lat="50.51686" lon="1.60132">
        <ele>11</ele>
        <time>2021-08-11T08:34:09.539Z</time>
      </trkpt>
      <trkpt lat="50.51688" lon="1.60124">
        <ele>11</ele>
        <time>2021-08-11T08:34:14.537Z</time>
      </trkpt>
      <trkpt lat="50.5169" lon="1.60118">
        <ele>11</ele>
        <time>2021-08-11T08:34:18.535Z</time>
      </trkpt>
      <trkpt lat="50.51692" lon="1.60109">
        <ele>11</ele>
        <time>2021-08-11T08:34:23.540Z</time>
      </trkpt>
      <trkpt lat="50.51694" lon="1.60101">
        <ele>11</ele>
        <time>2021-08-11T08:34:27.542Z</time>
      </trkpt>
      <trkpt lat="50.51696" lon="1.60093">
        <ele>11</ele>
        <time>2021-08-11T08:34:31.550Z</time>
      </trkpt>
      <trkpt lat="50.51695" lon="1.60084">
        <ele>11</ele>
        <time>2021-08-11T08:34:36.537Z</time>
      </trkpt>
      <trkpt lat="50.51698" lon="1.60077">
        <ele>11</ele>
        <time>2021-08-11T08:34:41.536Z</time>
      </trkpt>
      <trkpt lat="50.517" lon="1.60072">
        <ele>11</ele>
        <time>2021-08-11T08:34:45.548Z</time>
      </trkpt>
      <trkpt lat="50.51702" lon="1.60066">
        <ele>12</ele>
        <time>2021-08-11T08:34:49.533Z</time>
      </trkpt>
      <trkpt lat="50.51705" lon="1.60058">
        <ele>12</ele>
        <time>2021-08-11T08:34:54.542Z</time>
      </trkpt>
      <trkpt lat="50.51709" lon="1.60051">
        <ele>11</ele>
        <time>2021-08-11T08:34:59.533Z</time>
      </trkpt>
      <trkpt lat="50.51711" lon="1.60044">
        <ele>11</ele>
        <time>2021-08-11T08:35:03.545Z</time>
      </trkpt>
      <trkpt lat="50.51713" lon="1.60037">
        <ele>11</ele>
        <time>2021-08-11T08:35:07.541Z</time>
      </trkpt>
      <trkpt lat="50.51715" lon="1.6003">
        <ele>11</ele>
        <time>2021-08-11T08:35:11.544Z</time>
      </trkpt>
      <trkpt lat="50.51717" lon="1.60021">
        <ele>11</ele>
        <time>2021-08-11T08:35:16.549Z</time>
      </trkpt>
      <trkpt lat="50.51719" lon="1.60012">
        <ele>12</ele>
        <time>2021-08-11T08:35:21.542Z</time>
      </trkpt>
      <trkpt lat="50.51722" lon="1.60002">
        <ele>12</ele>
        <time>2021-08-11T08:35:26.546Z</time>
      </trkpt>
      <trkpt lat="50.51724" lon="1.59995">
        <ele>12</ele>
        <time>2021-08-11T08:35:30.547Z</time>
      </trkpt>
      <trkpt lat="50.51726" lon="1.59986">
        <ele>12</ele>
        <time>2021-08-11T08:35:35.531Z</time>
      </trkpt>
      <trkpt lat="50.51728" lon="1.59979">
        <ele>11</ele>
        <time>2021-08-11T08:35:39.538Z</time>
      </trkpt>
      <trkpt lat="50.51731" lon="1.5997">
        <ele>11</ele>
        <time>2021-08-11T08:35:44.536Z</time>
      </trkpt>
      <trkpt lat="50.51734" lon="1.59963">
        <ele>11</ele>
        <time>2021-08-11T08:35:48.543Z</time>
      </trkpt>
      <trkpt lat="50.51736" lon="1.59955">
        <ele>11</ele>
        <time>2021-08-11T08:35:52.534Z</time>
      </trkpt>
      <trkpt lat="50.51739" lon="1.59949">
        <ele>11</ele>
        <time>2021-08-11T08:35:56.538Z</time>
      </trkpt>
      <trkpt lat="50.51741" lon="1.5994">
        <ele>11</ele>
        <time>2021-08-11T08:36:01.530Z</time>
      </trkpt>
      <trkpt lat="50.51743" lon="1.59934">
        <ele>11</ele>
        <time>2021-08-11T08:36:05.540Z</time>
      </trkpt>
      <trkpt lat="50.51746" lon="1.59927">
        <ele>11</ele>
        <time>2021-08-11T08:36:09.547Z</time>
      </trkpt>
      <trkpt lat="50.51748" lon="1.5992">
        <ele>11</ele>
        <time>2021-08-11T08:36:13.541Z</time>
      </trkpt>
      <trkpt lat="50.5175" lon="1.59912">
        <ele>11</ele>
        <time>2021-08-11T08:36:17.546Z</time>
      </trkpt>
      <trkpt lat="50.51752" lon="1.59906">
        <ele>11</ele>
        <time>2021-08-11T08:36:21.542Z</time>
      </trkpt>
      <trkpt lat="50.51754" lon="1.59898">
        <ele>11</ele>
        <time>2021-08-11T08:36:26.548Z</time>
      </trkpt>
      <trkpt lat="50.51757" lon="1.59891">
        <ele>11</ele>
        <time>2021-08-11T08:36:31.531Z</time>
      </trkpt>
      <trkpt lat="50.5176" lon="1.59883">
        <ele>11</ele>
        <time>2021-08-11T08:36:35.533Z</time>
      </trkpt>
      <trkpt lat="50.51762" lon="1.59876">
        <ele>11</ele>
        <time>2021-08-11T08:36:39.540Z</time>
      </trkpt>
      <trkpt lat="50.51764" lon="1.59869">
        <ele>10</ele>
        <time>2021-08-11T08:36:43.542Z</time>
      </trkpt>
      <trkpt lat="50.51767" lon="1.59861">
        <ele>10</ele>
        <time>2021-08-11T08:36:48.550Z</time>
      </trkpt>
      <trkpt lat="50.5177" lon="1.59852">
        <ele>10</ele>
        <time>2021-08-11T08:36:53.527Z</time>
      </trkpt>
      <trkpt lat="50.51772" lon="1.59846">
        <ele>11</ele>
        <time>2021-08-11T08:36:57.536Z</time>
      </trkpt>
      <trkpt lat="50.51774" lon="1.5984">
        <ele>11</ele>
        <time>2021-08-11T08:37:01.538Z</time>
      </trkpt>
      <trkpt lat="50.51776" lon="1.59831">
        <ele>11</ele>
        <time>2021-08-11T08:37:06.538Z</time>
      </trkpt>
      <trkpt lat="50.51778" lon="1.59823">
        <ele>11</ele>
        <time>2021-08-11T08:37:11.536Z</time>
      </trkpt>
      <trkpt lat="50.5178" lon="1.59814">
        <ele>10</ele>
        <time>2021-08-11T08:37:16.538Z</time>
      </trkpt>
      <trkpt lat="50.51782" lon="1.59808">
        <ele>10</ele>
        <time>2021-08-11T08:37:20.545Z</time>
      </trkpt>
      <trkpt lat="50.51784" lon="1.59801">
        <ele>10</ele>
        <time>2021-08-11T08:37:24.546Z</time>
      </trkpt>
      <trkpt lat="50.51787" lon="1.59793">
        <ele>10</ele>
        <time>2021-08-11T08:37:29.542Z</time>
      </trkpt>
      <trkpt lat="50.51789" lon="1.59785">
        <ele>11</ele>
        <time>2021-08-11T08:37:34.532Z</time>
      </trkpt>
      <trkpt lat="50.51791" lon="1.59778">
        <ele>11</ele>
        <time>2021-08-11T08:37:38.541Z</time>
      </trkpt>
      <trkpt lat="50.51793" lon="1.59771">
        <ele>12</ele>
        <time>2021-08-11T08:37:42.538Z</time>
      </trkpt>
      <trkpt lat="50.51796" lon="1.59764">
        <ele>10</ele>
        <time>2021-08-11T08:37:46.546Z</time>
      </trkpt>
      <trkpt lat="50.51798" lon="1.59754">
        <ele>10</ele>
        <time>2021-08-11T08:37:51.546Z</time>
      </trkpt>
      <trkpt lat="50.51801" lon="1.59746">
        <ele>10</ele>
        <time>2021-08-11T08:37:56.541Z</time>
      </trkpt>
      <trkpt lat="50.51803" lon="1.59737">
        <ele>10</ele>
        <time>2021-08-11T08:38:01.545Z</time>
      </trkpt>
      <trkpt lat="50.51805" lon="1.59731">
        <ele>11</ele>
        <time>2021-08-11T08:38:05.543Z</time>
      </trkpt>
      <trkpt lat="50.51807" lon="1.59724">
        <ele>11</ele>
        <time>2021-08-11T08:38:09.549Z</time>
      </trkpt>
      <trkpt lat="50.5181" lon="1.59716">
        <ele>11</ele>
        <time>2021-08-11T08:38:14.543Z</time>
      </trkpt>
      <trkpt lat="50.51813" lon="1.59708">
        <ele>9</ele>
        <time>2021-08-11T08:38:19.543Z</time>
      </trkpt>
      <trkpt lat="50.51815" lon="1.59701">
        <ele>9</ele>
        <time>2021-08-11T08:38:23.541Z</time>
      </trkpt>
      <trkpt lat="50.51816" lon="1.59693">
        <ele>9</ele>
        <time>2021-08-11T08:38:27.538Z</time>
      </trkpt>
      <trkpt lat="50.51818" lon="1.59686">
        <ele>9</ele>
        <time>2021-08-11T08:38:31.543Z</time>
      </trkpt>
      <trkpt lat="50.5182" lon="1.59677">
        <ele>9</ele>
        <time>2021-08-11T08:38:36.529Z</time>
      </trkpt>
      <trkpt lat="50.51821" lon="1.5967">
        <ele>9</ele>
        <time>2021-08-11T08:38:40.550Z</time>
      </trkpt>
      <trkpt lat="50.51823" lon="1.5966">
        <ele>9</ele>
        <time>2021-08-11T08:38:45.552Z</time>
      </trkpt>
      <trkpt lat="50.51825" lon="1.59653">
        <ele>9</ele>
        <time>2021-08-11T08:38:49.538Z</time>
      </trkpt>
      <trkpt lat="50.51827" lon="1.59644">
        <ele>8</ele>
        <time>2021-08-11T08:38:54.537Z</time>
      </trkpt>
      <trkpt lat="50.51829" lon="1.59634">
        <ele>8</ele>
        <time>2021-08-11T08:38:59.538Z</time>
      </trkpt>
      <trkpt lat="50.51831" lon="1.59628">
        <ele>8</ele>
        <time>2021-08-11T08:39:03.539Z</time>
      </trkpt>
      <trkpt lat="50.51834" lon="1.59621">
        <ele>8</ele>
        <time>2021-08-11T08:39:08.533Z</time>
      </trkpt>
      <trkpt lat="50.51837" lon="1.59613">
        <ele>8</ele>
        <time>2021-08-11T08:39:12.544Z</time>
      </trkpt>
      <trkpt lat="50.5184" lon="1.59604">
        <ele>8</ele>
        <time>2021-08-11T08:39:17.532Z</time>
      </trkpt>
      <trkpt lat="50.51843" lon="1.59595">
        <ele>9</ele>
        <time>2021-08-11T08:39:22.545Z</time>
      </trkpt>
      <trkpt lat="50.51847" lon="1.59586">
        <ele>9</ele>
        <time>2021-08-11T08:39:27.550Z</time>
      </trkpt>
      <trkpt lat="50.51848" lon="1.59578">
        <ele>8</ele>
        <time>2021-08-11T08:39:31.544Z</time>
      </trkpt>
      <trkpt lat="50.51849" lon="1.59571">
        <ele>8</ele>
        <time>2021-08-11T08:39:35.541Z</time>
      </trkpt>
      <trkpt lat="50.51849" lon="1.59562">
        <ele>10</ele>
        <time>2021-08-11T08:39:40.532Z</time>
      </trkpt>
      <trkpt lat="50.51849" lon="1.59555">
        <ele>10</ele>
        <time>2021-08-11T08:39:44.533Z</time>
      </trkpt>
      <trkpt lat="50.51849" lon="1.59548">
        <ele>10</ele>
        <time>2021-08-11T08:39:48.520Z</time>
      </trkpt>
      <trkpt lat="50.51852" lon="1.59541">
        <ele>9</ele>
        <time>2021-08-11T08:40:16.528Z</time>
      </trkpt>
      <trkpt lat="50.51857" lon="1.59544">
        <ele>10</ele>
        <time>2021-08-11T08:40:20.524Z</time>
      </trkpt>
      <trkpt lat="50.51863" lon="1.59543">
        <ele>10</ele>
        <time>2021-08-11T08:40:25.532Z</time>
      </trkpt>
      <trkpt lat="50.51868" lon="1.59541">
        <ele>9</ele>
        <time>2021-08-11T08:40:29.535Z</time>
      </trkpt>
      <trkpt lat="50.51874" lon="1.59537">
        <ele>9</ele>
        <time>2021-08-11T08:40:34.523Z</time>
      </trkpt>
      <trkpt lat="50.51878" lon="1.59533">
        <ele>9</ele>
        <time>2021-08-11T08:40:38.538Z</time>
      </trkpt>
      <trkpt lat="50.51884" lon="1.59527">
        <ele>9</ele>
        <time>2021-08-11T08:40:43.551Z</time>
      </trkpt>
      <trkpt lat="50.51887" lon="1.59518">
        <ele>9</ele>
        <time>2021-08-11T08:40:48.537Z</time>
      </trkpt>
      <trkpt lat="50.51888" lon="1.59508">
        <ele>11</ele>
        <time>2021-08-11T08:40:53.538Z</time>
      </trkpt>
      <trkpt lat="50.51889" lon="1.59499">
        <ele>11</ele>
        <time>2021-08-11T08:40:58.539Z</time>
      </trkpt>
      <trkpt lat="50.51891" lon="1.59491">
        <ele>11</ele>
        <time>2021-08-11T08:41:03.523Z</time>
      </trkpt>
      <trkpt lat="50.51896" lon="1.59483">
        <ele>10</ele>
        <time>2021-08-11T08:41:08.531Z</time>
      </trkpt>
      <trkpt lat="50.51902" lon="1.59475">
        <ele>10</ele>
        <time>2021-08-11T08:41:13.530Z</time>
      </trkpt>
      <trkpt lat="50.51907" lon="1.5947">
        <ele>10</ele>
        <time>2021-08-11T08:41:17.531Z</time>
      </trkpt>
      <trkpt lat="50.51912" lon="1.59464">
        <ele>10</ele>
        <time>2021-08-11T08:41:22.531Z</time>
      </trkpt>
      <trkpt lat="50.51917" lon="1.59458">
        <ele>10</ele>
        <time>2021-08-11T08:41:27.522Z</time>
      </trkpt>
      <trkpt lat="50.51921" lon="1.59452">
        <ele>9</ele>
        <time>2021-08-11T08:41:32.533Z</time>
      </trkpt>
      <trkpt lat="50.51925" lon="1.59447">
        <ele>9</ele>
        <time>2021-08-11T08:41:37.537Z</time>
      </trkpt>
      <trkpt lat="50.5193" lon="1.59443">
        <ele>9</ele>
        <time>2021-08-11T08:41:42.536Z</time>
      </trkpt>
      <trkpt lat="50.51934" lon="1.59437">
        <ele>11</ele>
        <time>2021-08-11T08:41:47.537Z</time>
      </trkpt>
      <trkpt lat="50.51938" lon="1.59431">
        <ele>11</ele>
        <time>2021-08-11T08:41:52.538Z</time>
      </trkpt>
      <trkpt lat="50.51943" lon="1.59426">
        <ele>10</ele>
        <time>2021-08-11T08:41:57.522Z</time>
      </trkpt>
      <trkpt lat="50.51947" lon="1.59423">
        <ele>10</ele>
        <time>2021-08-11T08:42:01.526Z</time>
      </trkpt>
      <trkpt lat="50.51952" lon="1.59417">
        <ele>10</ele>
        <time>2021-08-11T08:42:06.529Z</time>
      </trkpt>
      <trkpt lat="50.51957" lon="1.59411">
        <ele>10</ele>
        <time>2021-08-11T08:42:11.524Z</time>
      </trkpt>
      <trkpt lat="50.51961" lon="1.59406">
        <ele>11</ele>
        <time>2021-08-11T08:42:15.527Z</time>
      </trkpt>
      <trkpt lat="50.51965" lon="1.59402">
        <ele>11</ele>
        <time>2021-08-11T08:42:20.541Z</time>
      </trkpt>
      <trkpt lat="50.5197" lon="1.59399">
        <ele>11</ele>
        <time>2021-08-11T08:42:25.528Z</time>
      </trkpt>
      <trkpt lat="50.51974" lon="1.59395">
        <ele>11</ele>
        <time>2021-08-11T08:42:29.524Z</time>
      </trkpt>
      <trkpt lat="50.51978" lon="1.59391">
        <ele>11</ele>
        <time>2021-08-11T08:42:33.537Z</time>
      </trkpt>
      <trkpt lat="50.51983" lon="1.59387">
        <ele>11</ele>
        <time>2021-08-11T08:42:38.524Z</time>
      </trkpt>
      <trkpt lat="50.51988" lon="1.5938">
        <ele>10</ele>
        <time>2021-08-11T08:42:43.536Z</time>
      </trkpt>
      <trkpt lat="50.51993" lon="1.59373">
        <ele>11</ele>
        <time>2021-08-11T08:42:48.533Z</time>
      </trkpt>
      <trkpt lat="50.51996" lon="1.59367">
        <ele>11</ele>
        <time>2021-08-11T08:42:52.538Z</time>
      </trkpt>
      <trkpt lat="50.52001" lon="1.59362">
        <ele>11</ele>
        <time>2021-08-11T08:42:57.527Z</time>
      </trkpt>
      <trkpt lat="50.52006" lon="1.59356">
        <ele>11</ele>
        <time>2021-08-11T08:43:02.526Z</time>
      </trkpt>
      <trkpt lat="50.5201" lon="1.59351">
        <ele>11</ele>
        <time>2021-08-11T08:43:07.531Z</time>
      </trkpt>
      <trkpt lat="50.52014" lon="1.59346">
        <ele>9</ele>
        <time>2021-08-11T08:43:11.533Z</time>
      </trkpt>
      <trkpt lat="50.52019" lon="1.59341">
        <ele>9</ele>
        <time>2021-08-11T08:43:16.526Z</time>
      </trkpt>
      <trkpt lat="50.52023" lon="1.59338">
        <ele>9</ele>
        <time>2021-08-11T08:43:20.529Z</time>
      </trkpt>
      <trkpt lat="50.52028" lon="1.59333">
        <ele>9</ele>
        <time>2021-08-11T08:43:25.537Z</time>
      </trkpt>
      <trkpt lat="50.52032" lon="1.59328">
        <ele>9</ele>
        <time>2021-08-11T08:43:30.530Z</time>
      </trkpt>
      <trkpt lat="50.52036" lon="1.59324">
        <ele>9</ele>
        <time>2021-08-11T08:43:34.539Z</time>
      </trkpt>
      <trkpt lat="50.52041" lon="1.5932">
        <ele>9</ele>
        <time>2021-08-11T08:43:39.533Z</time>
      </trkpt>
      <trkpt lat="50.52046" lon="1.59315">
        <ele>9</ele>
        <time>2021-08-11T08:43:44.534Z</time>
      </trkpt>
      <trkpt lat="50.52051" lon="1.59311">
        <ele>9</ele>
        <time>2021-08-11T08:43:49.542Z</time>
      </trkpt>
      <trkpt lat="50.52056" lon="1.59306">
        <ele>9</ele>
        <time>2021-08-11T08:43:54.541Z</time>
      </trkpt>
      <trkpt lat="50.52061" lon="1.59302">
        <ele>9</ele>
        <time>2021-08-11T08:43:59.537Z</time>
      </trkpt>
      <trkpt lat="50.52065" lon="1.59299">
        <ele>9</ele>
        <time>2021-08-11T08:44:03.544Z</time>
      </trkpt>
      <trkpt lat="50.5207" lon="1.59297">
        <ele>8</ele>
        <time>2021-08-11T08:44:08.532Z</time>
      </trkpt>
      <trkpt lat="50.52076" lon="1.59292">
        <ele>8</ele>
        <time>2021-08-11T08:44:13.544Z</time>
      </trkpt>
      <trkpt lat="50.52081" lon="1.59289">
        <ele>7</ele>
        <time>2021-08-11T08:44:18.535Z</time>
      </trkpt>
      <trkpt lat="50.52085" lon="1.59286">
        <ele>7</ele>
        <time>2021-08-11T08:44:22.535Z</time>
      </trkpt>
      <trkpt lat="50.52091" lon="1.59283">
        <ele>7</ele>
        <time>2021-08-11T08:44:27.529Z</time>
      </trkpt>
      <trkpt lat="50.52095" lon="1.59282">
        <ele>7</ele>
        <time>2021-08-11T08:44:31.536Z</time>
      </trkpt>
      <trkpt lat="50.521" lon="1.59281">
        <ele>8</ele>
        <time>2021-08-11T08:44:35.552Z</time>
      </trkpt>
      <trkpt lat="50.52105" lon="1.59281">
        <ele>8</ele>
        <time>2021-08-11T08:44:40.528Z</time>
      </trkpt>
      <trkpt lat="50.52104" lon="1.59282">
        <ele>8</ele>
        <time>2021-08-11T08:44:55.538Z</time>
      </trkpt>
      <trkpt lat="50.52109" lon="1.59278">
        <ele>8</ele>
        <time>2021-08-11T08:45:00.538Z</time>
      </trkpt>
      <trkpt lat="50.52112" lon="1.59269">
        <ele>8</ele>
        <time>2021-08-11T08:45:05.542Z</time>
      </trkpt>
      <trkpt lat="50.52117" lon="1.59265">
        <ele>8</ele>
        <time>2021-08-11T08:45:10.536Z</time>
      </trkpt>
      <trkpt lat="50.52123" lon="1.59262">
        <ele>9</ele>
        <time>2021-08-11T08:45:15.540Z</time>
      </trkpt>
      <trkpt lat="50.52128" lon="1.59259">
        <ele>10</ele>
        <time>2021-08-11T08:45:19.540Z</time>
      </trkpt>
      <trkpt lat="50.52133" lon="1.59256">
        <ele>10</ele>
        <time>2021-08-11T08:45:24.533Z</time>
      </trkpt>
      <trkpt lat="50.52136" lon="1.59258">
        <ele>10</ele>
        <time>2021-08-11T08:45:28.548Z</time>
      </trkpt>
      <trkpt lat="50.52137" lon="1.59257">
        <ele>10</ele>
        <time>2021-08-11T08:45:33.550Z</time>
      </trkpt>
      <trkpt lat="50.5214" lon="1.59257">
        <ele>10</ele>
        <time>2021-08-11T08:45:38.540Z</time>
      </trkpt>
      <trkpt lat="50.52145" lon="1.5925">
        <ele>10</ele>
        <time>2021-08-11T08:45:43.538Z</time>
      </trkpt>
      <trkpt lat="50.52148" lon="1.59244">
        <ele>10</ele>
        <time>2021-08-11T08:45:48.544Z</time>
      </trkpt>
      <trkpt lat="50.52153" lon="1.59238">
        <ele>10</ele>
        <time>2021-08-11T08:45:53.545Z</time>
      </trkpt>
      <trkpt lat="50.52157" lon="1.59232">
        <ele>11</ele>
        <time>2021-08-11T08:45:58.542Z</time>
      </trkpt>
      <trkpt lat="50.52162" lon="1.59228">
        <ele>11</ele>
        <time>2021-08-11T08:46:03.535Z</time>
      </trkpt>
      <trkpt lat="50.52166" lon="1.59222">
        <ele>11</ele>
        <time>2021-08-11T08:46:08.531Z</time>
      </trkpt>
      <trkpt lat="50.5217" lon="1.59214">
        <ele>11</ele>
        <time>2021-08-11T08:46:13.526Z</time>
      </trkpt>
      <trkpt lat="50.52173" lon="1.59209">
        <ele>11</ele>
        <time>2021-08-11T08:46:17.528Z</time>
      </trkpt>
      <trkpt lat="50.52178" lon="1.592">
        <ele>12</ele>
        <time>2021-08-11T08:46:22.526Z</time>
      </trkpt>
      <trkpt lat="50.52181" lon="1.59192">
        <ele>12</ele>
        <time>2021-08-11T08:46:27.530Z</time>
      </trkpt>
      <trkpt lat="50.52184" lon="1.59183">
        <ele>12</ele>
        <time>2021-08-11T08:46:32.538Z</time>
      </trkpt>
      <trkpt lat="50.52188" lon="1.59174">
        <ele>15</ele>
        <time>2021-08-11T08:46:37.534Z</time>
      </trkpt>
      <trkpt lat="50.52191" lon="1.59165">
        <ele>15</ele>
        <time>2021-08-11T08:46:42.548Z</time>
      </trkpt>
      <trkpt lat="50.52194" lon="1.59158">
        <ele>15</ele>
        <time>2021-08-11T08:46:47.540Z</time>
      </trkpt>
      <trkpt lat="50.52197" lon="1.5915">
        <ele>14</ele>
        <time>2021-08-11T08:46:52.527Z</time>
      </trkpt>
      <trkpt lat="50.522" lon="1.59144">
        <ele>14</ele>
        <time>2021-08-11T08:46:56.529Z</time>
      </trkpt>
      <trkpt lat="50.52202" lon="1.59135">
        <ele>14</ele>
        <time>2021-08-11T08:47:01.530Z</time>
      </trkpt>
      <trkpt lat="50.52204" lon="1.59128">
        <ele>14</ele>
        <time>2021-08-11T08:47:05.536Z</time>
      </trkpt>
      <trkpt lat="50.52206" lon="1.5912">
        <ele>16</ele>
        <time>2021-08-11T08:47:10.527Z</time>
      </trkpt>
      <trkpt lat="50.52209" lon="1.59114">
        <ele>14</ele>
        <time>2021-08-11T08:47:14.534Z</time>
      </trkpt>
      <trkpt lat="50.52211" lon="1.59108">
        <ele>14</ele>
        <time>2021-08-11T08:47:18.536Z</time>
      </trkpt>
      <trkpt lat="50.52213" lon="1.591">
        <ele>14</ele>
        <time>2021-08-11T08:47:23.534Z</time>
      </trkpt>
      <trkpt lat="50.52215" lon="1.59091">
        <ele>13</ele>
        <time>2021-08-11T08:47:28.529Z</time>
      </trkpt>
      <trkpt lat="50.52218" lon="1.59083">
        <ele>13</ele>
        <time>2021-08-11T08:47:33.533Z</time>
      </trkpt>
      <trkpt lat="50.5222" lon="1.59074">
        <ele>13</ele>
        <time>2021-08-11T08:47:38.532Z</time>
      </trkpt>
      <trkpt lat="50.52223" lon="1.59066">
        <ele>13</ele>
        <time>2021-08-11T08:47:43.537Z</time>
      </trkpt>
      <trkpt lat="50.52225" lon="1.59057">
        <ele>13</ele>
        <time>2021-08-11T08:47:48.538Z</time>
      </trkpt>
      <trkpt lat="50.52229" lon="1.5905">
        <ele>13</ele>
        <time>2021-08-11T08:47:53.539Z</time>
      </trkpt>
      <trkpt lat="50.52232" lon="1.59042">
        <ele>13</ele>
        <time>2021-08-11T08:47:58.542Z</time>
      </trkpt>
      <trkpt lat="50.52236" lon="1.59035">
        <ele>12</ele>
        <time>2021-08-11T08:48:03.539Z</time>
      </trkpt>
      <trkpt lat="50.5224" lon="1.59027">
        <ele>10</ele>
        <time>2021-08-11T08:48:08.530Z</time>
      </trkpt>
      <trkpt lat="50.52244" lon="1.59022">
        <ele>10</ele>
        <time>2021-08-11T08:48:13.543Z</time>
      </trkpt>
      <trkpt lat="50.52248" lon="1.59017">
        <ele>10</ele>
        <time>2021-08-11T08:48:18.535Z</time>
      </trkpt>
      <trkpt lat="50.52251" lon="1.59012">
        <ele>9</ele>
        <time>2021-08-11T08:48:22.541Z</time>
      </trkpt>
      <trkpt lat="50.52255" lon="1.59006">
        <ele>9</ele>
        <time>2021-08-11T08:48:27.551Z</time>
      </trkpt>
      <trkpt lat="50.5226" lon="1.58998">
        <ele>9</ele>
        <time>2021-08-11T08:48:32.546Z</time>
      </trkpt>
      <trkpt lat="50.52266" lon="1.58991">
        <ele>8</ele>
        <time>2021-08-11T08:48:37.542Z</time>
      </trkpt>
      <trkpt lat="50.52268" lon="1.58989">
        <ele>8</ele>
        <time>2021-08-11T08:48:42.531Z</time>
      </trkpt>
      <trkpt lat="50.52269" lon="1.5899">
        <ele>8</ele>
        <time>2021-08-11T08:48:47.530Z</time>
      </trkpt>
      <trkpt lat="50.52269" lon="1.58989">
        <ele>8</ele>
        <time>2021-08-11T08:49:18.549Z</time>
      </trkpt>
      <trkpt lat="50.52264" lon="1.58992">
        <ele>8</ele>
        <time>2021-08-11T08:49:23.531Z</time>
      </trkpt>
      <trkpt lat="50.52262" lon="1.59001">
        <ele>9</ele>
        <time>2021-08-11T08:49:27.535Z</time>
      </trkpt>
      <trkpt lat="50.52259" lon="1.59008">
        <ele>9</ele>
        <time>2021-08-11T08:49:31.528Z</time>
      </trkpt>
      <trkpt lat="50.52257" lon="1.59018">
        <ele>10</ele>
        <time>2021-08-11T08:49:36.546Z</time>
      </trkpt>
      <trkpt lat="50.52259" lon="1.59028">
        <ele>10</ele>
        <time>2021-08-11T08:49:41.536Z</time>
      </trkpt>
      <trkpt lat="50.52264" lon="1.59036">
        <ele>9</ele>
        <time>2021-08-11T08:49:46.541Z</time>
      </trkpt>
      <trkpt lat="50.52267" lon="1.59042">
        <ele>8</ele>
        <time>2021-08-11T08:49:50.538Z</time>
      </trkpt>
      <trkpt lat="50.52269" lon="1.5905">
        <ele>8</ele>
        <time>2021-08-11T08:49:54.544Z</time>
      </trkpt>
      <trkpt lat="50.52274" lon="1.59057">
        <ele>8</ele>
        <time>2021-08-11T08:49:59.521Z</time>
      </trkpt>
      <trkpt lat="50.52279" lon="1.59062">
        <ele>8</ele>
        <time>2021-08-11T08:50:04.529Z</time>
      </trkpt>
      <trkpt lat="50.52279" lon="1.5907">
        <ele>10</ele>
        <time>2021-08-11T08:50:08.545Z</time>
      </trkpt>
      <trkpt lat="50.52282" lon="1.59073">
        <ele>10</ele>
        <time>2021-08-11T08:50:13.538Z</time>
      </trkpt>
      <trkpt lat="50.5228" lon="1.59063">
        <ele>8</ele>
        <time>2021-08-11T08:50:18.533Z</time>
      </trkpt>
      <trkpt lat="50.52276" lon="1.59055">
        <ele>8</ele>
        <time>2021-08-11T08:50:23.526Z</time>
      </trkpt>
      <trkpt lat="50.52273" lon="1.59048">
        <ele>8</ele>
        <time>2021-08-11T08:50:27.534Z</time>
      </trkpt>
      <trkpt lat="50.52269" lon="1.5904">
        <ele>9</ele>
        <time>2021-08-11T08:50:32.535Z</time>
      </trkpt>
      <trkpt lat="50.52265" lon="1.59034">
        <ele>9</ele>
        <time>2021-08-11T08:50:37.545Z</time>
      </trkpt>
      <trkpt lat="50.52265" lon="1.59027">
        <ele>9</ele>
        <time>2021-08-11T08:50:42.537Z</time>
      </trkpt>
      <trkpt lat="50.52261" lon="1.59022">
        <ele>10</ele>
        <time>2021-08-11T08:50:46.538Z</time>
      </trkpt>
      <trkpt lat="50.52262" lon="1.59011">
        <ele>9</ele>
        <time>2021-08-11T08:50:51.541Z</time>
      </trkpt>
      <trkpt lat="50.52264" lon="1.59003">
        <ele>8</ele>
        <time>2021-08-11T08:50:55.542Z</time>
      </trkpt>
      <trkpt lat="50.52263" lon="1.58993">
        <ele>9</ele>
        <time>2021-08-11T08:50:59.543Z</time>
      </trkpt>
      <trkpt lat="50.52266" lon="1.58985">
        <ele>10</ele>
        <time>2021-08-11T08:51:04.536Z</time>
      </trkpt>
      <trkpt lat="50.52269" lon="1.5898">
        <ele>10</ele>
        <time>2021-08-11T08:51:08.539Z</time>
      </trkpt>
      <trkpt lat="50.52274" lon="1.58975">
        <ele>10</ele>
        <time>2021-08-11T08:51:13.537Z</time>
      </trkpt>
      <trkpt lat="50.52279" lon="1.58968">
        <ele>10</ele>
        <time>2021-08-11T08:51:18.533Z</time>
      </trkpt>
      <trkpt lat="50.52284" lon="1.5896">
        <ele>10</ele>
        <time>2021-08-11T08:51:23.538Z</time>
      </trkpt>
      <trkpt lat="50.52288" lon="1.58953">
        <ele>10</ele>
        <time>2021-08-11T08:51:27.541Z</time>
      </trkpt>
      <trkpt lat="50.52292" lon="1.58948">
        <ele>11</ele>
        <time>2021-08-11T09:14:30.529Z</time>
      </trkpt>
      <trkpt lat="50.52289" lon="1.58952">
        <ele>10</ele>
        <time>2021-08-11T09:14:34.537Z</time>
      </trkpt>
      <trkpt lat="50.52286" lon="1.58956">
        <ele>10</ele>
        <time>2021-08-11T09:14:38.537Z</time>
      </trkpt>
      <trkpt lat="50.5228" lon="1.58962">
        <ele>10</ele>
        <time>2021-08-11T09:14:43.539Z</time>
      </trkpt>
      <trkpt lat="50.52277" lon="1.58969">
        <ele>10</ele>
        <time>2021-08-11T09:14:48.537Z</time>
      </trkpt>
      <trkpt lat="50.52274" lon="1.58975">
        <ele>10</ele>
        <time>2021-08-11T09:14:52.537Z</time>
      </trkpt>
      <trkpt lat="50.5227" lon="1.5898">
        <ele>10</ele>
        <time>2021-08-11T09:14:56.545Z</time>
      </trkpt>
      <trkpt lat="50.52266" lon="1.58989">
        <ele>8</ele>
        <time>2021-08-11T09:15:01.551Z</time>
      </trkpt>
      <trkpt lat="50.52262" lon="1.58997">
        <ele>9</ele>
        <time>2021-08-11T09:15:06.545Z</time>
      </trkpt>
      <trkpt lat="50.5226" lon="1.59005">
        <ele>9</ele>
        <time>2021-08-11T09:15:11.549Z</time>
      </trkpt>
      <trkpt lat="50.5226" lon="1.59013">
        <ele>9</ele>
        <time>2021-08-11T09:15:16.542Z</time>
      </trkpt>
      <trkpt lat="50.52264" lon="1.59015">
        <ele>10</ele>
        <time>2021-08-11T09:15:20.538Z</time>
      </trkpt>
      <trkpt lat="50.52266" lon="1.59019">
        <ele>9</ele>
        <time>2021-08-11T09:15:25.529Z</time>
      </trkpt>
      <trkpt lat="50.52265" lon="1.59018">
        <ele>9</ele>
        <time>2021-08-11T09:16:19.537Z</time>
      </trkpt>
      <trkpt lat="50.52262" lon="1.59015">
        <ele>10</ele>
        <time>2021-08-11T09:16:23.540Z</time>
      </trkpt>
      <trkpt lat="50.52264" lon="1.59007">
        <ele>8</ele>
        <time>2021-08-11T09:16:28.541Z</time>
      </trkpt>
      <trkpt lat="50.52265" lon="1.58997">
        <ele>8</ele>
        <time>2021-08-11T09:16:33.547Z</time>
      </trkpt>
      <trkpt lat="50.52266" lon="1.58988">
        <ele>8</ele>
        <time>2021-08-11T09:16:38.538Z</time>
      </trkpt>
      <trkpt lat="50.52265" lon="1.58979">
        <ele>10</ele>
        <time>2021-08-11T09:16:42.546Z</time>
      </trkpt>
      <trkpt lat="50.52265" lon="1.5897">
        <ele>10</ele>
        <time>2021-08-11T09:16:47.536Z</time>
      </trkpt>
      <trkpt lat="50.52264" lon="1.58962">
        <ele>10</ele>
        <time>2021-08-11T09:16:52.537Z</time>
      </trkpt>
      <trkpt lat="50.52263" lon="1.58953">
        <ele>10</ele>
        <time>2021-08-11T09:16:57.539Z</time>
      </trkpt>
      <trkpt lat="50.52262" lon="1.58946">
        <ele>10</ele>
        <time>2021-08-11T09:17:01.546Z</time>
      </trkpt>
      <trkpt lat="50.5226" lon="1.58938">
        <ele>10</ele>
        <time>2021-08-11T09:17:06.549Z</time>
      </trkpt>
      <trkpt lat="50.52258" lon="1.58932">
        <ele>10</ele>
        <time>2021-08-11T09:17:11.549Z</time>
      </trkpt>
      <trkpt lat="50.52255" lon="1.58932">
        <ele>10</ele>
        <time>2021-08-11T09:17:16.546Z</time>
      </trkpt>
      <trkpt lat="50.52254" lon="1.58934">
        <ele>10</ele>
        <time>2021-08-11T09:17:21.542Z</time>
      </trkpt>
      <trkpt lat="50.52252" lon="1.58937">
        <ele>10</ele>
        <time>2021-08-11T09:17:26.530Z</time>
      </trkpt>
      <trkpt lat="50.52249" lon="1.58926">
        <ele>11</ele>
        <time>2021-08-11T09:17:31.544Z</time>
      </trkpt>
      <trkpt lat="50.52249" lon="1.58923">
        <ele>11</ele>
        <time>2021-08-11T09:17:35.540Z</time>
      </trkpt>
      <trkpt lat="50.52249" lon="1.58922">
        <ele>11</ele>
        <time>2021-08-11T09:17:39.550Z</time>
      </trkpt>
      <trkpt lat="50.52249" lon="1.58921">
        <ele>11</ele>
        <time>2021-08-11T09:19:50.534Z</time>
      </trkpt>
      <trkpt lat="50.5225" lon="1.58923">
        <ele>11</ele>
        <time>2021-08-11T09:19:54.536Z</time>
      </trkpt>
      <trkpt lat="50.52248" lon="1.58927">
        <ele>11</ele>
        <time>2021-08-11T09:19:58.538Z</time>
      </trkpt>
      <trkpt lat="50.52248" lon="1.58927">
        <ele>11</ele>
        <time>2021-08-11T09:20:03.530Z</time>
      </trkpt>
      <trkpt lat="50.5225" lon="1.58933">
        <ele>10</ele>
        <time>2021-08-11T09:20:07.534Z</time>
      </trkpt>
      <trkpt lat="50.52256" lon="1.58939">
        <ele>10</ele>
        <time>2021-08-11T09:20:31.532Z</time>
      </trkpt>
      <trkpt lat="50.52257" lon="1.58938">
        <ele>10</ele>
        <time>2021-08-11T09:20:36.534Z</time>
      </trkpt>
      <trkpt lat="50.52269" lon="1.58931">
        <ele>10</ele>
        <time>2021-08-11T09:20:41.538Z</time>
      </trkpt>
      <trkpt lat="50.52273" lon="1.58922">
        <ele>11</ele>
        <time>2021-08-11T09:20:46.536Z</time>
      </trkpt>
      <trkpt lat="50.52277" lon="1.58906">
        <ele>11</ele>
        <time>2021-08-11T09:20:50.537Z</time>
      </trkpt>
      <trkpt lat="50.52249" lon="1.58925">
        <ele>11</ele>
        <time>2021-08-11T09:20:54.538Z</time>
      </trkpt>
      <trkpt lat="50.52249" lon="1.58925">
        <ele>11</ele>
        <time>2021-08-11T09:20:58.539Z</time>
      </trkpt>
      <trkpt lat="50.52253" lon="1.58939">
        <ele>10</ele>
        <time>2021-08-11T09:21:03.537Z</time>
      </trkpt>
      <trkpt lat="50.5224" lon="1.5895">
        <ele>10</ele>
        <time>2021-08-11T09:21:08.535Z</time>
      </trkpt>
      <trkpt lat="50.5223" lon="1.58947">
        <ele>11</ele>
        <time>2021-08-11T09:21:31.537Z</time>
      </trkpt>
      <trkpt lat="50.52235" lon="1.58946">
        <ele>11</ele>
        <time>2021-08-11T09:21:35.532Z</time>
      </trkpt>
      <trkpt lat="50.52235" lon="1.58946">
        <ele>11</ele>
        <time>2021-08-11T09:22:20.536Z</time>
      </trkpt>
      <trkpt lat="50.52235" lon="1.58946">
        <ele>11</ele>
        <time>2021-08-11T09:22:24.529Z</time>
      </trkpt>
      <trkpt lat="50.52271" lon="1.58931">
        <ele>10</ele>
        <time>2021-08-11T09:22:46.536Z</time>
      </trkpt>
      <trkpt lat="50.52269" lon="1.58927">
        <ele>11</ele>
        <time>2021-08-11T09:23:42.539Z</time>
      </trkpt>
      <trkpt lat="50.52269" lon="1.58926">
        <ele>11</ele>
        <time>2021-08-11T09:23:46.538Z</time>
      </trkpt>
      <trkpt lat="50.5226" lon="1.58939">
        <ele>10</ele>
        <time>2021-08-11T09:23:51.536Z</time>
      </trkpt>
      <trkpt lat="50.52258" lon="1.58937">
        <ele>10</ele>
        <time>2021-08-11T09:23:56.536Z</time>
      </trkpt>
      <trkpt lat="50.52254" lon="1.58937">
        <ele>10</ele>
        <time>2021-08-11T09:24:00.546Z</time>
      </trkpt>
      <trkpt lat="50.5225" lon="1.58942">
        <ele>10</ele>
        <time>2021-08-11T09:24:22.539Z</time>
      </trkpt>
      <trkpt lat="50.5225" lon="1.58942">
        <ele>10</ele>
        <time>2021-08-11T09:24:27.545Z</time>
      </trkpt>
      <trkpt lat="50.5225" lon="1.58935">
        <ele>10</ele>
        <time>2021-08-11T09:24:32.534Z</time>
      </trkpt>
      <trkpt lat="50.52244" lon="1.58934">
        <ele>10</ele>
        <time>2021-08-11T09:24:37.537Z</time>
      </trkpt>
      <trkpt lat="50.52228" lon="1.58951">
        <ele>11</ele>
        <time>2021-08-11T09:24:47.540Z</time>
      </trkpt>
      <trkpt lat="50.52238" lon="1.5895">
        <ele>10</ele>
        <time>2021-08-11T09:27:40.539Z</time>
      </trkpt>
      <trkpt lat="50.52238" lon="1.5895">
        <ele>10</ele>
        <time>2021-08-11T09:27:45.532Z</time>
      </trkpt>
      <trkpt lat="50.52238" lon="1.58951">
        <ele>10</ele>
        <time>2021-08-11T09:27:50.558Z</time>
      </trkpt>
      <trkpt lat="50.52238" lon="1.58955">
        <ele>10</ele>
        <time>2021-08-11T09:27:55.532Z</time>
      </trkpt>
      <trkpt lat="50.52239" lon="1.58956">
        <ele>10</ele>
        <time>2021-08-11T09:27:59.532Z</time>
      </trkpt>
      <trkpt lat="50.52239" lon="1.58958">
        <ele>10</ele>
        <time>2021-08-11T09:29:02.534Z</time>
      </trkpt>
      <trkpt lat="50.52241" lon="1.58958">
        <ele>10</ele>
        <time>2021-08-11T09:29:07.531Z</time>
      </trkpt>
      <trkpt lat="50.52246" lon="1.58959">
        <ele>10</ele>
        <time>2021-08-11T09:29:11.543Z</time>
      </trkpt>
      <trkpt lat="50.52247" lon="1.5896">
        <ele>10</ele>
        <time>2021-08-11T09:29:16.533Z</time>
      </trkpt>
      <trkpt lat="50.5225" lon="1.58957">
        <ele>10</ele>
        <time>2021-08-11T09:29:20.535Z</time>
      </trkpt>
      <trkpt lat="50.52252" lon="1.58954">
        <ele>10</ele>
        <time>2021-08-11T09:29:39.536Z</time>
      </trkpt>
      <trkpt lat="50.52252" lon="1.58954">
        <ele>10</ele>
        <time>2021-08-11T09:29:44.535Z</time>
      </trkpt>
      <trkpt lat="50.52247" lon="1.58952">
        <ele>10</ele>
        <time>2021-08-11T09:29:49.527Z</time>
      </trkpt>
      <trkpt lat="50.52247" lon="1.58952">
        <ele>10</ele>
        <time>2021-08-11T09:29:53.552Z</time>
      </trkpt>
      <trkpt lat="50.52243" lon="1.58953">
        <ele>10</ele>
        <time>2021-08-11T09:29:58.531Z</time>
      </trkpt>
      <trkpt lat="50.52241" lon="1.58948">
        <ele>10</ele>
        <time>2021-08-11T09:30:25.546Z</time>
      </trkpt>
      <trkpt lat="50.52242" lon="1.5891">
        <ele>11</ele>
        <time>2021-08-11T09:30:30.536Z</time>
      </trkpt>
      <trkpt lat="50.52243" lon="1.58906">
        <ele>11</ele>
        <time>2021-08-11T09:30:34.537Z</time>
      </trkpt>
      <trkpt lat="50.52243" lon="1.58904">
        <ele>11</ele>
        <time>2021-08-11T09:30:39.536Z</time>
      </trkpt>
      <trkpt lat="50.52244" lon="1.58904">
        <ele>11</ele>
        <time>2021-08-11T09:30:44.536Z</time>
      </trkpt>
      <trkpt lat="50.52244" lon="1.58906">
        <ele>11</ele>
        <time>2021-08-11T09:31:30.530Z</time>
      </trkpt>
      <trkpt lat="50.52244" lon="1.58906">
        <ele>11</ele>
        <time>2021-08-11T09:31:35.527Z</time>
      </trkpt>
      <trkpt lat="50.52244" lon="1.58906">
        <ele>11</ele>
        <time>2021-08-11T09:31:39.538Z</time>
      </trkpt>
      <trkpt lat="50.52244" lon="1.58905">
        <ele>11</ele>
        <time>2021-08-11T09:31:44.534Z</time>
      </trkpt>
      <trkpt lat="50.52253" lon="1.58912">
        <ele>11</ele>
        <time>2021-08-11T09:31:49.536Z</time>
      </trkpt>
      <trkpt lat="50.52246" lon="1.58911">
        <ele>11</ele>
        <time>2021-08-11T09:34:26.532Z</time>
      </trkpt>
      <trkpt lat="50.52246" lon="1.58911">
        <ele>11</ele>
        <time>2021-08-11T09:34:31.534Z</time>
      </trkpt>
      <trkpt lat="50.52244" lon="1.58906">
        <ele>11</ele>
        <time>2021-08-11T09:34:35.541Z</time>
      </trkpt>
      <trkpt lat="50.52245" lon="1.58902">
        <ele>12</ele>
        <time>2021-08-11T09:34:40.540Z</time>
      </trkpt>
      <trkpt lat="50.52241" lon="1.58891">
        <ele>12</ele>
        <time>2021-08-11T09:34:45.528Z</time>
      </trkpt>
      <trkpt lat="50.52242" lon="1.58885">
        <ele>12</ele>
        <time>2021-08-11T09:34:49.536Z</time>
      </trkpt>
      <trkpt lat="50.52244" lon="1.58877">
        <ele>12</ele>
        <time>2021-08-11T09:34:54.530Z</time>
      </trkpt>
      <trkpt lat="50.52246" lon="1.58872">
        <ele>12</ele>
        <time>2021-08-11T09:34:58.536Z</time>
      </trkpt>
      <trkpt lat="50.52248" lon="1.58866">
        <ele>12</ele>
        <time>2021-08-11T09:35:03.536Z</time>
      </trkpt>
      <trkpt lat="50.52252" lon="1.58861">
        <ele>12</ele>
        <time>2021-08-11T09:35:08.533Z</time>
      </trkpt>
      <trkpt lat="50.52256" lon="1.58855">
        <ele>12</ele>
        <time>2021-08-11T09:35:13.536Z</time>
      </trkpt>
      <trkpt lat="50.5226" lon="1.5885">
        <ele>12</ele>
        <time>2021-08-11T09:35:18.529Z</time>
      </trkpt>
      <trkpt lat="50.52262" lon="1.58843">
        <ele>12</ele>
        <time>2021-08-11T09:35:23.532Z</time>
      </trkpt>
      <trkpt lat="50.52267" lon="1.58836">
        <ele>12</ele>
        <time>2021-08-11T09:35:28.532Z</time>
      </trkpt>
      <trkpt lat="50.5227" lon="1.58831">
        <ele>12</ele>
        <time>2021-08-11T09:35:32.532Z</time>
      </trkpt>
      <trkpt lat="50.52273" lon="1.58822">
        <ele>12</ele>
        <time>2021-08-11T09:35:37.533Z</time>
      </trkpt>
      <trkpt lat="50.52274" lon="1.58814">
        <ele>12</ele>
        <time>2021-08-11T09:35:41.530Z</time>
      </trkpt>
      <trkpt lat="50.52277" lon="1.58806">
        <ele>12</ele>
        <time>2021-08-11T09:35:46.533Z</time>
      </trkpt>
      <trkpt lat="50.5228" lon="1.58797">
        <ele>12</ele>
        <time>2021-08-11T09:35:51.527Z</time>
      </trkpt>
      <trkpt lat="50.52284" lon="1.58788">
        <ele>12</ele>
        <time>2021-08-11T09:35:56.524Z</time>
      </trkpt>
      <trkpt lat="50.52286" lon="1.58784">
        <ele>12</ele>
        <time>2021-08-11T09:36:00.534Z</time>
      </trkpt>
      <trkpt lat="50.52289" lon="1.58779">
        <ele>12</ele>
        <time>2021-08-11T09:36:05.527Z</time>
      </trkpt>
      <trkpt lat="50.52292" lon="1.58773">
        <ele>12</ele>
        <time>2021-08-11T09:36:10.524Z</time>
      </trkpt>
      <trkpt lat="50.52294" lon="1.58767">
        <ele>12</ele>
        <time>2021-08-11T09:36:15.532Z</time>
      </trkpt>
      <trkpt lat="50.52297" lon="1.58761">
        <ele>13</ele>
        <time>2021-08-11T09:36:20.530Z</time>
      </trkpt>
      <trkpt lat="50.52299" lon="1.58753">
        <ele>13</ele>
        <time>2021-08-11T09:36:25.526Z</time>
      </trkpt>
      <trkpt lat="50.52297" lon="1.58745">
        <ele>13</ele>
        <time>2021-08-11T09:36:30.525Z</time>
      </trkpt>
      <trkpt lat="50.52295" lon="1.58745">
        <ele>13</ele>
        <time>2021-08-11T09:36:35.527Z</time>
      </trkpt>
      <trkpt lat="50.52295" lon="1.58744">
        <ele>13</ele>
        <time>2021-08-11T09:36:39.536Z</time>
      </trkpt>
      <trkpt lat="50.52298" lon="1.58738">
        <ele>13</ele>
        <time>2021-08-11T09:36:44.528Z</time>
      </trkpt>
      <trkpt lat="50.52301" lon="1.5873">
        <ele>13</ele>
        <time>2021-08-11T09:36:49.534Z</time>
      </trkpt>
      <trkpt lat="50.52304" lon="1.58724">
        <ele>13</ele>
        <time>2021-08-11T09:36:54.525Z</time>
      </trkpt>
      <trkpt lat="50.52307" lon="1.58718">
        <ele>13</ele>
        <time>2021-08-11T09:36:59.531Z</time>
      </trkpt>
      <trkpt lat="50.5231" lon="1.58712">
        <ele>13</ele>
        <time>2021-08-11T09:37:04.527Z</time>
      </trkpt>
      <trkpt lat="50.52313" lon="1.58707">
        <ele>13</ele>
        <time>2021-08-11T09:37:08.534Z</time>
      </trkpt>
      <trkpt lat="50.52317" lon="1.58701">
        <ele>13</ele>
        <time>2021-08-11T09:37:13.537Z</time>
      </trkpt>
      <trkpt lat="50.5232" lon="1.58694">
        <ele>14</ele>
        <time>2021-08-11T09:37:18.525Z</time>
      </trkpt>
      <trkpt lat="50.52322" lon="1.58686">
        <ele>14</ele>
        <time>2021-08-11T09:37:23.534Z</time>
      </trkpt>
      <trkpt lat="50.52325" lon="1.5868">
        <ele>14</ele>
        <time>2021-08-11T09:37:28.535Z</time>
      </trkpt>
      <trkpt lat="50.52328" lon="1.58672">
        <ele>14</ele>
        <time>2021-08-11T09:37:33.532Z</time>
      </trkpt>
      <trkpt lat="50.52332" lon="1.58667">
        <ele>14</ele>
        <time>2021-08-11T09:37:38.531Z</time>
      </trkpt>
      <trkpt lat="50.52333" lon="1.58668">
        <ele>14</ele>
        <time>2021-08-11T09:37:43.523Z</time>
      </trkpt>
      <trkpt lat="50.52335" lon="1.58669">
        <ele>14</ele>
        <time>2021-08-11T09:38:02.525Z</time>
      </trkpt>
      <trkpt lat="50.52337" lon="1.58662">
        <ele>14</ele>
        <time>2021-08-11T09:38:06.532Z</time>
      </trkpt>
      <trkpt lat="50.52338" lon="1.58655">
        <ele>14</ele>
        <time>2021-08-11T09:38:10.535Z</time>
      </trkpt>
      <trkpt lat="50.52339" lon="1.58648">
        <ele>14</ele>
        <time>2021-08-11T09:38:15.531Z</time>
      </trkpt>
      <trkpt lat="50.52341" lon="1.58642">
        <ele>14</ele>
        <time>2021-08-11T09:38:19.622Z</time>
      </trkpt>
      <trkpt lat="50.52342" lon="1.58634">
        <ele>14</ele>
        <time>2021-08-11T09:38:24.528Z</time>
      </trkpt>
      <trkpt lat="50.52345" lon="1.58626">
        <ele>14</ele>
        <time>2021-08-11T09:38:29.535Z</time>
      </trkpt>
      <trkpt lat="50.52348" lon="1.58618">
        <ele>14</ele>
        <time>2021-08-11T09:38:34.534Z</time>
      </trkpt>
      <trkpt lat="50.52351" lon="1.58612">
        <ele>14</ele>
        <time>2021-08-11T09:38:39.531Z</time>
      </trkpt>
      <trkpt lat="50.52353" lon="1.58608">
        <ele>14</ele>
        <time>2021-08-11T09:38:58.524Z</time>
      </trkpt>
      <trkpt lat="50.52354" lon="1.58606">
        <ele>14</ele>
        <time>2021-08-11T09:39:02.524Z</time>
      </trkpt>
      <trkpt lat="50.52358" lon="1.58599">
        <ele>14</ele>
        <time>2021-08-11T09:39:07.527Z</time>
      </trkpt>
      <trkpt lat="50.52359" lon="1.58593">
        <ele>15</ele>
        <time>2021-08-11T09:39:12.535Z</time>
      </trkpt>
      <trkpt lat="50.5236" lon="1.58586">
        <ele>15</ele>
        <time>2021-08-11T09:39:17.527Z</time>
      </trkpt>
      <trkpt lat="50.52362" lon="1.58581">
        <ele>15</ele>
        <time>2021-08-11T09:39:21.530Z</time>
      </trkpt>
      <trkpt lat="50.52364" lon="1.58576">
        <ele>15</ele>
        <time>2021-08-11T09:39:26.532Z</time>
      </trkpt>
      <trkpt lat="50.52365" lon="1.58573">
        <ele>15</ele>
        <time>2021-08-11T09:39:31.525Z</time>
      </trkpt>
      <trkpt lat="50.52366" lon="1.58566">
        <ele>15</ele>
        <time>2021-08-11T09:39:36.527Z</time>
      </trkpt>
      <trkpt lat="50.52368" lon="1.5856">
        <ele>15</ele>
        <time>2021-08-11T09:39:40.536Z</time>
      </trkpt>
      <trkpt lat="50.52368" lon="1.58555">
        <ele>15</ele>
        <time>2021-08-11T09:39:44.538Z</time>
      </trkpt>
      <trkpt lat="50.5237" lon="1.58545">
        <ele>15</ele>
        <time>2021-08-11T09:39:49.538Z</time>
      </trkpt>
      <trkpt lat="50.52374" lon="1.58539">
        <ele>15</ele>
        <time>2021-08-11T09:39:53.530Z</time>
      </trkpt>
      <trkpt lat="50.52377" lon="1.58533">
        <ele>15</ele>
        <time>2021-08-11T09:39:58.530Z</time>
      </trkpt>
      <trkpt lat="50.52379" lon="1.58527">
        <ele>15</ele>
        <time>2021-08-11T09:40:03.540Z</time>
      </trkpt>
      <trkpt lat="50.52383" lon="1.58523">
        <ele>15</ele>
        <time>2021-08-11T09:40:08.534Z</time>
      </trkpt>
      <trkpt lat="50.52387" lon="1.58517">
        <ele>15</ele>
        <time>2021-08-11T09:40:13.531Z</time>
      </trkpt>
      <trkpt lat="50.52388" lon="1.58516">
        <ele>15</ele>
        <time>2021-08-11T09:40:18.530Z</time>
      </trkpt>
      <trkpt lat="50.52391" lon="1.58513">
        <ele>15</ele>
        <time>2021-08-11T09:40:22.541Z</time>
      </trkpt>
      <trkpt lat="50.52393" lon="1.58506">
        <ele>15</ele>
        <time>2021-08-11T09:40:27.537Z</time>
      </trkpt>
      <trkpt lat="50.52394" lon="1.58499">
        <ele>15</ele>
        <time>2021-08-11T09:40:32.532Z</time>
      </trkpt>
      <trkpt lat="50.52394" lon="1.58493">
        <ele>15</ele>
        <time>2021-08-11T09:40:37.530Z</time>
      </trkpt>
      <trkpt lat="50.52396" lon="1.58489">
        <ele>15</ele>
        <time>2021-08-11T09:40:41.537Z</time>
      </trkpt>
      <trkpt lat="50.52397" lon="1.58483">
        <ele>14</ele>
        <time>2021-08-11T09:40:46.530Z</time>
      </trkpt>
      <trkpt lat="50.52398" lon="1.58479">
        <ele>14</ele>
        <time>2021-08-11T09:40:50.538Z</time>
      </trkpt>
      <trkpt lat="50.524" lon="1.58472">
        <ele>14</ele>
        <time>2021-08-11T09:40:55.535Z</time>
      </trkpt>
      <trkpt lat="50.52402" lon="1.58466">
        <ele>14</ele>
        <time>2021-08-11T09:41:00.531Z</time>
      </trkpt>
      <trkpt lat="50.52406" lon="1.58463">
        <ele>14</ele>
        <time>2021-08-11T09:41:05.535Z</time>
      </trkpt>
      <trkpt lat="50.52409" lon="1.58462">
        <ele>14</ele>
        <time>2021-08-11T09:41:10.533Z</time>
      </trkpt>
      <trkpt lat="50.52411" lon="1.58464">
        <ele>14</ele>
        <time>2021-08-11T09:41:47.537Z</time>
      </trkpt>
      <trkpt lat="50.52408" lon="1.58459">
        <ele>14</ele>
        <time>2021-08-11T09:41:51.534Z</time>
      </trkpt>
      <trkpt lat="50.5241" lon="1.58454">
        <ele>14</ele>
        <time>2021-08-11T09:41:56.529Z</time>
      </trkpt>
      <trkpt lat="50.52411" lon="1.58448">
        <ele>14</ele>
        <time>2021-08-11T09:42:00.535Z</time>
      </trkpt>
      <trkpt lat="50.52413" lon="1.58442">
        <ele>14</ele>
        <time>2021-08-11T09:42:05.538Z</time>
      </trkpt>
      <trkpt lat="50.52415" lon="1.58438">
        <ele>14</ele>
        <time>2021-08-11T09:42:09.538Z</time>
      </trkpt>
      <trkpt lat="50.52417" lon="1.58431">
        <ele>14</ele>
        <time>2021-08-11T09:42:14.524Z</time>
      </trkpt>
      <trkpt lat="50.52418" lon="1.58425">
        <ele>15</ele>
        <time>2021-08-11T09:42:19.531Z</time>
      </trkpt>
      <trkpt lat="50.5242" lon="1.58422">
        <ele>15</ele>
        <time>2021-08-11T09:42:23.545Z</time>
      </trkpt>
      <trkpt lat="50.52422" lon="1.58415">
        <ele>15</ele>
        <time>2021-08-11T09:42:28.536Z</time>
      </trkpt>
      <trkpt lat="50.52424" lon="1.58408">
        <ele>15</ele>
        <time>2021-08-11T09:42:33.532Z</time>
      </trkpt>
      <trkpt lat="50.52427" lon="1.58401">
        <ele>16</ele>
        <time>2021-08-11T09:42:38.529Z</time>
      </trkpt>
      <trkpt lat="50.5243" lon="1.58397">
        <ele>16</ele>
        <time>2021-08-11T09:42:42.534Z</time>
      </trkpt>
      <trkpt lat="50.52433" lon="1.58382">
        <ele>15</ele>
        <time>2021-08-11T09:43:00.546Z</time>
      </trkpt>
      <trkpt lat="50.52433" lon="1.58382">
        <ele>15</ele>
        <time>2021-08-11T09:43:05.538Z</time>
      </trkpt>
      <trkpt lat="50.52433" lon="1.58381">
        <ele>15</ele>
        <time>2021-08-11T09:43:10.536Z</time>
      </trkpt>
      <trkpt lat="50.52435" lon="1.58376">
        <ele>15</ele>
        <time>2021-08-11T09:43:14.534Z</time>
      </trkpt>
      <trkpt lat="50.52436" lon="1.58372">
        <ele>15</ele>
        <time>2021-08-11T09:43:18.531Z</time>
      </trkpt>
      <trkpt lat="50.52434" lon="1.58363">
        <ele>15</ele>
        <time>2021-08-11T09:43:46.537Z</time>
      </trkpt>
      <trkpt lat="50.52434" lon="1.58363">
        <ele>15</ele>
        <time>2021-08-11T09:43:51.534Z</time>
      </trkpt>
      <trkpt lat="50.52434" lon="1.58362">
        <ele>15</ele>
        <time>2021-08-11T09:43:56.529Z</time>
      </trkpt>
      <trkpt lat="50.52435" lon="1.58357">
        <ele>15</ele>
        <time>2021-08-11T09:44:00.531Z</time>
      </trkpt>
      <trkpt lat="50.52438" lon="1.5835">
        <ele>15</ele>
        <time>2021-08-11T09:44:05.537Z</time>
      </trkpt>
      <trkpt lat="50.52441" lon="1.58343">
        <ele>16</ele>
        <time>2021-08-11T09:44:10.533Z</time>
      </trkpt>
      <trkpt lat="50.52443" lon="1.58338">
        <ele>16</ele>
        <time>2021-08-11T09:44:14.536Z</time>
      </trkpt>
      <trkpt lat="50.52441" lon="1.58335">
        <ele>16</ele>
        <time>2021-08-11T09:44:18.535Z</time>
      </trkpt>
      <trkpt lat="50.5244" lon="1.58331">
        <ele>16</ele>
        <time>2021-08-11T09:44:22.540Z</time>
      </trkpt>
      <trkpt lat="50.52438" lon="1.58325">
        <ele>16</ele>
        <time>2021-08-11T09:44:27.526Z</time>
      </trkpt>
      <trkpt lat="50.52437" lon="1.58325">
        <ele>16</ele>
        <time>2021-08-11T09:44:51.531Z</time>
      </trkpt>
      <trkpt lat="50.52434" lon="1.58323">
        <ele>16</ele>
        <time>2021-08-11T09:44:55.537Z</time>
      </trkpt>
      <trkpt lat="50.52434" lon="1.58323">
        <ele>16</ele>
        <time>2021-08-11T09:44:59.549Z</time>
      </trkpt>
      <trkpt lat="50.5243" lon="1.5832">
        <ele>16</ele>
        <time>2021-08-11T09:45:04.538Z</time>
      </trkpt>
      <trkpt lat="50.52428" lon="1.58318">
        <ele>15</ele>
        <time>2021-08-11T09:45:08.536Z</time>
      </trkpt>
      <trkpt lat="50.52421" lon="1.58313">
        <ele>15</ele>
        <time>2021-08-11T09:45:13.527Z</time>
      </trkpt>
      <trkpt lat="50.52417" lon="1.5831">
        <ele>15</ele>
        <time>2021-08-11T09:45:17.533Z</time>
      </trkpt>
      <trkpt lat="50.52414" lon="1.58305">
        <ele>15</ele>
        <time>2021-08-11T09:45:22.550Z</time>
      </trkpt>
      <trkpt lat="50.52411" lon="1.58301">
        <ele>15</ele>
        <time>2021-08-11T09:45:27.528Z</time>
      </trkpt>
      <trkpt lat="50.52409" lon="1.58298">
        <ele>15</ele>
        <time>2021-08-11T09:45:31.533Z</time>
      </trkpt>
      <trkpt lat="50.52405" lon="1.58294">
        <ele>15</ele>
        <time>2021-08-11T09:45:36.528Z</time>
      </trkpt>
      <trkpt lat="50.52402" lon="1.58291">
        <ele>15</ele>
        <time>2021-08-11T09:45:41.531Z</time>
      </trkpt>
      <trkpt lat="50.52397" lon="1.58288">
        <ele>15</ele>
        <time>2021-08-11T09:45:46.526Z</time>
      </trkpt>
      <trkpt lat="50.52393" lon="1.58284">
        <ele>15</ele>
        <time>2021-08-11T09:45:51.533Z</time>
      </trkpt>
      <trkpt lat="50.52387" lon="1.58276">
        <ele>15</ele>
        <time>2021-08-11T09:45:56.524Z</time>
      </trkpt>
      <trkpt lat="50.52383" lon="1.58273">
        <ele>15</ele>
        <time>2021-08-11T09:46:00.532Z</time>
      </trkpt>
      <trkpt lat="50.52379" lon="1.58272">
        <ele>15</ele>
        <time>2021-08-11T09:46:05.529Z</time>
      </trkpt>
      <trkpt lat="50.52375" lon="1.58272">
        <ele>16</ele>
        <time>2021-08-11T09:46:10.536Z</time>
      </trkpt>
      <trkpt lat="50.52373" lon="1.5827">
        <ele>16</ele>
        <time>2021-08-11T09:46:15.538Z</time>
      </trkpt>
      <trkpt lat="50.5237" lon="1.58266">
        <ele>16</ele>
        <time>2021-08-11T09:46:20.543Z</time>
      </trkpt>
      <trkpt lat="50.52366" lon="1.58262">
        <ele>17</ele>
        <time>2021-08-11T09:46:25.523Z</time>
      </trkpt>
      <trkpt lat="50.52363" lon="1.58258">
        <ele>17</ele>
        <time>2021-08-11T09:46:29.536Z</time>
      </trkpt>
      <trkpt lat="50.5236" lon="1.58252">
        <ele>17</ele>
        <time>2021-08-11T09:46:34.541Z</time>
      </trkpt>
      <trkpt lat="50.52356" lon="1.58249">
        <ele>17</ele>
        <time>2021-08-11T09:46:39.531Z</time>
      </trkpt>
      <trkpt lat="50.52352" lon="1.58246">
        <ele>17</ele>
        <time>2021-08-11T09:46:43.551Z</time>
      </trkpt>
      <trkpt lat="50.52349" lon="1.58246">
        <ele>17</ele>
        <time>2021-08-11T09:46:48.536Z</time>
      </trkpt>
      <trkpt lat="50.52345" lon="1.58243">
        <ele>17</ele>
        <time>2021-08-11T09:46:52.534Z</time>
      </trkpt>
      <trkpt lat="50.52343" lon="1.58238">
        <ele>17</ele>
        <time>2021-08-11T09:46:57.533Z</time>
      </trkpt>
      <trkpt lat="50.52342" lon="1.58233">
        <ele>18</ele>
        <time>2021-08-11T09:47:02.533Z</time>
      </trkpt>
      <trkpt lat="50.52339" lon="1.5823">
        <ele>18</ele>
        <time>2021-08-11T09:47:06.533Z</time>
      </trkpt>
      <trkpt lat="50.52335" lon="1.58225">
        <ele>18</ele>
        <time>2021-08-11T09:47:11.532Z</time>
      </trkpt>
      <trkpt lat="50.52331" lon="1.58223">
        <ele>18</ele>
        <time>2021-08-11T09:47:16.530Z</time>
      </trkpt>
      <trkpt lat="50.52327" lon="1.58222">
        <ele>18</ele>
        <time>2021-08-11T09:47:20.532Z</time>
      </trkpt>
      <trkpt lat="50.52319" lon="1.58222">
        <ele>17</ele>
        <time>2021-08-11T09:47:25.539Z</time>
      </trkpt>
      <trkpt lat="50.52314" lon="1.58221">
        <ele>17</ele>
        <time>2021-08-11T09:47:29.536Z</time>
      </trkpt>
      <trkpt lat="50.52309" lon="1.58218">
        <ele>17</ele>
        <time>2021-08-11T09:47:34.542Z</time>
      </trkpt>
      <trkpt lat="50.52304" lon="1.58212">
        <ele>17</ele>
        <time>2021-08-11T09:47:39.544Z</time>
      </trkpt>
      <trkpt lat="50.523" lon="1.58212">
        <ele>17</ele>
        <time>2021-08-11T09:47:43.544Z</time>
      </trkpt>
      <trkpt lat="50.52295" lon="1.58208">
        <ele>17</ele>
        <time>2021-08-11T09:47:48.535Z</time>
      </trkpt>
      <trkpt lat="50.52291" lon="1.58207">
        <ele>16</ele>
        <time>2021-08-11T09:47:53.551Z</time>
      </trkpt>
      <trkpt lat="50.52287" lon="1.58204">
        <ele>16</ele>
        <time>2021-08-11T09:47:58.542Z</time>
      </trkpt>
      <trkpt lat="50.52282" lon="1.58199">
        <ele>16</ele>
        <time>2021-08-11T09:48:03.551Z</time>
      </trkpt>
      <trkpt lat="50.52277" lon="1.58196">
        <ele>16</ele>
        <time>2021-08-11T09:48:08.525Z</time>
      </trkpt>
      <trkpt lat="50.52273" lon="1.58197">
        <ele>16</ele>
        <time>2021-08-11T09:48:12.541Z</time>
      </trkpt>
      <trkpt lat="50.5227" lon="1.58198">
        <ele>16</ele>
        <time>2021-08-11T09:48:16.554Z</time>
      </trkpt>
      <trkpt lat="50.52266" lon="1.58196">
        <ele>16</ele>
        <time>2021-08-11T09:48:21.531Z</time>
      </trkpt>
      <trkpt lat="50.52263" lon="1.58194">
        <ele>16</ele>
        <time>2021-08-11T09:48:25.543Z</time>
      </trkpt>
      <trkpt lat="50.52258" lon="1.58191">
        <ele>16</ele>
        <time>2021-08-11T09:48:30.539Z</time>
      </trkpt>
      <trkpt lat="50.52252" lon="1.58191">
        <ele>16</ele>
        <time>2021-08-11T09:48:34.553Z</time>
      </trkpt>
      <trkpt lat="50.52246" lon="1.58186">
        <ele>16</ele>
        <time>2021-08-11T09:48:39.538Z</time>
      </trkpt>
      <trkpt lat="50.52242" lon="1.58183">
        <ele>16</ele>
        <time>2021-08-11T09:48:43.540Z</time>
      </trkpt>
      <trkpt lat="50.52237" lon="1.5818">
        <ele>15</ele>
        <time>2021-08-11T09:48:48.534Z</time>
      </trkpt>
      <trkpt lat="50.52232" lon="1.58178">
        <ele>17</ele>
        <time>2021-08-11T09:48:52.539Z</time>
      </trkpt>
      <trkpt lat="50.52228" lon="1.58174">
        <ele>17</ele>
        <time>2021-08-11T09:48:57.543Z</time>
      </trkpt>
      <trkpt lat="50.52222" lon="1.58172">
        <ele>17</ele>
        <time>2021-08-11T09:49:02.547Z</time>
      </trkpt>
      <trkpt lat="50.52216" lon="1.58169">
        <ele>17</ele>
        <time>2021-08-11T09:49:07.532Z</time>
      </trkpt>
      <trkpt lat="50.52211" lon="1.58166">
        <ele>17</ele>
        <time>2021-08-11T09:49:12.527Z</time>
      </trkpt>
      <trkpt lat="50.52207" lon="1.58164">
        <ele>18</ele>
        <time>2021-08-11T09:49:17.537Z</time>
      </trkpt>
      <trkpt lat="50.52202" lon="1.58162">
        <ele>18</ele>
        <time>2021-08-11T09:49:22.529Z</time>
      </trkpt>
      <trkpt lat="50.52196" lon="1.5816">
        <ele>18</ele>
        <time>2021-08-11T09:49:27.524Z</time>
      </trkpt>
      <trkpt lat="50.52191" lon="1.58157">
        <ele>18</ele>
        <time>2021-08-11T09:49:31.532Z</time>
      </trkpt>
      <trkpt lat="50.52185" lon="1.58154">
        <ele>18</ele>
        <time>2021-08-11T09:49:36.537Z</time>
      </trkpt>
      <trkpt lat="50.52178" lon="1.58151">
        <ele>18</ele>
        <time>2021-08-11T09:49:41.543Z</time>
      </trkpt>
      <trkpt lat="50.52172" lon="1.58147">
        <ele>18</ele>
        <time>2021-08-11T09:49:46.534Z</time>
      </trkpt>
      <trkpt lat="50.52167" lon="1.58145">
        <ele>18</ele>
        <time>2021-08-11T09:49:50.539Z</time>
      </trkpt>
      <trkpt lat="50.52161" lon="1.58141">
        <ele>18</ele>
        <time>2021-08-11T09:49:55.547Z</time>
      </trkpt>
      <trkpt lat="50.52155" lon="1.58138">
        <ele>18</ele>
        <time>2021-08-11T09:50:00.532Z</time>
      </trkpt>
      <trkpt lat="50.52149" lon="1.58138">
        <ele>17</ele>
        <time>2021-08-11T09:50:05.533Z</time>
      </trkpt>
      <trkpt lat="50.52144" lon="1.58136">
        <ele>17</ele>
        <time>2021-08-11T09:50:10.535Z</time>
      </trkpt>
      <trkpt lat="50.52137" lon="1.58134">
        <ele>17</ele>
        <time>2021-08-11T09:50:15.531Z</time>
      </trkpt>
      <trkpt lat="50.5213" lon="1.58131">
        <ele>17</ele>
        <time>2021-08-11T09:50:20.534Z</time>
      </trkpt>
      <trkpt lat="50.52124" lon="1.58129">
        <ele>16</ele>
        <time>2021-08-11T09:50:25.529Z</time>
      </trkpt>
      <trkpt lat="50.52119" lon="1.58128">
        <ele>16</ele>
        <time>2021-08-11T09:50:29.526Z</time>
      </trkpt>
      <trkpt lat="50.52114" lon="1.58126">
        <ele>16</ele>
        <time>2021-08-11T09:50:33.536Z</time>
      </trkpt>
      <trkpt lat="50.52108" lon="1.58124">
        <ele>16</ele>
        <time>2021-08-11T09:50:38.532Z</time>
      </trkpt>
      <trkpt lat="50.52102" lon="1.58124">
        <ele>16</ele>
        <time>2021-08-11T09:50:43.521Z</time>
      </trkpt>
      <trkpt lat="50.52097" lon="1.58123">
        <ele>16</ele>
        <time>2021-08-11T09:50:47.524Z</time>
      </trkpt>
      <trkpt lat="50.52092" lon="1.58121">
        <ele>15</ele>
        <time>2021-08-11T09:50:52.525Z</time>
      </trkpt>
      <trkpt lat="50.52087" lon="1.58118">
        <ele>15</ele>
        <time>2021-08-11T09:50:57.522Z</time>
      </trkpt>
      <trkpt lat="50.52084" lon="1.58114">
        <ele>15</ele>
        <time>2021-08-11T09:51:01.533Z</time>
      </trkpt>
      <trkpt lat="50.52082" lon="1.58106">
        <ele>15</ele>
        <time>2021-08-11T09:51:06.522Z</time>
      </trkpt>
      <trkpt lat="50.52082" lon="1.58101">
        <ele>15</ele>
        <time>2021-08-11T09:51:10.529Z</time>
      </trkpt>
      <trkpt lat="50.52082" lon="1.58093">
        <ele>15</ele>
        <time>2021-08-11T09:51:15.532Z</time>
      </trkpt>
      <trkpt lat="50.52082" lon="1.58085">
        <ele>15</ele>
        <time>2021-08-11T09:51:20.529Z</time>
      </trkpt>
      <trkpt lat="50.52082" lon="1.58078">
        <ele>15</ele>
        <time>2021-08-11T09:51:24.529Z</time>
      </trkpt>
      <trkpt lat="50.52083" lon="1.58068">
        <ele>15</ele>
        <time>2021-08-11T09:51:29.529Z</time>
      </trkpt>
      <trkpt lat="50.52085" lon="1.5806">
        <ele>15</ele>
        <time>2021-08-11T09:51:33.533Z</time>
      </trkpt>
      <trkpt lat="50.52086" lon="1.5805">
        <ele>15</ele>
        <time>2021-08-11T09:51:38.533Z</time>
      </trkpt>
      <trkpt lat="50.52086" lon="1.58041">
        <ele>12</ele>
        <time>2021-08-11T09:51:43.533Z</time>
      </trkpt>
      <trkpt lat="50.52084" lon="1.58032">
        <ele>12</ele>
        <time>2021-08-11T09:51:48.538Z</time>
      </trkpt>
      <trkpt lat="50.52086" lon="1.58025">
        <ele>12</ele>
        <time>2021-08-11T09:51:53.518Z</time>
      </trkpt>
      <trkpt lat="50.52088" lon="1.58019">
        <ele>12</ele>
        <time>2021-08-11T09:51:57.534Z</time>
      </trkpt>
      <trkpt lat="50.52088" lon="1.58009">
        <ele>10</ele>
        <time>2021-08-11T09:52:02.528Z</time>
      </trkpt>
      <trkpt lat="50.52086" lon="1.57997">
        <ele>10</ele>
        <time>2021-08-11T09:52:07.536Z</time>
      </trkpt>
      <trkpt lat="50.52084" lon="1.57987">
        <ele>10</ele>
        <time>2021-08-11T09:52:12.525Z</time>
      </trkpt>
      <trkpt lat="50.52084" lon="1.5798">
        <ele>8</ele>
        <time>2021-08-11T09:52:16.525Z</time>
      </trkpt>
      <trkpt lat="50.52081" lon="1.57972">
        <ele>8</ele>
        <time>2021-08-11T09:52:20.541Z</time>
      </trkpt>
      <trkpt lat="50.52075" lon="1.57967">
        <ele>8</ele>
        <time>2021-08-11T09:52:25.527Z</time>
      </trkpt>
      <trkpt lat="50.52071" lon="1.57965">
        <ele>8</ele>
        <time>2021-08-11T09:52:29.530Z</time>
      </trkpt>
      <trkpt lat="50.52063" lon="1.57958">
        <ele>9</ele>
        <time>2021-08-11T09:52:34.532Z</time>
      </trkpt>
      <trkpt lat="50.52057" lon="1.57957">
        <ele>6</ele>
        <time>2021-08-11T09:52:39.523Z</time>
      </trkpt>
      <trkpt lat="50.52053" lon="1.57955">
        <ele>6</ele>
        <time>2021-08-11T09:52:43.532Z</time>
      </trkpt>
      <trkpt lat="50.52048" lon="1.57953">
        <ele>6</ele>
        <time>2021-08-11T09:52:47.544Z</time>
      </trkpt>
      <trkpt lat="50.52043" lon="1.57951">
        <ele>6</ele>
        <time>2021-08-11T09:52:52.533Z</time>
      </trkpt>
      <trkpt lat="50.52038" lon="1.57951">
        <ele>7</ele>
        <time>2021-08-11T09:52:56.521Z</time>
      </trkpt>
      <trkpt lat="50.52031" lon="1.57949">
        <ele>7</ele>
        <time>2021-08-11T09:53:01.529Z</time>
      </trkpt>
      <trkpt lat="50.52025" lon="1.57947">
        <ele>7</ele>
        <time>2021-08-11T09:53:06.531Z</time>
      </trkpt>
      <trkpt lat="50.5202" lon="1.57946">
        <ele>7</ele>
        <time>2021-08-11T09:53:10.536Z</time>
      </trkpt>
      <trkpt lat="50.52014" lon="1.57945">
        <ele>7</ele>
        <time>2021-08-11T09:53:15.552Z</time>
      </trkpt>
      <trkpt lat="50.52008" lon="1.57945">
        <ele>9</ele>
        <time>2021-08-11T09:53:20.533Z</time>
      </trkpt>
      <trkpt lat="50.52003" lon="1.57946">
        <ele>9</ele>
        <time>2021-08-11T09:53:24.553Z</time>
      </trkpt>
      <trkpt lat="50.51997" lon="1.57943">
        <ele>9</ele>
        <time>2021-08-11T09:53:29.538Z</time>
      </trkpt>
      <trkpt lat="50.51991" lon="1.57942">
        <ele>9</ele>
        <time>2021-08-11T09:53:34.538Z</time>
      </trkpt>
      <trkpt lat="50.51985" lon="1.57941">
        <ele>9</ele>
        <time>2021-08-11T09:53:39.541Z</time>
      </trkpt>
      <trkpt lat="50.5198" lon="1.57939">
        <ele>9</ele>
        <time>2021-08-11T09:53:43.535Z</time>
      </trkpt>
      <trkpt lat="50.51975" lon="1.57938">
        <ele>9</ele>
        <time>2021-08-11T09:53:47.653Z</time>
      </trkpt>
      <trkpt lat="50.51969" lon="1.57936">
        <ele>9</ele>
        <time>2021-08-11T09:53:52.539Z</time>
      </trkpt>
      <trkpt lat="50.51964" lon="1.57934">
        <ele>9</ele>
        <time>2021-08-11T09:53:57.540Z</time>
      </trkpt>
      <trkpt lat="50.51958" lon="1.57935">
        <ele>10</ele>
        <time>2021-08-11T09:54:02.549Z</time>
      </trkpt>
      <trkpt lat="50.51952" lon="1.57934">
        <ele>10</ele>
        <time>2021-08-11T09:54:07.542Z</time>
      </trkpt>
      <trkpt lat="50.51947" lon="1.57933">
        <ele>10</ele>
        <time>2021-08-11T09:54:12.552Z</time>
      </trkpt>
      <trkpt lat="50.51942" lon="1.5793">
        <ele>7</ele>
        <time>2021-08-11T09:54:17.526Z</time>
      </trkpt>
      <trkpt lat="50.51936" lon="1.57929">
        <ele>7</ele>
        <time>2021-08-11T09:54:21.535Z</time>
      </trkpt>
      <trkpt lat="50.5193" lon="1.57927">
        <ele>8</ele>
        <time>2021-08-11T09:54:26.530Z</time>
      </trkpt>
      <trkpt lat="50.51926" lon="1.57927">
        <ele>8</ele>
        <time>2021-08-11T09:54:30.544Z</time>
      </trkpt>
      <trkpt lat="50.5192" lon="1.57926">
        <ele>8</ele>
        <time>2021-08-11T09:54:35.542Z</time>
      </trkpt>
      <trkpt lat="50.51913" lon="1.57925">
        <ele>8</ele>
        <time>2021-08-11T09:54:40.544Z</time>
      </trkpt>
      <trkpt lat="50.51907" lon="1.57924">
        <ele>8</ele>
        <time>2021-08-11T09:54:45.548Z</time>
      </trkpt>
      <trkpt lat="50.51902" lon="1.57922">
        <ele>9</ele>
        <time>2021-08-11T09:54:50.531Z</time>
      </trkpt>
      <trkpt lat="50.51895" lon="1.57922">
        <ele>9</ele>
        <time>2021-08-11T09:54:55.538Z</time>
      </trkpt>
      <trkpt lat="50.5189" lon="1.57922">
        <ele>9</ele>
        <time>2021-08-11T09:54:59.537Z</time>
      </trkpt>
      <trkpt lat="50.51885" lon="1.57923">
        <ele>9</ele>
        <time>2021-08-11T09:55:04.531Z</time>
      </trkpt>
      <trkpt lat="50.51878" lon="1.57921">
        <ele>9</ele>
        <time>2021-08-11T09:55:09.531Z</time>
      </trkpt>
      <trkpt lat="50.51872" lon="1.5792">
        <ele>10</ele>
        <time>2021-08-11T09:55:14.537Z</time>
      </trkpt>
      <trkpt lat="50.51866" lon="1.57919">
        <ele>10</ele>
        <time>2021-08-11T09:55:19.537Z</time>
      </trkpt>
      <trkpt lat="50.51861" lon="1.57918">
        <ele>10</ele>
        <time>2021-08-11T09:55:24.531Z</time>
      </trkpt>
      <trkpt lat="50.51857" lon="1.57917">
        <ele>10</ele>
        <time>2021-08-11T09:55:28.546Z</time>
      </trkpt>
      <trkpt lat="50.51851" lon="1.57917">
        <ele>10</ele>
        <time>2021-08-11T09:55:33.535Z</time>
      </trkpt>
      <trkpt lat="50.51845" lon="1.57916">
        <ele>11</ele>
        <time>2021-08-11T09:55:38.539Z</time>
      </trkpt>
      <trkpt lat="50.5184" lon="1.57914">
        <ele>11</ele>
        <time>2021-08-11T09:55:43.539Z</time>
      </trkpt>
      <trkpt lat="50.51835" lon="1.57913">
        <ele>11</ele>
        <time>2021-08-11T09:55:47.542Z</time>
      </trkpt>
      <trkpt lat="50.51828" lon="1.57912">
        <ele>11</ele>
        <time>2021-08-11T09:55:52.537Z</time>
      </trkpt>
      <trkpt lat="50.51824" lon="1.57912">
        <ele>11</ele>
        <time>2021-08-11T09:55:56.552Z</time>
      </trkpt>
      <trkpt lat="50.51818" lon="1.57911">
        <ele>11</ele>
        <time>2021-08-11T09:56:01.536Z</time>
      </trkpt>
      <trkpt lat="50.51812" lon="1.57911">
        <ele>11</ele>
        <time>2021-08-11T09:56:06.522Z</time>
      </trkpt>
      <trkpt lat="50.51807" lon="1.57911">
        <ele>11</ele>
        <time>2021-08-11T09:56:10.537Z</time>
      </trkpt>
      <trkpt lat="50.51801" lon="1.57909">
        <ele>11</ele>
        <time>2021-08-11T09:56:15.541Z</time>
      </trkpt>
      <trkpt lat="50.51796" lon="1.57908">
        <ele>11</ele>
        <time>2021-08-11T09:56:20.543Z</time>
      </trkpt>
      <trkpt lat="50.51791" lon="1.57906">
        <ele>10</ele>
        <time>2021-08-11T09:56:25.539Z</time>
      </trkpt>
      <trkpt lat="50.51785" lon="1.57905">
        <ele>10</ele>
        <time>2021-08-11T09:56:30.529Z</time>
      </trkpt>
      <trkpt lat="50.5178" lon="1.57905">
        <ele>10</ele>
        <time>2021-08-11T09:56:34.544Z</time>
      </trkpt>
      <trkpt lat="50.51774" lon="1.57904">
        <ele>10</ele>
        <time>2021-08-11T09:56:39.535Z</time>
      </trkpt>
      <trkpt lat="50.51769" lon="1.57904">
        <ele>10</ele>
        <time>2021-08-11T09:56:43.534Z</time>
      </trkpt>
      <trkpt lat="50.51763" lon="1.57903">
        <ele>8</ele>
        <time>2021-08-11T09:56:48.531Z</time>
      </trkpt>
      <trkpt lat="50.51757" lon="1.57902">
        <ele>8</ele>
        <time>2021-08-11T09:56:53.539Z</time>
      </trkpt>
      <trkpt lat="50.51752" lon="1.57903">
        <ele>9</ele>
        <time>2021-08-11T09:56:57.541Z</time>
      </trkpt>
      <trkpt lat="50.51747" lon="1.57903">
        <ele>9</ele>
        <time>2021-08-11T09:57:02.544Z</time>
      </trkpt>
      <trkpt lat="50.51741" lon="1.57902">
        <ele>8</ele>
        <time>2021-08-11T09:57:07.540Z</time>
      </trkpt>
      <trkpt lat="50.51734" lon="1.57901">
        <ele>6</ele>
        <time>2021-08-11T09:57:12.541Z</time>
      </trkpt>
      <trkpt lat="50.51728" lon="1.57899">
        <ele>6</ele>
        <time>2021-08-11T09:57:17.532Z</time>
      </trkpt>
      <trkpt lat="50.51722" lon="1.57897">
        <ele>6</ele>
        <time>2021-08-11T09:57:22.527Z</time>
      </trkpt>
      <trkpt lat="50.51717" lon="1.57896">
        <ele>6</ele>
        <time>2021-08-11T09:57:26.534Z</time>
      </trkpt>
      <trkpt lat="50.51712" lon="1.57896">
        <ele>6</ele>
        <time>2021-08-11T09:57:30.538Z</time>
      </trkpt>
      <trkpt lat="50.51706" lon="1.57895">
        <ele>7</ele>
        <time>2021-08-11T09:57:35.534Z</time>
      </trkpt>
      <trkpt lat="50.51702" lon="1.57895">
        <ele>7</ele>
        <time>2021-08-11T09:57:39.536Z</time>
      </trkpt>
      <trkpt lat="50.51696" lon="1.57894">
        <ele>7</ele>
        <time>2021-08-11T09:57:44.536Z</time>
      </trkpt>
      <trkpt lat="50.5169" lon="1.57893">
        <ele>7</ele>
        <time>2021-08-11T09:57:49.542Z</time>
      </trkpt>
      <trkpt lat="50.51685" lon="1.57892">
        <ele>7</ele>
        <time>2021-08-11T09:57:54.532Z</time>
      </trkpt>
      <trkpt lat="50.5168" lon="1.57892">
        <ele>9</ele>
        <time>2021-08-11T09:57:58.544Z</time>
      </trkpt>
      <trkpt lat="50.51674" lon="1.57891">
        <ele>9</ele>
        <time>2021-08-11T09:58:03.541Z</time>
      </trkpt>
      <trkpt lat="50.51668" lon="1.5789">
        <ele>9</ele>
        <time>2021-08-11T09:58:08.534Z</time>
      </trkpt>
      <trkpt lat="50.51664" lon="1.5789">
        <ele>9</ele>
        <time>2021-08-11T09:58:12.542Z</time>
      </trkpt>
      <trkpt lat="50.51657" lon="1.57889">
        <ele>9</ele>
        <time>2021-08-11T09:58:17.529Z</time>
      </trkpt>
      <trkpt lat="50.51653" lon="1.57889">
        <ele>10</ele>
        <time>2021-08-11T09:58:21.534Z</time>
      </trkpt>
      <trkpt lat="50.51647" lon="1.57888">
        <ele>10</ele>
        <time>2021-08-11T09:58:25.536Z</time>
      </trkpt>
      <trkpt lat="50.51641" lon="1.57887">
        <ele>10</ele>
        <time>2021-08-11T09:58:30.525Z</time>
      </trkpt>
      <trkpt lat="50.51636" lon="1.57886">
        <ele>10</ele>
        <time>2021-08-11T09:58:35.529Z</time>
      </trkpt>
      <trkpt lat="50.51633" lon="1.57888">
        <ele>10</ele>
        <time>2021-08-11T09:58:39.553Z</time>
      </trkpt>
      <trkpt lat="50.5163" lon="1.57894">
        <ele>10</ele>
        <time>2021-08-11T09:58:44.548Z</time>
      </trkpt>
      <trkpt lat="50.51624" lon="1.57894">
        <ele>12</ele>
        <time>2021-08-11T09:58:49.539Z</time>
      </trkpt>
      <trkpt lat="50.51618" lon="1.57891">
        <ele>12</ele>
        <time>2021-08-11T09:58:54.533Z</time>
      </trkpt>
      <trkpt lat="50.51614" lon="1.5789">
        <ele>12</ele>
        <time>2021-08-11T09:58:58.534Z</time>
      </trkpt>
      <trkpt lat="50.51607" lon="1.5789">
        <ele>12</ele>
        <time>2021-08-11T09:59:03.536Z</time>
      </trkpt>
      <trkpt lat="50.51602" lon="1.5789">
        <ele>12</ele>
        <time>2021-08-11T09:59:08.536Z</time>
      </trkpt>
      <trkpt lat="50.51596" lon="1.57889">
        <ele>16</ele>
        <time>2021-08-11T09:59:13.547Z</time>
      </trkpt>
      <trkpt lat="50.51592" lon="1.57888">
        <ele>16</ele>
        <time>2021-08-11T09:59:17.537Z</time>
      </trkpt>
      <trkpt lat="50.51586" lon="1.57887">
        <ele>16</ele>
        <time>2021-08-11T09:59:22.537Z</time>
      </trkpt>
      <trkpt lat="50.51582" lon="1.57886">
        <ele>16</ele>
        <time>2021-08-11T09:59:26.550Z</time>
      </trkpt>
      <trkpt lat="50.51577" lon="1.57884">
        <ele>16</ele>
        <time>2021-08-11T09:59:31.526Z</time>
      </trkpt>
      <trkpt lat="50.51573" lon="1.57881">
        <ele>16</ele>
        <time>2021-08-11T09:59:35.540Z</time>
      </trkpt>
      <trkpt lat="50.5157" lon="1.57875">
        <ele>13</ele>
        <time>2021-08-11T09:59:39.543Z</time>
      </trkpt>
      <trkpt lat="50.51566" lon="1.57869">
        <ele>14</ele>
        <time>2021-08-11T09:59:44.543Z</time>
      </trkpt>
      <trkpt lat="50.51562" lon="1.57862">
        <ele>14</ele>
        <time>2021-08-11T09:59:49.533Z</time>
      </trkpt>
      <trkpt lat="50.51558" lon="1.57855">
        <ele>14</ele>
        <time>2021-08-11T09:59:54.531Z</time>
      </trkpt>
      <trkpt lat="50.51554" lon="1.57852">
        <ele>14</ele>
        <time>2021-08-11T09:59:58.546Z</time>
      </trkpt>
      <trkpt lat="50.51548" lon="1.57851">
        <ele>14</ele>
        <time>2021-08-11T10:00:03.532Z</time>
      </trkpt>
      <trkpt lat="50.51544" lon="1.5785">
        <ele>14</ele>
        <time>2021-08-11T10:00:07.541Z</time>
      </trkpt>
      <trkpt lat="50.51537" lon="1.57848">
        <ele>15</ele>
        <time>2021-08-11T10:00:12.542Z</time>
      </trkpt>
      <trkpt lat="50.51532" lon="1.57847">
        <ele>12</ele>
        <time>2021-08-11T10:00:17.539Z</time>
      </trkpt>
      <trkpt lat="50.51526" lon="1.57845">
        <ele>12</ele>
        <time>2021-08-11T10:00:22.539Z</time>
      </trkpt>
      <trkpt lat="50.51521" lon="1.57843">
        <ele>12</ele>
        <time>2021-08-11T10:00:27.527Z</time>
      </trkpt>
      <trkpt lat="50.51516" lon="1.57842">
        <ele>12</ele>
        <time>2021-08-11T10:00:31.543Z</time>
      </trkpt>
      <trkpt lat="50.51511" lon="1.57842">
        <ele>13</ele>
        <time>2021-08-11T10:00:35.545Z</time>
      </trkpt>
      <trkpt lat="50.51506" lon="1.57841">
        <ele>13</ele>
        <time>2021-08-11T10:00:40.539Z</time>
      </trkpt>
      <trkpt lat="50.51501" lon="1.5784">
        <ele>13</ele>
        <time>2021-08-11T10:00:44.542Z</time>
      </trkpt>
      <trkpt lat="50.51495" lon="1.57839">
        <ele>13</ele>
        <time>2021-08-11T10:00:49.538Z</time>
      </trkpt>
      <trkpt lat="50.51491" lon="1.57838">
        <ele>13</ele>
        <time>2021-08-11T10:00:53.553Z</time>
      </trkpt>
      <trkpt lat="50.51484" lon="1.57835">
        <ele>15</ele>
        <time>2021-08-11T10:00:58.535Z</time>
      </trkpt>
      <trkpt lat="50.51478" lon="1.57835">
        <ele>15</ele>
        <time>2021-08-11T10:01:03.525Z</time>
      </trkpt>
      <trkpt lat="50.51472" lon="1.57832">
        <ele>15</ele>
        <time>2021-08-11T10:01:08.530Z</time>
      </trkpt>
      <trkpt lat="50.51465" lon="1.57831">
        <ele>15</ele>
        <time>2021-08-11T10:01:13.522Z</time>
      </trkpt>
      <trkpt lat="50.51461" lon="1.57831">
        <ele>15</ele>
        <time>2021-08-11T10:01:17.530Z</time>
      </trkpt>
      <trkpt lat="50.51455" lon="1.57829">
        <ele>15</ele>
        <time>2021-08-11T10:01:22.527Z</time>
      </trkpt>
      <trkpt lat="50.51449" lon="1.57827">
        <ele>15</ele>
        <time>2021-08-11T10:01:27.530Z</time>
      </trkpt>
      <trkpt lat="50.51444" lon="1.57827">
        <ele>15</ele>
        <time>2021-08-11T10:01:31.534Z</time>
      </trkpt>
      <trkpt lat="50.51438" lon="1.57827">
        <ele>15</ele>
        <time>2021-08-11T10:01:36.520Z</time>
      </trkpt>
      <trkpt lat="50.51432" lon="1.57827">
        <ele>15</ele>
        <time>2021-08-11T10:01:41.535Z</time>
      </trkpt>
      <trkpt lat="50.51427" lon="1.57826">
        <ele>15</ele>
        <time>2021-08-11T10:01:45.524Z</time>
      </trkpt>
      <trkpt lat="50.51422" lon="1.57826">
        <ele>15</ele>
        <time>2021-08-11T10:01:50.535Z</time>
      </trkpt>
      <trkpt lat="50.51419" lon="1.5782">
        <ele>15</ele>
        <time>2021-08-11T10:01:55.521Z</time>
      </trkpt>
      <trkpt lat="50.51416" lon="1.57814">
        <ele>13</ele>
        <time>2021-08-11T10:01:59.530Z</time>
      </trkpt>
      <trkpt lat="50.51412" lon="1.57808">
        <ele>13</ele>
        <time>2021-08-11T10:02:04.520Z</time>
      </trkpt>
      <trkpt lat="50.5141" lon="1.57803">
        <ele>13</ele>
        <time>2021-08-11T10:02:08.539Z</time>
      </trkpt>
      <trkpt lat="50.51409" lon="1.57794">
        <ele>13</ele>
        <time>2021-08-11T10:02:13.532Z</time>
      </trkpt>
      <trkpt lat="50.5141" lon="1.57787">
        <ele>15</ele>
        <time>2021-08-11T10:02:18.532Z</time>
      </trkpt>
      <trkpt lat="50.51409" lon="1.57781">
        <ele>15</ele>
        <time>2021-08-11T10:02:23.532Z</time>
      </trkpt>
      <trkpt lat="50.51405" lon="1.57779">
        <ele>15</ele>
        <time>2021-08-11T10:02:27.536Z</time>
      </trkpt>
      <trkpt lat="50.51404" lon="1.57775">
        <ele>15</ele>
        <time>2021-08-11T10:02:32.533Z</time>
      </trkpt>
      <trkpt lat="50.51405" lon="1.57766">
        <ele>15</ele>
        <time>2021-08-11T10:02:37.530Z</time>
      </trkpt>
      <trkpt lat="50.51407" lon="1.57771">
        <ele>15</ele>
        <time>2021-08-11T10:03:13.531Z</time>
      </trkpt>
      <trkpt lat="50.51409" lon="1.57769">
        <ele>15</ele>
        <time>2021-08-11T10:03:18.535Z</time>
      </trkpt>
      <trkpt lat="50.51413" lon="1.57771">
        <ele>15</ele>
        <time>2021-08-11T10:03:22.542Z</time>
      </trkpt>
      <trkpt lat="50.51421" lon="1.57779">
        <ele>15</ele>
        <time>2021-08-11T10:03:27.533Z</time>
      </trkpt>
      <trkpt lat="50.51428" lon="1.57787">
        <ele>15</ele>
        <time>2021-08-11T10:03:32.533Z</time>
      </trkpt>
      <trkpt lat="50.51431" lon="1.57796">
        <ele>13</ele>
        <time>2021-08-11T10:03:36.537Z</time>
      </trkpt>
      <trkpt lat="50.51436" lon="1.57799">
        <ele>13</ele>
        <time>2021-08-11T10:03:41.528Z</time>
      </trkpt>
      <trkpt lat="50.51441" lon="1.57802">
        <ele>13</ele>
        <time>2021-08-11T10:03:46.539Z</time>
      </trkpt>
      <trkpt lat="50.51446" lon="1.57799">
        <ele>13</ele>
        <time>2021-08-11T10:03:51.537Z</time>
      </trkpt>
      <trkpt lat="50.51424" lon="1.57766">
        <ele>15</ele>
        <time>2021-08-11T10:05:52.535Z</time>
      </trkpt>
      <trkpt lat="50.51423" lon="1.57766">
        <ele>15</ele>
        <time>2021-08-11T10:05:57.531Z</time>
      </trkpt>
      <trkpt lat="50.5142" lon="1.57766">
        <ele>15</ele>
        <time>2021-08-11T10:06:01.522Z</time>
      </trkpt>
      <trkpt lat="50.51415" lon="1.57767">
        <ele>15</ele>
        <time>2021-08-11T10:06:06.520Z</time>
      </trkpt>
      <trkpt lat="50.51411" lon="1.57766">
        <ele>15</ele>
        <time>2021-08-11T10:06:10.531Z</time>
      </trkpt>
      <trkpt lat="50.51407" lon="1.57764">
        <ele>15</ele>
        <time>2021-08-11T10:06:15.525Z</time>
      </trkpt>
      <trkpt lat="50.51404" lon="1.57761">
        <ele>9</ele>
        <time>2021-08-11T10:06:19.524Z</time>
      </trkpt>
      <trkpt lat="50.51404" lon="1.57761">
        <ele>9</ele>
        <time>2021-08-11T10:06:24.523Z</time>
      </trkpt>
      <trkpt lat="50.51423" lon="1.57783">
        <ele>15</ele>
        <time>2021-08-11T10:06:35.522Z</time>
      </trkpt>
      <trkpt lat="50.51425" lon="1.57771">
        <ele>15</ele>
        <time>2021-08-11T10:06:39.531Z</time>
      </trkpt>
      <trkpt lat="50.51417" lon="1.57779">
        <ele>15</ele>
        <time>2021-08-11T10:06:44.521Z</time>
      </trkpt>
      <trkpt lat="50.51417" lon="1.57779">
        <ele>15</ele>
        <time>2021-08-11T10:06:49.524Z</time>
      </trkpt>
      <trkpt lat="50.51417" lon="1.57779">
        <ele>15</ele>
        <time>2021-08-11T10:06:54.523Z</time>
      </trkpt>
    </trkseg>
  </trk>
</gpx>